PWSweather.com
Personal Weather Stations
Station Observations
GHWX1
Golden Heights, Sturgeon County, AB T0A1N5

Golden HeightsSturgeon County, AB T0A1N5

Lat: 53.919, Lon: -113.37

Elevation: 2159

Station Type:

http://www.ghwx.ca

High Low Average
Temperature 7.3°F-13.7°F 2.5°F-16.4°F 4.6°F-15.2°F
Dew Point 5.2°F-14.9°F 0.4°F-17.6°F 2.7°F-16.3°F
Winds 15.0 mph -24.1 mph - 1.0 mph 1.6 mph 6.1 mph 9.8 mph
Wind Gusts -- -- --
Humidity 94% 86% 91%
Pressure 30.03 in1016.90 in 29.85 in1010.80 in -
Precipitation 0.00 in0.00 in - -
Hour Temp Dew Point Humidity Winds Wind Gusts Pressure Precip Precip Rate Daily Precip Total
12:00 AM 3.7°F-15.7°C 2.1°F-16.6°C 93% 6.0 mph ENE9.7 kmh ENE -- 30.03 in1016.9 mb 0.00 in0.0 mm 0.00 in0.0 mm 0.00 in0.0 mm
12:01 AM 3.7°F-15.7°C 2.1°F-16.6°C 93% 8.0 mph ENE12.9 kmh ENE -- 30.03 in1016.9 mb 0.00 in0.0 mm 0.00 in0.0 mm 0.00 in0.0 mm
12:02 AM 3.7°F-15.7°C 2.1°F-16.6°C 93% 8.0 mph SE12.9 kmh SE -- 30.03 in1016.9 mb 0.00 in0.0 mm 0.00 in0.0 mm 0.00 in0.0 mm
12:03 AM 3.7°F-15.7°C 2.1°F-16.6°C 93% 9.0 mph ESE14.5 kmh ESE -- 30.03 in1016.9 mb 0.00 in0.0 mm 0.00 in0.0 mm 0.00 in0.0 mm
12:04 AM 3.7°F-15.7°C 2.1°F-16.6°C 93% 11.0 mph E17.7 kmh E -- 30.03 in1016.9 mb 0.00 in0.0 mm 0.00 in0.0 mm 0.00 in0.0 mm
12:05 AM 3.7°F-15.7°C 2.1°F-16.6°C 93% 8.0 mph ESE12.9 kmh ESE -- 30.03 in1016.9 mb 0.00 in0.0 mm 0.00 in0.0 mm 0.00 in0.0 mm
12:06 AM 3.7°F-15.7°C 2.1°F-16.6°C 93% 6.0 mph E9.7 kmh E -- 30.03 in1016.9 mb 0.00 in0.0 mm 0.00 in0.0 mm 0.00 in0.0 mm
12:07 AM 3.7°F-15.7°C 2.1°F-16.6°C 93% 8.0 mph E12.9 kmh E -- 30.03 in1016.9 mb 0.00 in0.0 mm 0.00 in0.0 mm 0.00 in0.0 mm
12:08 AM 3.7°F-15.7°C 2.1°F-16.6°C 93% 11.0 mph ESE17.7 kmh ESE -- 30.03 in1016.9 mb 0.00 in0.0 mm 0.00 in0.0 mm 0.00 in0.0 mm
12:09 AM 3.7°F-15.7°C 2.1°F-16.6°C 93% 12.0 mph E19.3 kmh E -- 30.03 in1016.9 mb 0.00 in0.0 mm 0.00 in0.0 mm 0.00 in0.0 mm
12:10 AM 3.7°F-15.7°C 2.1°F-16.6°C 93% 11.0 mph E17.7 kmh E -- 30.03 in1016.9 mb 0.00 in0.0 mm 0.00 in0.0 mm 0.00 in0.0 mm
12:11 AM 3.7°F-15.7°C 2.1°F-16.6°C 93% 7.0 mph ESE11.3 kmh ESE -- 30.03 in1016.9 mb 0.00 in0.0 mm 0.00 in0.0 mm 0.00 in0.0 mm
12:12 AM 3.7°F-15.7°C 2.1°F-16.6°C 93% 7.0 mph ENE11.3 kmh ENE -- 30.03 in1016.9 mb 0.00 in0.0 mm 0.00 in0.0 mm 0.00 in0.0 mm
12:13 AM 3.7°F-15.7°C 2.1°F-16.6°C 93% 7.0 mph SSE11.3 kmh SSE -- 30.03 in1016.9 mb 0.00 in0.0 mm 0.00 in0.0 mm 0.00 in0.0 mm
12:14 AM 3.7°F-15.7°C 2.1°F-16.6°C 93% 8.0 mph SSE12.9 kmh SSE -- 30.03 in1016.9 mb 0.00 in0.0 mm 0.00 in0.0 mm 0.00 in0.0 mm
12:15 AM 3.7°F-15.7°C 2.1°F-16.6°C 93% 7.0 mph ESE11.3 kmh ESE -- 30.03 in1016.9 mb 0.00 in0.0 mm 0.00 in0.0 mm 0.00 in0.0 mm
12:16 AM 3.7°F-15.7°C 2.1°F-16.6°C 93% 7.0 mph E11.3 kmh E -- 30.03 in1016.9 mb 0.00 in0.0 mm 0.00 in0.0 mm 0.00 in0.0 mm
12:17 AM 3.7°F-15.7°C 2.1°F-16.6°C 93% 9.0 mph E14.5 kmh E -- 30.03 in1016.9 mb 0.00 in0.0 mm 0.00 in0.0 mm 0.00 in0.0 mm
12:18 AM 3.7°F-15.7°C 2.1°F-16.6°C 93% 9.0 mph ESE14.5 kmh ESE -- 30.03 in1016.9 mb 0.00 in0.0 mm 0.00 in0.0 mm 0.00 in0.0 mm
12:19 AM 3.7°F-15.7°C 2.1°F-16.6°C 93% 8.0 mph SE12.9 kmh SE -- 30.03 in1016.9 mb 0.00 in0.0 mm 0.00 in0.0 mm 0.00 in0.0 mm
12:20 AM 3.7°F-15.7°C 2.1°F-16.6°C 93% 9.0 mph E14.5 kmh E -- 30.03 in1016.9 mb 0.00 in0.0 mm 0.00 in0.0 mm 0.00 in0.0 mm
12:21 AM 3.7°F-15.7°C 2.1°F-16.6°C 93% 8.0 mph SE12.9 kmh SE -- 30.03 in1016.9 mb 0.00 in0.0 mm 0.00 in0.0 mm 0.00 in0.0 mm
12:22 AM 3.7°F-15.7°C 2.1°F-16.6°C 93% 7.0 mph ESE11.3 kmh ESE -- 30.03 in1016.9 mb 0.00 in0.0 mm 0.00 in0.0 mm 0.00 in0.0 mm
12:23 AM 3.7°F-15.7°C 2.1°F-16.6°C 93% 8.0 mph ESE12.9 kmh ESE -- 30.03 in1016.9 mb 0.00 in0.0 mm 0.00 in0.0 mm 0.00 in0.0 mm
12:24 AM 3.7°F-15.7°C 2.1°F-16.6°C 93% 6.0 mph ESE9.7 kmh ESE -- 30.02 in1016.6 mb 0.00 in0.0 mm 0.00 in0.0 mm 0.00 in0.0 mm
12:25 AM 3.7°F-15.7°C 2.1°F-16.6°C 93% 6.0 mph SE9.7 kmh SE -- 30.03 in1016.9 mb 0.00 in0.0 mm 0.00 in0.0 mm 0.00 in0.0 mm
12:26 AM 3.7°F-15.7°C 2.1°F-16.6°C 93% 7.0 mph ENE11.3 kmh ENE -- 30.03 in1016.9 mb 0.00 in0.0 mm 0.00 in0.0 mm 0.00 in0.0 mm
12:27 AM 3.7°F-15.7°C 2.1°F-16.6°C 93% 6.0 mph E9.7 kmh E -- 30.02 in1016.6 mb 0.00 in0.0 mm 0.00 in0.0 mm 0.00 in0.0 mm
12:28 AM 3.7°F-15.7°C 2.1°F-16.6°C 93% 8.0 mph ESE12.9 kmh ESE -- 30.03 in1016.9 mb 0.00 in0.0 mm 0.00 in0.0 mm 0.00 in0.0 mm
12:29 AM 3.7°F-15.7°C 2.1°F-16.6°C 93% 6.0 mph NE9.7 kmh NE -- 30.03 in1016.9 mb 0.00 in0.0 mm 0.00 in0.0 mm 0.00 in0.0 mm
12:30 AM 3.7°F-15.7°C 2.1°F-16.6°C 93% 6.0 mph SE9.7 kmh SE -- 30.03 in1016.9 mb 0.00 in0.0 mm 0.00 in0.0 mm 0.00 in0.0 mm
12:31 AM 3.7°F-15.7°C 2.1°F-16.6°C 93% 9.0 mph ESE14.5 kmh ESE -- 30.03 in1016.9 mb 0.00 in0.0 mm 0.00 in0.0 mm 0.00 in0.0 mm
12:32 AM 3.7°F-15.7°C 2.1°F-16.6°C 93% 9.0 mph ESE14.5 kmh ESE -- 30.02 in1016.6 mb 0.00 in0.0 mm 0.00 in0.0 mm 0.00 in0.0 mm
12:33 AM 3.7°F-15.7°C 2.1°F-16.6°C 93% 5.0 mph ESE8.0 kmh ESE -- 30.02 in1016.6 mb 0.00 in0.0 mm 0.00 in0.0 mm 0.00 in0.0 mm
12:34 AM 3.7°F-15.7°C 2.1°F-16.6°C 93% 6.0 mph ENE9.7 kmh ENE -- 30.03 in1016.9 mb 0.00 in0.0 mm 0.00 in0.0 mm 0.00 in0.0 mm
12:35 AM 3.7°F-15.7°C 2.1°F-16.6°C 93% 10.0 mph E16.1 kmh E -- 30.03 in1016.9 mb 0.00 in0.0 mm 0.00 in0.0 mm 0.00 in0.0 mm
12:36 AM 3.7°F-15.7°C 2.1°F-16.6°C 93% 7.0 mph E11.3 kmh E -- 30.03 in1016.9 mb 0.00 in0.0 mm 0.00 in0.0 mm 0.00 in0.0 mm
12:37 AM 3.7°F-15.7°C 2.1°F-16.6°C 93% 9.0 mph SE14.5 kmh SE -- 30.02 in1016.6 mb 0.00 in0.0 mm 0.00 in0.0 mm 0.00 in0.0 mm
12:38 AM 3.7°F-15.7°C 2.1°F-16.6°C 93% 7.0 mph E11.3 kmh E -- 30.02 in1016.6 mb 0.00 in0.0 mm 0.00 in0.0 mm 0.00 in0.0 mm
12:39 AM 3.7°F-15.7°C 2.1°F-16.6°C 93% 10.0 mph ENE16.1 kmh ENE -- 30.02 in1016.6 mb 0.00 in0.0 mm 0.00 in0.0 mm 0.00 in0.0 mm
12:40 AM 3.7°F-15.7°C 2.1°F-16.6°C 93% 8.0 mph ESE12.9 kmh ESE -- 30.02 in1016.6 mb 0.00 in0.0 mm 0.00 in0.0 mm 0.00 in0.0 mm
12:41 AM 3.7°F-15.7°C 2.1°F-16.6°C 93% 7.0 mph ENE11.3 kmh ENE -- 30.02 in1016.6 mb 0.00 in0.0 mm 0.00 in0.0 mm 0.00 in0.0 mm
12:42 AM 3.7°F-15.7°C 2.1°F-16.6°C 93% 9.0 mph ENE14.5 kmh ENE -- 30.02 in1016.6 mb 0.00 in0.0 mm 0.00 in0.0 mm 0.00 in0.0 mm
12:43 AM 3.7°F-15.7°C 2.1°F-16.6°C 93% 8.0 mph SSE12.9 kmh SSE -- 30.02 in1016.6 mb 0.00 in0.0 mm 0.00 in0.0 mm 0.00 in0.0 mm
12:44 AM 3.7°F-15.7°C 2.1°F-16.6°C 93% 7.0 mph ESE11.3 kmh ESE -- 30.02 in1016.6 mb 0.00 in0.0 mm 0.00 in0.0 mm 0.00 in0.0 mm
12:45 AM 3.7°F-15.7°C 2.1°F-16.6°C 93% 10.0 mph ESE16.1 kmh ESE -- 30.02 in1016.6 mb 0.00 in0.0 mm 0.00 in0.0 mm 0.00 in0.0 mm
12:46 AM 3.7°F-15.7°C 2.1°F-16.6°C 93% 8.0 mph SSE12.9 kmh SSE -- 30.02 in1016.6 mb 0.00 in0.0 mm 0.00 in0.0 mm 0.00 in0.0 mm
12:47 AM 3.7°F-15.7°C 2.1°F-16.6°C 93% 5.0 mph ENE8.0 kmh ENE -- 30.02 in1016.6 mb 0.00 in0.0 mm 0.00 in0.0 mm 0.00 in0.0 mm
12:48 AM 3.7°F-15.7°C 2.1°F-16.6°C 93% 7.0 mph ESE11.3 kmh ESE -- 30.02 in1016.6 mb 0.00 in0.0 mm 0.00 in0.0 mm 0.00 in0.0 mm
12:49 AM 3.7°F-15.7°C 2.1°F-16.6°C 93% 5.0 mph E8.0 kmh E -- 30.02 in1016.6 mb 0.00 in0.0 mm 0.00 in0.0 mm 0.00 in0.0 mm
12:50 AM 3.7°F-15.7°C 2.1°F-16.6°C 93% 5.0 mph ESE8.0 kmh ESE -- 30.02 in1016.6 mb 0.00 in0.0 mm 0.00 in0.0 mm 0.00 in0.0 mm
12:51 AM 3.7°F-15.7°C 2.1°F-16.6°C 93% 7.0 mph ESE11.3 kmh ESE -- 30.02 in1016.6 mb 0.00 in0.0 mm 0.00 in0.0 mm 0.00 in0.0 mm
12:52 AM 3.7°F-15.7°C 2.1°F-16.6°C 93% 10.0 mph ESE16.1 kmh ESE -- 30.02 in1016.6 mb 0.00 in0.0 mm 0.00 in0.0 mm 0.00 in0.0 mm
12:53 AM 3.7°F-15.7°C 2.1°F-16.6°C 93% 8.0 mph SSE12.9 kmh SSE -- 30.02 in1016.6 mb 0.00 in0.0 mm 0.00 in0.0 mm 0.00 in0.0 mm
12:54 AM 3.7°F-15.7°C 2.1°F-16.6°C 93% 8.0 mph E12.9 kmh E -- 30.02 in1016.6 mb 0.00 in0.0 mm 0.00 in0.0 mm 0.00 in0.0 mm
12:55 AM 3.7°F-15.7°C 2.1°F-16.6°C 93% 8.0 mph ESE12.9 kmh ESE -- 30.01 in1016.3 mb 0.00 in0.0 mm 0.00 in0.0 mm 0.00 in0.0 mm
12:56 AM 3.7°F-15.7°C 2.1°F-16.6°C 93% 7.0 mph ENE11.3 kmh ENE -- 30.02 in1016.6 mb 0.00 in0.0 mm 0.00 in0.0 mm 0.00 in0.0 mm
12:57 AM 3.7°F-15.7°C 2.1°F-16.6°C 93% 5.0 mph ENE8.0 kmh ENE -- 30.02 in1016.6 mb 0.00 in0.0 mm 0.00 in0.0 mm 0.00 in0.0 mm
12:58 AM 3.7°F-15.7°C 2.1°F-16.6°C 93% 7.0 mph NE11.3 kmh NE -- 30.01 in1016.3 mb 0.00 in0.0 mm 0.00 in0.0 mm 0.00 in0.0 mm
12:59 AM 3.7°F-15.7°C 2.1°F-16.6°C 93% 6.0 mph ESE9.7 kmh ESE -- 30.02 in1016.6 mb 0.00 in0.0 mm 0.00 in0.0 mm 0.00 in0.0 mm
01:00 AM 3.7°F-15.7°C 2.1°F-16.6°C 93% 7.0 mph ESE11.3 kmh ESE -- 30.02 in1016.6 mb 0.00 in0.0 mm 0.00 in0.0 mm 0.00 in0.0 mm
01:01 AM 3.7°F-15.7°C 2.1°F-16.6°C 93% 5.0 mph ENE8.0 kmh ENE -- 30.01 in1016.3 mb 0.00 in0.0 mm 0.00 in0.0 mm 0.00 in0.0 mm
01:02 AM 3.7°F-15.7°C 2.1°F-16.6°C 93% 7.0 mph ENE11.3 kmh ENE -- 30.01 in1016.3 mb 0.00 in0.0 mm 0.00 in0.0 mm 0.00 in0.0 mm
01:03 AM 3.7°F-15.7°C 2.1°F-16.6°C 93% 8.0 mph ESE12.9 kmh ESE -- 30.01 in1016.3 mb 0.00 in0.0 mm 0.00 in0.0 mm 0.00 in0.0 mm
01:04 AM 3.7°F-15.7°C 2.1°F-16.6°C 93% 4.0 mph E6.4 kmh E -- 30.01 in1016.3 mb 0.00 in0.0 mm 0.00 in0.0 mm 0.00 in0.0 mm
01:05 AM 3.7°F-15.7°C 2.1°F-16.6°C 93% 6.0 mph ESE9.7 kmh ESE -- 30.01 in1016.3 mb 0.00 in0.0 mm 0.00 in0.0 mm 0.00 in0.0 mm
01:07 AM 3.7°F-15.7°C 2.1°F-16.6°C 93% 7.0 mph E11.3 kmh E -- 30.01 in1016.3 mb 0.00 in0.0 mm 0.00 in0.0 mm 0.00 in0.0 mm
01:08 AM 3.7°F-15.7°C 2.1°F-16.6°C 93% 5.0 mph ESE8.0 kmh ESE -- 30.01 in1016.3 mb 0.00 in0.0 mm 0.00 in0.0 mm 0.00 in0.0 mm
01:09 AM 3.7°F-15.7°C 2.1°F-16.6°C 93% 5.0 mph ENE8.0 kmh ENE -- 30.01 in1016.3 mb 0.00 in0.0 mm 0.00 in0.0 mm 0.00 in0.0 mm
01:10 AM 3.7°F-15.7°C 2.1°F-16.6°C 93% 6.0 mph ENE9.7 kmh ENE -- 30.01 in1016.3 mb 0.00 in0.0 mm 0.00 in0.0 mm 0.00 in0.0 mm
01:11 AM 3.7°F-15.7°C 2.1°F-16.6°C 93% 7.0 mph ESE11.3 kmh ESE -- 30.01 in1016.3 mb 0.00 in0.0 mm 0.00 in0.0 mm 0.00 in0.0 mm
01:12 AM 3.7°F-15.7°C 2.1°F-16.6°C 93% 6.0 mph SSE9.7 kmh SSE -- 30.01 in1016.3 mb 0.00 in0.0 mm 0.00 in0.0 mm 0.00 in0.0 mm
01:13 AM 3.7°F-15.7°C 2.1°F-16.6°C 93% 11.0 mph ENE17.7 kmh ENE -- 30.01 in1016.3 mb 0.00 in0.0 mm 0.00 in0.0 mm 0.00 in0.0 mm
01:14 AM 3.7°F-15.7°C 2.1°F-16.6°C 93% 10.0 mph E16.1 kmh E -- 30.01 in1016.3 mb 0.00 in0.0 mm 0.00 in0.0 mm 0.00 in0.0 mm
01:15 AM 3.7°F-15.7°C 2.1°F-16.6°C 93% 7.0 mph E11.3 kmh E -- 30.01 in1016.3 mb 0.00 in0.0 mm 0.00 in0.0 mm 0.00 in0.0 mm
01:16 AM 3.7°F-15.7°C 2.1°F-16.6°C 93% 10.0 mph ESE16.1 kmh ESE -- 30.00 in1015.9 mb 0.00 in0.0 mm 0.00 in0.0 mm 0.00 in0.0 mm
01:17 AM 3.7°F-15.7°C 2.1°F-16.6°C 93% 9.0 mph ESE14.5 kmh ESE -- 30.01 in1016.3 mb 0.00 in0.0 mm 0.00 in0.0 mm 0.00 in0.0 mm
01:18 AM 3.7°F-15.7°C 2.1°F-16.6°C 93% 5.0 mph E8.0 kmh E -- 30.01 in1016.3 mb 0.00 in0.0 mm 0.00 in0.0 mm 0.00 in0.0 mm
01:19 AM 3.7°F-15.7°C 2.1°F-16.6°C 93% 7.0 mph E11.3 kmh E -- 30.00 in1015.9 mb 0.00 in0.0 mm 0.00 in0.0 mm 0.00 in0.0 mm
01:20 AM 3.7°F-15.7°C 2.1°F-16.6°C 93% 6.0 mph ESE9.7 kmh ESE -- 30.01 in1016.3 mb 0.00 in0.0 mm 0.00 in0.0 mm 0.00 in0.0 mm
01:22 AM 3.7°F-15.7°C 2.1°F-16.6°C 93% 10.0 mph E16.1 kmh E -- 30.01 in1016.3 mb 0.00 in0.0 mm 0.00 in0.0 mm 0.00 in0.0 mm
01:23 AM 3.7°F-15.7°C 2.1°F-16.6°C 93% 4.0 mph E6.4 kmh E -- 30.01 in1016.3 mb 0.00 in0.0 mm 0.00 in0.0 mm 0.00 in0.0 mm
01:25 AM 3.7°F-15.7°C 2.1°F-16.6°C 93% 5.0 mph E8.0 kmh E -- 30.00 in1015.9 mb 0.00 in0.0 mm 0.00 in0.0 mm 0.00 in0.0 mm
01:26 AM 3.9°F-15.6°C 2.3°F-16.5°C 93% 5.0 mph ENE8.0 kmh ENE -- 30.01 in1016.3 mb 0.00 in0.0 mm 0.00 in0.0 mm 0.00 in0.0 mm
01:27 AM 3.9°F-15.6°C 2.3°F-16.5°C 93% 8.0 mph E12.9 kmh E -- 30.01 in1016.3 mb 0.00 in0.0 mm 0.00 in0.0 mm 0.00 in0.0 mm
01:28 AM 3.9°F-15.6°C 2.3°F-16.5°C 93% 6.0 mph E9.7 kmh E -- 30.01 in1016.3 mb 0.00 in0.0 mm 0.00 in0.0 mm 0.00 in0.0 mm
01:29 AM 3.9°F-15.6°C 2.3°F-16.5°C 93% 8.0 mph E12.9 kmh E -- 30.01 in1016.3 mb 0.00 in0.0 mm 0.00 in0.0 mm 0.00 in0.0 mm
01:30 AM 3.9°F-15.6°C 2.3°F-16.5°C 93% 15.0 mph ESE24.1 kmh ESE -- 30.00 in1015.9 mb 0.00 in0.0 mm 0.00 in0.0 mm 0.00 in0.0 mm
01:31 AM 3.9°F-15.6°C 2.3°F-16.5°C 93% 9.0 mph NE14.5 kmh NE -- 30.00 in1015.9 mb 0.00 in0.0 mm 0.00 in0.0 mm 0.00 in0.0 mm
01:32 AM 3.9°F-15.6°C 2.3°F-16.5°C 93% 11.0 mph ENE17.7 kmh ENE -- 30.01 in1016.3 mb 0.00 in0.0 mm 0.00 in0.0 mm 0.00 in0.0 mm
01:33 AM 3.9°F-15.6°C 2.3°F-16.5°C 93% 6.0 mph ESE9.7 kmh ESE -- 30.00 in1015.9 mb 0.00 in0.0 mm 0.00 in0.0 mm 0.00 in0.0 mm
01:34 AM 3.9°F-15.6°C 2.3°F-16.5°C 93% 8.0 mph ESE12.9 kmh ESE -- 30.00 in1015.9 mb 0.00 in0.0 mm 0.00 in0.0 mm 0.00 in0.0 mm
01:36 AM 3.9°F-15.6°C 2.3°F-16.5°C 93% 5.0 mph ENE8.0 kmh ENE -- 30.01 in1016.3 mb 0.00 in0.0 mm 0.00 in0.0 mm 0.00 in0.0 mm
01:37 AM 3.9°F-15.6°C 2.3°F-16.5°C 93% 2.0 mph ESE3.2 kmh ESE -- 30.01 in1016.3 mb 0.00 in0.0 mm 0.00 in0.0 mm 0.00 in0.0 mm
01:38 AM 3.9°F-15.6°C 2.3°F-16.5°C 93% 6.0 mph ESE9.7 kmh ESE -- 30.01 in1016.3 mb 0.00 in0.0 mm 0.00 in0.0 mm 0.00 in0.0 mm
01:39 AM 3.9°F-15.6°C 2.3°F-16.5°C 93% 3.0 mph E4.8 kmh E -- 30.01 in1016.3 mb 0.00 in0.0 mm 0.00 in0.0 mm 0.00 in0.0 mm
01:40 AM 3.9°F-15.6°C 2.3°F-16.5°C 93% 4.0 mph ESE6.4 kmh ESE -- 30.01 in1016.3 mb 0.00 in0.0 mm 0.00 in0.0 mm 0.00 in0.0 mm
01:41 AM 3.9°F-15.6°C 2.3°F-16.5°C 93% 9.0 mph E14.5 kmh E -- 30.01 in1016.3 mb 0.00 in0.0 mm 0.00 in0.0 mm 0.00 in0.0 mm
01:42 AM 3.9°F-15.6°C 2.3°F-16.5°C 93% 8.0 mph ESE12.9 kmh ESE -- 30.01 in1016.3 mb 0.00 in0.0 mm 0.00 in0.0 mm 0.00 in0.0 mm
01:43 AM 3.9°F-15.6°C 2.3°F-16.5°C 93% 7.0 mph ESE11.3 kmh ESE -- 30.01 in1016.3 mb 0.00 in0.0 mm 0.00 in0.0 mm 0.00 in0.0 mm
01:44 AM 3.9°F-15.6°C 2.3°F-16.5°C 93% 5.0 mph E8.0 kmh E -- 30.01 in1016.3 mb 0.00 in0.0 mm 0.00 in0.0 mm 0.00 in0.0 mm
01:45 AM 3.9°F-15.6°C 2.3°F-16.5°C 93% 7.0 mph E11.3 kmh E -- 30.01 in1016.3 mb 0.00 in0.0 mm 0.00 in0.0 mm 0.00 in0.0 mm
01:46 AM 3.9°F-15.6°C 2.3°F-16.5°C 93% 10.0 mph E16.1 kmh E -- 30.01 in1016.3 mb 0.00 in0.0 mm 0.00 in0.0 mm 0.00 in0.0 mm
01:47 AM 3.9°F-15.6°C 2.3°F-16.5°C 93% 7.0 mph E11.3 kmh E -- 30.01 in1016.3 mb 0.00 in0.0 mm 0.00 in0.0 mm 0.00 in0.0 mm
01:48 AM 3.9°F-15.6°C 2.3°F-16.5°C 93% 7.0 mph ESE11.3 kmh ESE -- 30.01 in1016.3 mb 0.00 in0.0 mm 0.00 in0.0 mm 0.00 in0.0 mm
01:49 AM 3.9°F-15.6°C 2.3°F-16.5°C 93% 8.0 mph ESE12.9 kmh ESE -- 30.01 in1016.3 mb 0.00 in0.0 mm 0.00 in0.0 mm 0.00 in0.0 mm
01:50 AM 3.9°F-15.6°C 2.3°F-16.5°C 93% 5.0 mph ESE8.0 kmh ESE -- 30.01 in1016.3 mb 0.00 in0.0 mm 0.00 in0.0 mm 0.00 in0.0 mm
01:51 AM 3.9°F-15.6°C 2.3°F-16.5°C 93% 6.0 mph E9.7 kmh E -- 30.01 in1016.3 mb 0.00 in0.0 mm 0.00 in0.0 mm 0.00 in0.0 mm
01:52 AM 3.9°F-15.6°C 2.3°F-16.5°C 93% 7.0 mph ESE11.3 kmh ESE -- 30.01 in1016.3 mb 0.00 in0.0 mm 0.00 in0.0 mm 0.00 in0.0 mm
01:53 AM 3.9°F-15.6°C 2.3°F-16.5°C 93% 6.0 mph ESE9.7 kmh ESE -- 30.01 in1016.3 mb 0.00 in0.0 mm 0.00 in0.0 mm 0.00 in0.0 mm
01:54 AM 3.9°F-15.6°C 2.3°F-16.5°C 93% 8.0 mph ESE12.9 kmh ESE -- 30.01 in1016.3 mb 0.00 in0.0 mm 0.00 in0.0 mm 0.00 in0.0 mm
01:55 AM 3.9°F-15.6°C 2.3°F-16.5°C 93% 8.0 mph ESE12.9 kmh ESE -- 30.00 in1015.9 mb 0.00 in0.0 mm 0.00 in0.0 mm 0.00 in0.0 mm
01:56 AM 3.9°F-15.6°C 2.3°F-16.5°C 93% 7.0 mph ESE11.3 kmh ESE -- 30.00 in1015.9 mb 0.00 in0.0 mm 0.00 in0.0 mm 0.00 in0.0 mm
01:57 AM 3.9°F-15.6°C 2.3°F-16.5°C 93% 7.0 mph SSE11.3 kmh SSE -- 30.00 in1015.9 mb 0.00 in0.0 mm 0.00 in0.0 mm 0.00 in0.0 mm
01:58 AM 3.9°F-15.6°C 2.3°F-16.5°C 93% 7.0 mph NE11.3 kmh NE -- 30.01 in1016.3 mb 0.00 in0.0 mm 0.00 in0.0 mm 0.00 in0.0 mm
01:59 AM 3.9°F-15.6°C 2.3°F-16.5°C 93% 6.0 mph ESE9.7 kmh ESE -- 30.01 in1016.3 mb 0.00 in0.0 mm 0.00 in0.0 mm 0.00 in0.0 mm
02:00 AM 3.9°F-15.6°C 2.3°F-16.5°C 93% 10.0 mph ESE16.1 kmh ESE -- 30.01 in1016.3 mb 0.00 in0.0 mm 0.00 in0.0 mm 0.00 in0.0 mm
02:01 AM 3.9°F-15.6°C 2.3°F-16.5°C 93% 7.0 mph E11.3 kmh E -- 30.01 in1016.3 mb 0.00 in0.0 mm 0.00 in0.0 mm 0.00 in0.0 mm
02:02 AM 3.9°F-15.6°C 2.3°F-16.5°C 93% 6.0 mph ESE9.7 kmh ESE -- 30.01 in1016.3 mb 0.00 in0.0 mm 0.00 in0.0 mm 0.00 in0.0 mm
02:03 AM 3.9°F-15.6°C 2.3°F-16.5°C 93% 7.0 mph SE11.3 kmh SE -- 30.01 in1016.3 mb 0.00 in0.0 mm 0.00 in0.0 mm 0.00 in0.0 mm
02:04 AM 3.9°F-15.6°C 2.3°F-16.5°C 93% 8.0 mph ESE12.9 kmh ESE -- 30.00 in1015.9 mb 0.00 in0.0 mm 0.00 in0.0 mm 0.00 in0.0 mm
02:05 AM 3.9°F-15.6°C 2.3°F-16.5°C 93% 5.0 mph E8.0 kmh E -- 30.01 in1016.3 mb 0.00 in0.0 mm 0.00 in0.0 mm 0.00 in0.0 mm
02:06 AM 3.9°F-15.6°C 2.3°F-16.5°C 93% 9.0 mph ESE14.5 kmh ESE -- 30.01 in1016.3 mb 0.00 in0.0 mm 0.00 in0.0 mm 0.00 in0.0 mm
02:07 AM 3.9°F-15.6°C 2.3°F-16.5°C 93% 12.0 mph ESE19.3 kmh ESE -- 30.00 in1015.9 mb 0.00 in0.0 mm 0.00 in0.0 mm 0.00 in0.0 mm
02:08 AM 3.9°F-15.6°C 2.3°F-16.5°C 93% 7.0 mph ESE11.3 kmh ESE -- 30.00 in1015.9 mb 0.00 in0.0 mm 0.00 in0.0 mm 0.00 in0.0 mm
02:09 AM 3.9°F-15.6°C 2.3°F-16.5°C 93% 10.0 mph SSE16.1 kmh SSE -- 30.00 in1015.9 mb 0.00 in0.0 mm 0.00 in0.0 mm 0.00 in0.0 mm
02:10 AM 3.9°F-15.6°C 2.3°F-16.5°C 93% 10.0 mph SSE16.1 kmh SSE -- 30.01 in1016.3 mb 0.00 in0.0 mm 0.00 in0.0 mm 0.00 in0.0 mm
02:11 AM 3.9°F-15.6°C 1.9°F-16.7°C 91% 7.0 mph ENE11.3 kmh ENE -- 30.00 in1015.9 mb 0.00 in0.0 mm 0.00 in0.0 mm 0.00 in0.0 mm
02:12 AM 3.9°F-15.6°C 1.9°F-16.7°C 91% 8.0 mph ESE12.9 kmh ESE -- 30.00 in1015.9 mb 0.00 in0.0 mm 0.00 in0.0 mm 0.00 in0.0 mm
02:13 AM 3.9°F-15.6°C 1.9°F-16.7°C 91% 7.0 mph ESE11.3 kmh ESE -- 30.00 in1015.9 mb 0.00 in0.0 mm 0.00 in0.0 mm 0.00 in0.0 mm
02:14 AM 3.9°F-15.6°C 1.9°F-16.7°C 91% 9.0 mph E14.5 kmh E -- 30.00 in1015.9 mb 0.00 in0.0 mm 0.00 in0.0 mm 0.00 in0.0 mm
02:15 AM 3.9°F-15.6°C 1.9°F-16.7°C 91% 6.0 mph E9.7 kmh E -- 30.00 in1015.9 mb 0.00 in0.0 mm 0.00 in0.0 mm 0.00 in0.0 mm
02:16 AM 3.9°F-15.6°C 1.9°F-16.7°C 91% 7.0 mph E11.3 kmh E -- 30.00 in1015.9 mb 0.00 in0.0 mm 0.00 in0.0 mm 0.00 in0.0 mm
02:17 AM 3.9°F-15.6°C 1.9°F-16.7°C 91% 6.0 mph SE9.7 kmh SE -- 30.00 in1015.9 mb 0.00 in0.0 mm 0.00 in0.0 mm 0.00 in0.0 mm
02:18 AM 3.9°F-15.6°C 1.9°F-16.7°C 91% 9.0 mph NE14.5 kmh NE -- 30.00 in1015.9 mb 0.00 in0.0 mm 0.00 in0.0 mm 0.00 in0.0 mm
02:19 AM 3.9°F-15.6°C 1.9°F-16.7°C 91% 5.0 mph ESE8.0 kmh ESE -- 30.00 in1015.9 mb 0.00 in0.0 mm 0.00 in0.0 mm 0.00 in0.0 mm
02:20 AM 3.9°F-15.6°C 1.9°F-16.7°C 91% 7.0 mph E11.3 kmh E -- 30.00 in1015.9 mb 0.00 in0.0 mm 0.00 in0.0 mm 0.00 in0.0 mm
02:21 AM 3.9°F-15.6°C 1.9°F-16.7°C 91% 4.0 mph ENE6.4 kmh ENE -- 30.00 in1015.9 mb 0.00 in0.0 mm 0.00 in0.0 mm 0.00 in0.0 mm
02:22 AM 3.9°F-15.6°C 1.9°F-16.7°C 91% 6.0 mph ESE9.7 kmh ESE -- 30.00 in1015.9 mb 0.00 in0.0 mm 0.00 in0.0 mm 0.00 in0.0 mm
02:23 AM 3.9°F-15.6°C 1.9°F-16.7°C 91% 8.0 mph ESE12.9 kmh ESE -- 30.00 in1015.9 mb 0.00 in0.0 mm 0.00 in0.0 mm 0.00 in0.0 mm
02:24 AM 3.9°F-15.6°C 1.9°F-16.7°C 91% 4.0 mph ESE6.4 kmh ESE -- 30.00 in1015.9 mb 0.00 in0.0 mm 0.00 in0.0 mm 0.00 in0.0 mm
02:25 AM 3.9°F-15.6°C 1.9°F-16.7°C 91% 6.0 mph ESE9.7 kmh ESE -- 30.00 in1015.9 mb 0.00 in0.0 mm 0.00 in0.0 mm 0.00 in0.0 mm
02:26 AM 3.9°F-15.6°C 1.9°F-16.7°C 91% 6.0 mph E9.7 kmh E -- 30.01 in1016.3 mb 0.00 in0.0 mm 0.00 in0.0 mm 0.00 in0.0 mm
02:27 AM 3.9°F-15.6°C 1.9°F-16.7°C 91% 7.0 mph ESE11.3 kmh ESE -- 30.01 in1016.3 mb 0.00 in0.0 mm 0.00 in0.0 mm 0.00 in0.0 mm
02:28 AM 3.9°F-15.6°C 1.9°F-16.7°C 91% 6.0 mph E9.7 kmh E -- 30.01 in1016.3 mb 0.00 in0.0 mm 0.00 in0.0 mm 0.00 in0.0 mm
02:29 AM 3.9°F-15.6°C 1.9°F-16.7°C 91% 7.0 mph E11.3 kmh E -- 30.00 in1015.9 mb 0.00 in0.0 mm 0.00 in0.0 mm 0.00 in0.0 mm
02:30 AM 3.9°F-15.6°C 1.9°F-16.7°C 91% 13.0 mph ENE20.9 kmh ENE -- 30.00 in1015.9 mb 0.00 in0.0 mm 0.00 in0.0 mm 0.00 in0.0 mm
02:31 AM 3.9°F-15.6°C 1.9°F-16.7°C 91% 9.0 mph ESE14.5 kmh ESE -- 30.01 in1016.3 mb 0.00 in0.0 mm 0.00 in0.0 mm 0.00 in0.0 mm
02:32 AM 3.9°F-15.6°C 1.9°F-16.7°C 91% 9.0 mph ESE14.5 kmh ESE -- 30.00 in1015.9 mb 0.00 in0.0 mm 0.00 in0.0 mm 0.00 in0.0 mm
02:33 AM 3.9°F-15.6°C 1.9°F-16.7°C 91% 11.0 mph E17.7 kmh E -- 30.00 in1015.9 mb 0.00 in0.0 mm 0.00 in0.0 mm 0.00 in0.0 mm
02:34 AM 3.9°F-15.6°C 1.9°F-16.7°C 91% 5.0 mph SE8.0 kmh SE -- 30.00 in1015.9 mb 0.00 in0.0 mm 0.00 in0.0 mm 0.00 in0.0 mm
02:35 AM 3.9°F-15.6°C 1.9°F-16.7°C 91% 5.0 mph ENE8.0 kmh ENE -- 30.00 in1015.9 mb 0.00 in0.0 mm 0.00 in0.0 mm 0.00 in0.0 mm
02:36 AM 3.9°F-15.6°C 1.9°F-16.7°C 91% 10.0 mph ESE16.1 kmh ESE -- 30.00 in1015.9 mb 0.00 in0.0 mm 0.00 in0.0 mm 0.00 in0.0 mm
02:37 AM 3.9°F-15.6°C 1.9°F-16.7°C 91% 6.0 mph E9.7 kmh E -- 30.00 in1015.9 mb 0.00 in0.0 mm 0.00 in0.0 mm 0.00 in0.0 mm
02:38 AM 3.9°F-15.6°C 1.9°F-16.7°C 91% 6.0 mph ESE9.7 kmh ESE -- 30.00 in1015.9 mb 0.00 in0.0 mm 0.00 in0.0 mm 0.00 in0.0 mm
02:39 AM 3.9°F-15.6°C 1.9°F-16.7°C 91% 8.0 mph E12.9 kmh E -- 30.00 in1015.9 mb 0.00 in0.0 mm 0.00 in0.0 mm 0.00 in0.0 mm
02:40 AM 3.9°F-15.6°C 1.9°F-16.7°C 91% 7.0 mph ESE11.3 kmh ESE -- 30.00 in1015.9 mb 0.00 in0.0 mm 0.00 in0.0 mm 0.00 in0.0 mm
02:41 AM 4.0°F-15.6°C 1.9°F-16.7°C 91% 8.0 mph ESE12.9 kmh ESE -- 30.00 in1015.9 mb 0.00 in0.0 mm 0.00 in0.0 mm 0.00 in0.0 mm
02:42 AM 4.0°F-15.6°C 1.9°F-16.7°C 91% 11.0 mph ESE17.7 kmh ESE -- 30.00 in1015.9 mb 0.00 in0.0 mm 0.00 in0.0 mm 0.00 in0.0 mm
02:43 AM 4.0°F-15.6°C 1.9°F-16.7°C 91% 10.0 mph ESE16.1 kmh ESE -- 30.00 in1015.9 mb 0.00 in0.0 mm 0.00 in0.0 mm 0.00 in0.0 mm
02:44 AM 4.0°F-15.6°C 1.9°F-16.7°C 91% 10.0 mph SE16.1 kmh SE -- 30.00 in1015.9 mb 0.00 in0.0 mm 0.00 in0.0 mm 0.00 in0.0 mm
02:45 AM 4.0°F-15.6°C 1.9°F-16.7°C 91% 13.0 mph E20.9 kmh E -- 30.00 in1015.9 mb 0.00 in0.0 mm 0.00 in0.0 mm 0.00 in0.0 mm
02:46 AM 4.0°F-15.6°C 1.9°F-16.7°C 91% 12.0 mph ESE19.3 kmh ESE -- 30.00 in1015.9 mb 0.00 in0.0 mm 0.00 in0.0 mm 0.00 in0.0 mm
02:47 AM 4.0°F-15.6°C 1.9°F-16.7°C 91% 9.0 mph ESE14.5 kmh ESE -- 30.00 in1015.9 mb 0.00 in0.0 mm 0.00 in0.0 mm 0.00 in0.0 mm
02:48 AM 4.0°F-15.6°C 1.9°F-16.7°C 91% 7.0 mph ESE11.3 kmh ESE -- 30.00 in1015.9 mb 0.00 in0.0 mm 0.00 in0.0 mm 0.00 in0.0 mm
02:49 AM 4.0°F-15.6°C 1.9°F-16.7°C 91% 8.0 mph ESE12.9 kmh ESE -- 30.00 in1015.9 mb 0.00 in0.0 mm 0.00 in0.0 mm 0.00 in0.0 mm
02:50 AM 4.0°F-15.6°C 1.9°F-16.7°C 91% 7.0 mph ESE11.3 kmh ESE -- 29.99 in1015.6 mb 0.00 in0.0 mm 0.00 in0.0 mm 0.00 in0.0 mm
02:51 AM 4.0°F-15.6°C 1.9°F-16.7°C 91% 9.0 mph ENE14.5 kmh ENE -- 30.00 in1015.9 mb 0.00 in0.0 mm 0.00 in0.0 mm 0.00 in0.0 mm
02:52 AM 4.0°F-15.6°C 1.9°F-16.7°C 91% 8.0 mph ESE12.9 kmh ESE -- 30.00 in1015.9 mb 0.00 in0.0 mm 0.00 in0.0 mm 0.00 in0.0 mm
02:53 AM 4.0°F-15.6°C 1.9°F-16.7°C 91% 7.0 mph NNE11.3 kmh NNE -- 30.00 in1015.9 mb 0.00 in0.0 mm 0.00 in0.0 mm 0.00 in0.0 mm
02:54 AM 4.0°F-15.6°C 1.9°F-16.7°C 91% 12.0 mph E19.3 kmh E -- 30.00 in1015.9 mb 0.00 in0.0 mm 0.00 in0.0 mm 0.00 in0.0 mm
02:55 AM 4.0°F-15.6°C 1.9°F-16.7°C 91% 7.0 mph SE11.3 kmh SE -- 30.00 in1015.9 mb 0.00 in0.0 mm 0.00 in0.0 mm 0.00 in0.0 mm
02:56 AM 4.0°F-15.6°C 1.9°F-16.7°C 91% 7.0 mph ENE11.3 kmh ENE -- 29.99 in1015.6 mb 0.00 in0.0 mm 0.00 in0.0 mm 0.00 in0.0 mm
02:57 AM 4.0°F-15.6°C 1.9°F-16.7°C 91% 5.0 mph ENE8.0 kmh ENE -- 30.00 in1015.9 mb 0.00 in0.0 mm 0.00 in0.0 mm 0.00 in0.0 mm
02:58 AM 4.0°F-15.6°C 1.9°F-16.7°C 91% 9.0 mph ESE14.5 kmh ESE -- 30.00 in1015.9 mb 0.00 in0.0 mm 0.00 in0.0 mm 0.00 in0.0 mm
02:59 AM 4.0°F-15.6°C 1.9°F-16.7°C 91% 11.0 mph ESE17.7 kmh ESE -- 30.00 in1015.9 mb 0.00 in0.0 mm 0.00 in0.0 mm 0.00 in0.0 mm
03:00 AM 4.0°F-15.6°C 1.9°F-16.7°C 91% 8.0 mph ESE12.9 kmh ESE -- 30.00 in1015.9 mb 0.00 in0.0 mm 0.00 in0.0 mm 0.00 in0.0 mm
03:01 AM 4.0°F-15.6°C 1.9°F-16.7°C 91% 9.0 mph ESE14.5 kmh ESE -- 30.00 in1015.9 mb 0.00 in0.0 mm 0.00 in0.0 mm 0.00 in0.0 mm
03:02 AM 4.0°F-15.6°C 1.9°F-16.7°C 91% 5.0 mph ESE8.0 kmh ESE -- 30.00 in1015.9 mb 0.00 in0.0 mm 0.00 in0.0 mm 0.00 in0.0 mm
03:03 AM 4.0°F-15.6°C 1.9°F-16.7°C 91% 9.0 mph E14.5 kmh E -- 30.00 in1015.9 mb 0.00 in0.0 mm 0.00 in0.0 mm 0.00 in0.0 mm
03:04 AM 4.0°F-15.6°C 1.9°F-16.7°C 91% 5.0 mph ESE8.0 kmh ESE -- 30.00 in1015.9 mb 0.00 in0.0 mm 0.00 in0.0 mm 0.00 in0.0 mm
03:05 AM 4.0°F-15.6°C 1.9°F-16.7°C 91% 7.0 mph E11.3 kmh E -- 30.00 in1015.9 mb 0.00 in0.0 mm 0.00 in0.0 mm 0.00 in0.0 mm
03:06 AM 4.0°F-15.6°C 1.9°F-16.7°C 91% 10.0 mph E16.1 kmh E -- 30.00 in1015.9 mb 0.00 in0.0 mm 0.00 in0.0 mm 0.00 in0.0 mm
03:07 AM 4.0°F-15.6°C 1.9°F-16.7°C 91% 6.0 mph ESE9.7 kmh ESE -- 30.00 in1015.9 mb 0.00 in0.0 mm 0.00 in0.0 mm 0.00 in0.0 mm
03:08 AM 4.0°F-15.6°C 1.9°F-16.7°C 91% 7.0 mph ESE11.3 kmh ESE -- 30.00 in1015.9 mb 0.00 in0.0 mm 0.00 in0.0 mm 0.00 in0.0 mm
03:09 AM 4.0°F-15.6°C 1.9°F-16.7°C 91% 9.0 mph ESE14.5 kmh ESE -- 30.00 in1015.9 mb 0.00 in0.0 mm 0.00 in0.0 mm 0.00 in0.0 mm
03:10 AM 4.0°F-15.6°C 1.9°F-16.7°C 91% 5.0 mph SE8.0 kmh SE -- 30.00 in1015.9 mb 0.00 in0.0 mm 0.00 in0.0 mm 0.00 in0.0 mm
03:11 AM 4.0°F-15.6°C 1.9°F-16.7°C 91% 4.0 mph ESE6.4 kmh ESE -- 30.00 in1015.9 mb 0.00 in0.0 mm 0.00 in0.0 mm 0.00 in0.0 mm
03:12 AM 4.0°F-15.6°C 1.9°F-16.7°C 91% 8.0 mph E12.9 kmh E -- 30.00 in1015.9 mb 0.00 in0.0 mm 0.00 in0.0 mm 0.00 in0.0 mm
03:13 AM 4.0°F-15.6°C 1.9°F-16.7°C 91% 10.0 mph ESE16.1 kmh ESE -- 29.99 in1015.6 mb 0.00 in0.0 mm 0.00 in0.0 mm 0.00 in0.0 mm
03:14 AM 4.0°F-15.6°C 1.9°F-16.7°C 91% 5.0 mph ENE8.0 kmh ENE -- 29.99 in1015.6 mb 0.00 in0.0 mm 0.00 in0.0 mm 0.00 in0.0 mm
03:15 AM 4.0°F-15.6°C 1.9°F-16.7°C 91% 7.0 mph ESE11.3 kmh ESE -- 29.99 in1015.6 mb 0.00 in0.0 mm 0.00 in0.0 mm 0.00 in0.0 mm
03:16 AM 4.0°F-15.6°C 1.9°F-16.7°C 91% 12.0 mph E19.3 kmh E -- 29.99 in1015.6 mb 0.00 in0.0 mm 0.00 in0.0 mm 0.00 in0.0 mm
03:17 AM 4.0°F-15.6°C 1.9°F-16.7°C 91% 9.0 mph ESE14.5 kmh ESE -- 29.99 in1015.6 mb 0.00 in0.0 mm 0.00 in0.0 mm 0.00 in0.0 mm
03:18 AM 4.0°F-15.6°C 1.9°F-16.7°C 91% 4.0 mph ESE6.4 kmh ESE -- 29.99 in1015.6 mb 0.00 in0.0 mm 0.00 in0.0 mm 0.00 in0.0 mm
03:19 AM 4.0°F-15.6°C 1.9°F-16.7°C 91% 5.0 mph ESE8.0 kmh ESE -- 29.99 in1015.6 mb 0.00 in0.0 mm 0.00 in0.0 mm 0.00 in0.0 mm
03:20 AM 4.0°F-15.6°C 1.9°F-16.7°C 91% 7.0 mph ESE11.3 kmh ESE -- 30.00 in1015.9 mb 0.00 in0.0 mm 0.00 in0.0 mm 0.00 in0.0 mm
03:21 AM 4.0°F-15.6°C 1.9°F-16.7°C 91% 8.0 mph E12.9 kmh E -- 30.00 in1015.9 mb 0.00 in0.0 mm 0.00 in0.0 mm 0.00 in0.0 mm
03:22 AM 4.0°F-15.6°C 1.9°F-16.7°C 91% 10.0 mph ENE16.1 kmh ENE -- 30.00 in1015.9 mb 0.00 in0.0 mm 0.00 in0.0 mm 0.00 in0.0 mm
03:23 AM 4.0°F-15.6°C 1.9°F-16.7°C 91% 7.0 mph SE11.3 kmh SE -- 30.00 in1015.9 mb 0.00 in0.0 mm 0.00 in0.0 mm 0.00 in0.0 mm
03:24 AM 4.0°F-15.6°C 1.9°F-16.7°C 91% 7.0 mph SSE11.3 kmh SSE -- 30.00 in1015.9 mb 0.00 in0.0 mm 0.00 in0.0 mm 0.00 in0.0 mm
03:25 AM 4.3°F-15.4°C 2.2°F-16.6°C 91% 7.0 mph ESE11.3 kmh ESE -- 30.00 in1015.9 mb 0.00 in0.0 mm 0.00 in0.0 mm 0.00 in0.0 mm
03:26 AM 4.3°F-15.4°C 2.2°F-16.6°C 91% 8.0 mph ESE12.9 kmh ESE -- 29.99 in1015.6 mb 0.00 in0.0 mm 0.00 in0.0 mm 0.00 in0.0 mm
03:27 AM 4.3°F-15.4°C 2.2°F-16.6°C 91% 8.0 mph E12.9 kmh E -- 30.00 in1015.9 mb 0.00 in0.0 mm 0.00 in0.0 mm 0.00 in0.0 mm
03:28 AM 4.3°F-15.4°C 2.2°F-16.6°C 91% 9.0 mph E14.5 kmh E -- 30.00 in1015.9 mb 0.00 in0.0 mm 0.00 in0.0 mm 0.00 in0.0 mm
03:29 AM 4.3°F-15.4°C 2.2°F-16.6°C 91% 10.0 mph ESE16.1 kmh ESE -- 29.99 in1015.6 mb 0.00 in0.0 mm 0.00 in0.0 mm 0.00 in0.0 mm
03:30 AM 4.3°F-15.4°C 2.2°F-16.6°C 91% 6.0 mph ESE9.7 kmh ESE -- 30.00 in1015.9 mb 0.00 in0.0 mm 0.00 in0.0 mm 0.00 in0.0 mm
03:32 AM 4.3°F-15.4°C 2.2°F-16.6°C 91% 8.0 mph E12.9 kmh E -- 30.00 in1015.9 mb 0.00 in0.0 mm 0.00 in0.0 mm 0.00 in0.0 mm
03:33 AM 4.3°F-15.4°C 2.2°F-16.6°C 91% 10.0 mph ESE16.1 kmh ESE -- 30.00 in1015.9 mb 0.00 in0.0 mm 0.00 in0.0 mm 0.00 in0.0 mm
03:35 AM 4.3°F-15.4°C 2.2°F-16.6°C 91% 11.0 mph ESE17.7 kmh ESE -- 30.00 in1015.9 mb 0.00 in0.0 mm 0.00 in0.0 mm 0.00 in0.0 mm
03:36 AM 4.3°F-15.4°C 2.2°F-16.6°C 91% 11.0 mph ENE17.7 kmh ENE -- 30.00 in1015.9 mb 0.00 in0.0 mm 0.00 in0.0 mm 0.00 in0.0 mm
03:37 AM 4.3°F-15.4°C 2.2°F-16.6°C 91% 10.0 mph E16.1 kmh E -- 29.99 in1015.6 mb 0.00 in0.0 mm 0.00 in0.0 mm 0.00 in0.0 mm
03:38 AM 4.3°F-15.4°C 2.2°F-16.6°C 91% 7.0 mph E11.3 kmh E -- 29.99 in1015.6 mb 0.00 in0.0 mm 0.00 in0.0 mm 0.00 in0.0 mm
03:39 AM 4.3°F-15.4°C 2.2°F-16.6°C 91% 8.0 mph E12.9 kmh E -- 30.00 in1015.9 mb 0.00 in0.0 mm 0.00 in0.0 mm 0.00 in0.0 mm
03:40 AM 4.3°F-15.4°C 2.2°F-16.6°C 91% 9.0 mph SE14.5 kmh SE -- 30.00 in1015.9 mb 0.00 in0.0 mm 0.00 in0.0 mm 0.00 in0.0 mm
03:41 AM 4.3°F-15.4°C 2.2°F-16.6°C 91% 6.0 mph ESE9.7 kmh ESE -- 30.00 in1015.9 mb 0.00 in0.0 mm 0.00 in0.0 mm 0.00 in0.0 mm
03:43 AM 4.3°F-15.4°C 2.2°F-16.6°C 91% 13.0 mph ESE20.9 kmh ESE -- 30.00 in1015.9 mb 0.00 in0.0 mm 0.00 in0.0 mm 0.00 in0.0 mm
03:44 AM 4.3°F-15.4°C 2.2°F-16.6°C 91% 8.0 mph ESE12.9 kmh ESE -- 30.00 in1015.9 mb 0.00 in0.0 mm 0.00 in0.0 mm 0.00 in0.0 mm
03:45 AM 4.3°F-15.4°C 2.2°F-16.6°C 91% 10.0 mph ESE16.1 kmh ESE -- 29.99 in1015.6 mb 0.00 in0.0 mm 0.00 in0.0 mm 0.00 in0.0 mm
03:46 AM 4.3°F-15.4°C 2.2°F-16.6°C 91% 7.0 mph ESE11.3 kmh ESE -- 29.99 in1015.6 mb 0.00 in0.0 mm 0.00 in0.0 mm 0.00 in0.0 mm
03:47 AM 4.3°F-15.4°C 2.2°F-16.6°C 91% 13.0 mph ESE20.9 kmh ESE -- 29.99 in1015.6 mb 0.00 in0.0 mm 0.00 in0.0 mm 0.00 in0.0 mm
03:48 AM 4.3°F-15.4°C 2.2°F-16.6°C 91% 8.0 mph ESE12.9 kmh ESE -- 29.99 in1015.6 mb 0.00 in0.0 mm 0.00 in0.0 mm 0.00 in0.0 mm
03:49 AM 4.3°F-15.4°C 2.2°F-16.6°C 91% 6.0 mph ESE9.7 kmh ESE -- 29.99 in1015.6 mb 0.00 in0.0 mm 0.00 in0.0 mm 0.00 in0.0 mm
03:50 AM 4.3°F-15.4°C 2.2°F-16.6°C 91% 10.0 mph E16.1 kmh E -- 29.99 in1015.6 mb 0.00 in0.0 mm 0.00 in0.0 mm 0.00 in0.0 mm
03:51 AM 4.0°F-15.6°C 1.9°F-16.7°C 91% 7.0 mph E11.3 kmh E -- 30.00 in1015.9 mb 0.00 in0.0 mm 0.00 in0.0 mm 0.00 in0.0 mm
03:53 AM 4.0°F-15.6°C 1.9°F-16.7°C 91% 7.0 mph ESE11.3 kmh ESE -- 29.99 in1015.6 mb 0.00 in0.0 mm 0.00 in0.0 mm 0.00 in0.0 mm
03:54 AM 4.0°F-15.6°C 1.9°F-16.7°C 91% 6.0 mph SE9.7 kmh SE -- 29.99 in1015.6 mb 0.00 in0.0 mm 0.00 in0.0 mm 0.00 in0.0 mm
03:55 AM 4.0°F-15.6°C 1.9°F-16.7°C 91% 6.0 mph ESE9.7 kmh ESE -- 29.99 in1015.6 mb 0.00 in0.0 mm 0.00 in0.0 mm 0.00 in0.0 mm
03:56 AM 4.0°F-15.6°C 1.9°F-16.7°C 91% 9.0 mph ESE14.5 kmh ESE -- 29.99 in1015.6 mb 0.00 in0.0 mm 0.00 in0.0 mm 0.00 in0.0 mm
03:57 AM 4.0°F-15.6°C 1.9°F-16.7°C 91% 11.0 mph ESE17.7 kmh ESE -- 29.99 in1015.6 mb 0.00 in0.0 mm 0.00 in0.0 mm 0.00 in0.0 mm
03:58 AM 4.0°F-15.6°C 1.9°F-16.7°C 91% 12.0 mph ENE19.3 kmh ENE -- 30.00 in1015.9 mb 0.00 in0.0 mm 0.00 in0.0 mm 0.00 in0.0 mm
03:59 AM 4.0°F-15.6°C 1.9°F-16.7°C 91% 8.0 mph ENE12.9 kmh ENE -- 29.99 in1015.6 mb 0.00 in0.0 mm 0.00 in0.0 mm 0.00 in0.0 mm
04:00 AM 4.0°F-15.6°C 1.9°F-16.7°C 91% 8.0 mph E12.9 kmh E -- 29.99 in1015.6 mb 0.00 in0.0 mm 0.00 in0.0 mm 0.00 in0.0 mm
04:01 AM 4.0°F-15.6°C 1.9°F-16.7°C 91% 9.0 mph ESE14.5 kmh ESE -- 29.99 in1015.6 mb 0.00 in0.0 mm 0.00 in0.0 mm 0.00 in0.0 mm
04:02 AM 4.0°F-15.6°C 1.9°F-16.7°C 91% 6.0 mph SSE9.7 kmh SSE -- 29.99 in1015.6 mb 0.00 in0.0 mm 0.00 in0.0 mm 0.00 in0.0 mm
04:03 AM 4.0°F-15.6°C 2.3°F-16.5°C 93% 7.0 mph ESE11.3 kmh ESE -- 29.99 in1015.6 mb 0.00 in0.0 mm 0.00 in0.0 mm 0.00 in0.0 mm
04:04 AM 4.0°F-15.6°C 2.3°F-16.5°C 93% 6.0 mph ESE9.7 kmh ESE -- 29.99 in1015.6 mb 0.00 in0.0 mm 0.00 in0.0 mm 0.00 in0.0 mm
04:05 AM 4.0°F-15.6°C 2.3°F-16.5°C 93% 12.0 mph ESE19.3 kmh ESE -- 29.99 in1015.6 mb 0.00 in0.0 mm 0.00 in0.0 mm 0.00 in0.0 mm
04:06 AM 4.0°F-15.6°C 2.3°F-16.5°C 93% 6.0 mph E9.7 kmh E -- 29.99 in1015.6 mb 0.00 in0.0 mm 0.00 in0.0 mm 0.00 in0.0 mm
04:07 AM 4.0°F-15.6°C 2.3°F-16.5°C 93% 12.0 mph NE19.3 kmh NE -- 29.99 in1015.6 mb 0.00 in0.0 mm 0.00 in0.0 mm 0.00 in0.0 mm
04:08 AM 3.9°F-15.6°C 2.3°F-16.5°C 93% 8.0 mph ESE12.9 kmh ESE -- 29.99 in1015.6 mb 0.00 in0.0 mm 0.00 in0.0 mm 0.00 in0.0 mm
04:09 AM 3.9°F-15.6°C 2.3°F-16.5°C 93% 7.0 mph ESE11.3 kmh ESE -- 29.99 in1015.6 mb 0.00 in0.0 mm 0.00 in0.0 mm 0.00 in0.0 mm
04:10 AM 3.9°F-15.6°C 2.3°F-16.5°C 93% 7.0 mph E11.3 kmh E -- 29.99 in1015.6 mb 0.00 in0.0 mm 0.00 in0.0 mm 0.00 in0.0 mm
04:11 AM 3.9°F-15.6°C 2.3°F-16.5°C 93% 8.0 mph E12.9 kmh E -- 29.99 in1015.6 mb 0.00 in0.0 mm 0.00 in0.0 mm 0.00 in0.0 mm
04:12 AM 3.9°F-15.6°C 2.3°F-16.5°C 93% 11.0 mph E17.7 kmh E -- 29.99 in1015.6 mb 0.00 in0.0 mm 0.00 in0.0 mm 0.00 in0.0 mm
04:13 AM 3.9°F-15.6°C 2.3°F-16.5°C 93% 10.0 mph E16.1 kmh E -- 29.99 in1015.6 mb 0.00 in0.0 mm 0.00 in0.0 mm 0.00 in0.0 mm
04:14 AM 3.9°F-15.6°C 2.3°F-16.5°C 93% 7.0 mph E11.3 kmh E -- 29.99 in1015.6 mb 0.00 in0.0 mm 0.00 in0.0 mm 0.00 in0.0 mm
04:15 AM 3.9°F-15.6°C 2.3°F-16.5°C 93% 8.0 mph E12.9 kmh E -- 29.99 in1015.6 mb 0.00 in0.0 mm 0.00 in0.0 mm 0.00 in0.0 mm
04:16 AM 3.9°F-15.6°C 2.3°F-16.5°C 93% 5.0 mph ENE8.0 kmh ENE -- 29.99 in1015.6 mb 0.00 in0.0 mm 0.00 in0.0 mm 0.00 in0.0 mm
04:17 AM 3.9°F-15.6°C 2.3°F-16.5°C 93% 7.0 mph ENE11.3 kmh ENE -- 29.99 in1015.6 mb 0.00 in0.0 mm 0.00 in0.0 mm 0.00 in0.0 mm
04:18 AM 3.9°F-15.6°C 2.3°F-16.5°C 93% 10.0 mph ENE16.1 kmh ENE -- 29.99 in1015.6 mb 0.00 in0.0 mm 0.00 in0.0 mm 0.00 in0.0 mm
04:19 AM 3.7°F-15.7°C 2.1°F-16.6°C 93% 9.0 mph ENE14.5 kmh ENE -- 29.98 in1015.2 mb 0.00 in0.0 mm 0.00 in0.0 mm 0.00 in0.0 mm
04:20 AM 3.7°F-15.7°C 2.1°F-16.6°C 93% 6.0 mph E9.7 kmh E -- 29.99 in1015.6 mb 0.00 in0.0 mm 0.00 in0.0 mm 0.00 in0.0 mm
04:21 AM 3.7°F-15.7°C 2.1°F-16.6°C 93% 12.0 mph NNE19.3 kmh NNE -- 29.99 in1015.6 mb 0.00 in0.0 mm 0.00 in0.0 mm 0.00 in0.0 mm
04:22 AM 3.7°F-15.7°C 2.1°F-16.6°C 93% 7.0 mph E11.3 kmh E -- 29.99 in1015.6 mb 0.00 in0.0 mm 0.00 in0.0 mm 0.00 in0.0 mm
04:23 AM 3.7°F-15.7°C 2.1°F-16.6°C 93% 8.0 mph ESE12.9 kmh ESE -- 29.99 in1015.6 mb 0.00 in0.0 mm 0.00 in0.0 mm 0.00 in0.0 mm
04:24 AM 3.7°F-15.7°C 2.1°F-16.6°C 93% 12.0 mph ESE19.3 kmh ESE -- 29.99 in1015.6 mb 0.00 in0.0 mm 0.00 in0.0 mm 0.00 in0.0 mm
04:25 AM 3.7°F-15.7°C 2.1°F-16.6°C 93% 5.0 mph E8.0 kmh E -- 29.99 in1015.6 mb 0.00 in0.0 mm 0.00 in0.0 mm 0.00 in0.0 mm
04:26 AM 3.7°F-15.7°C 2.1°F-16.6°C 93% 9.0 mph E14.5 kmh E -- 29.99 in1015.6 mb 0.00 in0.0 mm 0.00 in0.0 mm 0.00 in0.0 mm
04:27 AM 3.7°F-15.7°C 2.1°F-16.6°C 93% 8.0 mph E12.9 kmh E -- 29.99 in1015.6 mb 0.00 in0.0 mm 0.00 in0.0 mm 0.00 in0.0 mm
04:28 AM 3.7°F-15.7°C 2.1°F-16.6°C 93% 5.0 mph E8.0 kmh E -- 29.99 in1015.6 mb 0.00 in0.0 mm 0.00 in0.0 mm 0.00 in0.0 mm
04:29 AM 3.7°F-15.7°C 2.1°F-16.6°C 93% 10.0 mph ESE16.1 kmh ESE -- 30.00 in1015.9 mb 0.00 in0.0 mm 0.00 in0.0 mm 0.00 in0.0 mm
04:31 AM 3.7°F-15.7°C 2.1°F-16.6°C 93% 9.0 mph SSE14.5 kmh SSE -- 29.99 in1015.6 mb 0.00 in0.0 mm 0.00 in0.0 mm 0.00 in0.0 mm
04:32 AM 3.7°F-15.7°C 2.1°F-16.6°C 93% 7.0 mph ESE11.3 kmh ESE -- 30.00 in1015.9 mb 0.00 in0.0 mm 0.00 in0.0 mm 0.00 in0.0 mm
04:33 AM 3.7°F-15.7°C 2.1°F-16.6°C 93% 8.0 mph ESE12.9 kmh ESE -- 30.00 in1015.9 mb 0.00 in0.0 mm 0.00 in0.0 mm 0.00 in0.0 mm
04:34 AM 3.7°F-15.7°C 2.1°F-16.6°C 93% 7.0 mph SE11.3 kmh SE -- 30.00 in1015.9 mb 0.00 in0.0 mm 0.00 in0.0 mm 0.00 in0.0 mm
04:35 AM 3.7°F-15.7°C 2.1°F-16.6°C 93% 6.0 mph E9.7 kmh E -- 29.99 in1015.6 mb 0.00 in0.0 mm 0.00 in0.0 mm 0.00 in0.0 mm
04:36 AM 3.7°F-15.7°C 2.1°F-16.6°C 93% 4.0 mph ENE6.4 kmh ENE -- 30.00 in1015.9 mb 0.00 in0.0 mm 0.00 in0.0 mm 0.00 in0.0 mm
04:37 AM 3.7°F-15.7°C 2.1°F-16.6°C 93% 6.0 mph E9.7 kmh E -- 29.99 in1015.6 mb 0.00 in0.0 mm 0.00 in0.0 mm 0.00 in0.0 mm
04:38 AM 3.7°F-15.7°C 2.1°F-16.6°C 93% 5.0 mph E8.0 kmh E -- 29.99 in1015.6 mb 0.00 in0.0 mm 0.00 in0.0 mm 0.00 in0.0 mm
04:39 AM 3.7°F-15.7°C 2.1°F-16.6°C 93% 6.0 mph E9.7 kmh E -- 29.99 in1015.6 mb 0.00 in0.0 mm 0.00 in0.0 mm 0.00 in0.0 mm
04:40 AM 3.7°F-15.7°C 2.1°F-16.6°C 93% 7.0 mph E11.3 kmh E -- 29.99 in1015.6 mb 0.00 in0.0 mm 0.00 in0.0 mm 0.00 in0.0 mm
04:41 AM 3.7°F-15.7°C 2.1°F-16.6°C 93% 5.0 mph E8.0 kmh E -- 30.00 in1015.9 mb 0.00 in0.0 mm 0.00 in0.0 mm 0.00 in0.0 mm
04:42 AM 3.7°F-15.7°C 2.1°F-16.6°C 93% 7.0 mph E11.3 kmh E -- 30.00 in1015.9 mb 0.00 in0.0 mm 0.00 in0.0 mm 0.00 in0.0 mm
04:43 AM 3.7°F-15.7°C 2.1°F-16.6°C 93% 6.0 mph E9.7 kmh E -- 29.99 in1015.6 mb 0.00 in0.0 mm 0.00 in0.0 mm 0.00 in0.0 mm
04:44 AM 3.7°F-15.7°C 2.1°F-16.6°C 93% 10.0 mph E16.1 kmh E -- 29.99 in1015.6 mb 0.00 in0.0 mm 0.00 in0.0 mm 0.00 in0.0 mm
04:45 AM 3.7°F-15.7°C 2.1°F-16.6°C 93% 6.0 mph ENE9.7 kmh ENE -- 29.99 in1015.6 mb 0.00 in0.0 mm 0.00 in0.0 mm 0.00 in0.0 mm
04:46 AM 3.7°F-15.7°C 2.1°F-16.6°C 93% 10.0 mph E16.1 kmh E -- 29.99 in1015.6 mb 0.00 in0.0 mm 0.00 in0.0 mm 0.00 in0.0 mm
04:47 AM 3.5°F-15.8°C 2.0°F-16.7°C 93% 6.0 mph SE9.7 kmh SE -- 29.99 in1015.6 mb 0.00 in0.0 mm 0.00 in0.0 mm 0.00 in0.0 mm
04:48 AM 3.5°F-15.8°C 2.0°F-16.7°C 93% 7.0 mph ENE11.3 kmh ENE -- 29.99 in1015.6 mb 0.00 in0.0 mm 0.00 in0.0 mm 0.00 in0.0 mm
04:49 AM 3.5°F-15.8°C 2.0°F-16.7°C 93% 8.0 mph ENE12.9 kmh ENE -- 29.99 in1015.6 mb 0.00 in0.0 mm 0.00 in0.0 mm 0.00 in0.0 mm
04:50 AM 3.5°F-15.8°C 2.0°F-16.7°C 93% 9.0 mph ENE14.5 kmh ENE -- 29.99 in1015.6 mb 0.00 in0.0 mm 0.00 in0.0 mm 0.00 in0.0 mm
04:51 AM 3.5°F-15.8°C 2.0°F-16.7°C 93% 11.0 mph E17.7 kmh E -- 29.99 in1015.6 mb 0.00 in0.0 mm 0.00 in0.0 mm 0.00 in0.0 mm
04:52 AM 3.5°F-15.8°C 2.0°F-16.7°C 93% 8.0 mph ESE12.9 kmh ESE -- 29.99 in1015.6 mb 0.00 in0.0 mm 0.00 in0.0 mm 0.00 in0.0 mm
04:53 AM 3.5°F-15.8°C 2.0°F-16.7°C 93% 7.0 mph ESE11.3 kmh ESE -- 29.99 in1015.6 mb 0.00 in0.0 mm 0.00 in0.0 mm 0.00 in0.0 mm
04:54 AM 3.5°F-15.8°C 2.0°F-16.7°C 93% 8.0 mph E12.9 kmh E -- 29.99 in1015.6 mb 0.00 in0.0 mm 0.00 in0.0 mm 0.00 in0.0 mm
04:55 AM 3.5°F-15.8°C 2.0°F-16.7°C 93% 8.0 mph ESE12.9 kmh ESE -- 29.99 in1015.6 mb 0.00 in0.0 mm 0.00 in0.0 mm 0.00 in0.0 mm
04:56 AM 3.5°F-15.8°C 2.0°F-16.7°C 93% 8.0 mph E12.9 kmh E -- 29.99 in1015.6 mb 0.00 in0.0 mm 0.00 in0.0 mm 0.00 in0.0 mm
04:57 AM 3.5°F-15.8°C 2.0°F-16.7°C 93% 11.0 mph E17.7 kmh E -- 29.99 in1015.6 mb 0.00 in0.0 mm 0.00 in0.0 mm 0.00 in0.0 mm
04:58 AM 3.5°F-15.8°C 2.0°F-16.7°C 93% 12.0 mph ESE19.3 kmh ESE -- 29.99 in1015.6 mb 0.00 in0.0 mm 0.00 in0.0 mm 0.00 in0.0 mm
04:59 AM 3.4°F-15.9°C 1.8°F-16.8°C 93% 6.0 mph E9.7 kmh E -- 29.99 in1015.6 mb 0.00 in0.0 mm 0.00 in0.0 mm 0.00 in0.0 mm
05:00 AM 3.4°F-15.9°C 1.8°F-16.8°C 93% 12.0 mph E19.3 kmh E -- 29.99 in1015.6 mb 0.00 in0.0 mm 0.00 in0.0 mm 0.00 in0.0 mm
05:01 AM 3.4°F-15.9°C 1.8°F-16.8°C 93% 11.0 mph ESE17.7 kmh ESE -- 29.99 in1015.6 mb 0.00 in0.0 mm 0.00 in0.0 mm 0.00 in0.0 mm
05:02 AM 3.4°F-15.9°C 1.8°F-16.8°C 93% 6.0 mph ESE9.7 kmh ESE -- 29.99 in1015.6 mb 0.00 in0.0 mm 0.00 in0.0 mm 0.00 in0.0 mm
05:03 AM 3.4°F-15.9°C 1.8°F-16.8°C 93% 9.0 mph E14.5 kmh E -- 29.99 in1015.6 mb 0.00 in0.0 mm 0.00 in0.0 mm 0.00 in0.0 mm
05:04 AM 3.4°F-15.9°C 1.8°F-16.8°C 93% 7.0 mph ENE11.3 kmh ENE -- 29.99 in1015.6 mb 0.00 in0.0 mm 0.00 in0.0 mm 0.00 in0.0 mm
05:06 AM 3.4°F-15.9°C 1.8°F-16.8°C 93% 13.0 mph NE20.9 kmh NE -- 29.99 in1015.6 mb 0.00 in0.0 mm 0.00 in0.0 mm 0.00 in0.0 mm
05:07 AM 3.4°F-15.9°C 1.8°F-16.8°C 93% 8.0 mph ESE12.9 kmh ESE -- 29.99 in1015.6 mb 0.00 in0.0 mm 0.00 in0.0 mm 0.00 in0.0 mm
05:09 AM 3.4°F-15.9°C 1.8°F-16.8°C 93% 10.0 mph E16.1 kmh E -- 29.99 in1015.6 mb 0.00 in0.0 mm 0.00 in0.0 mm 0.00 in0.0 mm
05:10 AM 3.4°F-15.9°C 1.8°F-16.8°C 93% 6.0 mph ESE9.7 kmh ESE -- 29.99 in1015.6 mb 0.00 in0.0 mm 0.00 in0.0 mm 0.00 in0.0 mm
05:11 AM 3.4°F-15.9°C 1.8°F-16.8°C 93% 9.0 mph ESE14.5 kmh ESE -- 29.99 in1015.6 mb 0.00 in0.0 mm 0.00 in0.0 mm 0.00 in0.0 mm
05:12 AM 3.4°F-15.9°C 1.8°F-16.8°C 93% 10.0 mph ESE16.1 kmh ESE -- 29.99 in1015.6 mb 0.00 in0.0 mm 0.00 in0.0 mm 0.00 in0.0 mm
05:13 AM 3.4°F-15.9°C 1.8°F-16.8°C 93% 8.0 mph ESE12.9 kmh ESE -- 29.98 in1015.2 mb 0.00 in0.0 mm 0.00 in0.0 mm 0.00 in0.0 mm
05:14 AM 3.4°F-15.9°C 1.8°F-16.8°C 93% 5.0 mph SSE8.0 kmh SSE -- 29.98 in1015.2 mb 0.00 in0.0 mm 0.00 in0.0 mm 0.00 in0.0 mm
05:15 AM 3.4°F-15.9°C 1.8°F-16.8°C 93% 4.0 mph ESE6.4 kmh ESE -- 29.99 in1015.6 mb 0.00 in0.0 mm 0.00 in0.0 mm 0.00 in0.0 mm
05:16 AM 3.4°F-15.9°C 1.8°F-16.8°C 93% 8.0 mph ESE12.9 kmh ESE -- 29.99 in1015.6 mb 0.00 in0.0 mm 0.00 in0.0 mm 0.00 in0.0 mm
05:17 AM 3.4°F-15.9°C 1.8°F-16.8°C 93% 7.0 mph ESE11.3 kmh ESE -- 29.99 in1015.6 mb 0.00 in0.0 mm 0.00 in0.0 mm 0.00 in0.0 mm
05:18 AM 3.1°F-16.1°C 1.4°F-17.0°C 93% 9.0 mph E14.5 kmh E -- 29.99 in1015.6 mb 0.00 in0.0 mm 0.00 in0.0 mm 0.00 in0.0 mm
05:19 AM 3.1°F-16.1°C 1.4°F-17.0°C 93% 10.0 mph ESE16.1 kmh ESE -- 29.99 in1015.6 mb 0.00 in0.0 mm 0.00 in0.0 mm 0.00 in0.0 mm
05:20 AM 3.1°F-16.1°C 1.4°F-17.0°C 93% 6.0 mph E9.7 kmh E -- 29.99 in1015.6 mb 0.00 in0.0 mm 0.00 in0.0 mm 0.00 in0.0 mm
05:21 AM 3.1°F-16.1°C 1.4°F-17.0°C 93% 7.0 mph ENE11.3 kmh ENE -- 29.99 in1015.6 mb 0.00 in0.0 mm 0.00 in0.0 mm 0.00 in0.0 mm
05:22 AM 3.1°F-16.1°C 1.4°F-17.0°C 93% 8.0 mph ENE12.9 kmh ENE -- 29.99 in1015.6 mb 0.00 in0.0 mm 0.00 in0.0 mm 0.00 in0.0 mm
05:23 AM 3.1°F-16.1°C 1.4°F-17.0°C 93% 13.0 mph ESE20.9 kmh ESE -- 29.99 in1015.6 mb 0.00 in0.0 mm 0.00 in0.0 mm 0.00 in0.0 mm
05:24 AM 3.1°F-16.1°C 1.0°F-17.2°C 91% 7.0 mph ESE11.3 kmh ESE -- 29.98 in1015.2 mb 0.00 in0.0 mm 0.00 in0.0 mm 0.00 in0.0 mm
05:25 AM 3.1°F-16.1°C 1.0°F-17.2°C 91% 5.0 mph ESE8.0 kmh ESE -- 29.99 in1015.6 mb 0.00 in0.0 mm 0.00 in0.0 mm 0.00 in0.0 mm
05:26 AM 3.1°F-16.1°C 1.0°F-17.2°C 91% 8.0 mph ESE12.9 kmh ESE -- 29.98 in1015.2 mb 0.00 in0.0 mm 0.00 in0.0 mm 0.00 in0.0 mm
05:27 AM 3.1°F-16.1°C 1.0°F-17.2°C 91% 10.0 mph ESE16.1 kmh ESE -- 29.98 in1015.2 mb 0.00 in0.0 mm 0.00 in0.0 mm 0.00 in0.0 mm
05:28 AM 3.1°F-16.1°C 1.0°F-17.2°C 91% 10.0 mph ESE16.1 kmh ESE -- 29.99 in1015.6 mb 0.00 in0.0 mm 0.00 in0.0 mm 0.00 in0.0 mm
05:29 AM 3.1°F-16.1°C 1.0°F-17.2°C 91% 12.0 mph ESE19.3 kmh ESE -- 29.98 in1015.2 mb 0.00 in0.0 mm 0.00 in0.0 mm 0.00 in0.0 mm
05:30 AM 3.1°F-16.1°C 1.0°F-17.2°C 91% 8.0 mph ESE12.9 kmh ESE -- 29.98 in1015.2 mb 0.00 in0.0 mm 0.00 in0.0 mm 0.00 in0.0 mm
05:31 AM 3.1°F-16.1°C 1.0°F-17.2°C 91% 7.0 mph E11.3 kmh E -- 29.99 in1015.6 mb 0.00 in0.0 mm 0.00 in0.0 mm 0.00 in0.0 mm
05:32 AM 3.1°F-16.1°C 1.0°F-17.2°C 91% 7.0 mph ESE11.3 kmh ESE -- 29.98 in1015.2 mb 0.00 in0.0 mm 0.00 in0.0 mm 0.00 in0.0 mm
05:33 AM 3.1°F-16.1°C 1.0°F-17.2°C 91% 6.0 mph ENE9.7 kmh ENE -- 29.98 in1015.2 mb 0.00 in0.0 mm 0.00 in0.0 mm 0.00 in0.0 mm
05:34 AM 3.1°F-16.1°C 1.0°F-17.2°C 91% 4.0 mph ESE6.4 kmh ESE -- 29.98 in1015.2 mb 0.00 in0.0 mm 0.00 in0.0 mm 0.00 in0.0 mm
05:35 AM 3.1°F-16.1°C 1.0°F-17.2°C 91% 10.0 mph SE16.1 kmh SE -- 29.98 in1015.2 mb 0.00 in0.0 mm 0.00 in0.0 mm 0.00 in0.0 mm
05:36 AM 3.1°F-16.1°C 1.0°F-17.2°C 91% 6.0 mph E9.7 kmh E -- 29.98 in1015.2 mb 0.00 in0.0 mm 0.00 in0.0 mm 0.00 in0.0 mm
05:37 AM 3.1°F-16.1°C 1.0°F-17.2°C 91% 9.0 mph ENE14.5 kmh ENE -- 29.98 in1015.2 mb 0.00 in0.0 mm 0.00 in0.0 mm 0.00 in0.0 mm
05:38 AM 3.1°F-16.1°C 1.0°F-17.2°C 91% 12.0 mph ESE19.3 kmh ESE -- 29.99 in1015.6 mb 0.00 in0.0 mm 0.00 in0.0 mm 0.00 in0.0 mm
05:39 AM 3.1°F-16.1°C 1.0°F-17.2°C 91% 8.0 mph ENE12.9 kmh ENE -- 29.99 in1015.6 mb 0.00 in0.0 mm 0.00 in0.0 mm 0.00 in0.0 mm
05:40 AM 3.0°F-16.1°C 1.0°F-17.2°C 91% 6.0 mph ESE9.7 kmh ESE -- 29.98 in1015.2 mb 0.00 in0.0 mm 0.00 in0.0 mm 0.00 in0.0 mm
05:41 AM 3.0°F-16.1°C 1.0°F-17.2°C 91% 9.0 mph E14.5 kmh E -- 29.99 in1015.6 mb 0.00 in0.0 mm 0.00 in0.0 mm 0.00 in0.0 mm
05:42 AM 3.0°F-16.1°C 1.0°F-17.2°C 91% 6.0 mph ESE9.7 kmh ESE -- 29.99 in1015.6 mb 0.00 in0.0 mm 0.00 in0.0 mm 0.00 in0.0 mm
05:43 AM 3.0°F-16.1°C 1.0°F-17.2°C 91% 10.0 mph E16.1 kmh E -- 29.99 in1015.6 mb 0.00 in0.0 mm 0.00 in0.0 mm 0.00 in0.0 mm
05:44 AM 3.0°F-16.1°C 1.0°F-17.2°C 91% 9.0 mph E14.5 kmh E -- 29.99 in1015.6 mb 0.00 in0.0 mm 0.00 in0.0 mm 0.00 in0.0 mm
05:45 AM 3.0°F-16.1°C 1.0°F-17.2°C 91% 11.0 mph ESE17.7 kmh ESE -- 29.99 in1015.6 mb 0.00 in0.0 mm 0.00 in0.0 mm 0.00 in0.0 mm
05:46 AM 3.0°F-16.1°C 1.0°F-17.2°C 91% 12.0 mph E19.3 kmh E -- 29.99 in1015.6 mb 0.00 in0.0 mm 0.00 in0.0 mm 0.00 in0.0 mm
05:47 AM 3.0°F-16.1°C 1.0°F-17.2°C 91% 10.0 mph ESE16.1 kmh ESE -- 29.99 in1015.6 mb 0.00 in0.0 mm 0.00 in0.0 mm 0.00 in0.0 mm
05:48 AM 3.0°F-16.1°C 1.0°F-17.2°C 91% 11.0 mph ESE17.7 kmh ESE -- 29.98 in1015.2 mb 0.00 in0.0 mm 0.00 in0.0 mm 0.00 in0.0 mm
05:50 AM 3.0°F-16.1°C 1.0°F-17.2°C 91% 7.0 mph ESE11.3 kmh ESE -- 29.98 in1015.2 mb 0.00 in0.0 mm 0.00 in0.0 mm 0.00 in0.0 mm
05:51 AM 3.0°F-16.1°C 1.0°F-17.2°C 91% 10.0 mph ESE16.1 kmh ESE -- 29.98 in1015.2 mb 0.00 in0.0 mm 0.00 in0.0 mm 0.00 in0.0 mm
05:52 AM 3.0°F-16.1°C 1.0°F-17.2°C 91% 9.0 mph E14.5 kmh E -- 29.98 in1015.2 mb 0.00 in0.0 mm 0.00 in0.0 mm 0.00 in0.0 mm
05:53 AM 3.0°F-16.1°C 1.0°F-17.2°C 91% 6.0 mph E9.7 kmh E -- 29.98 in1015.2 mb 0.00 in0.0 mm 0.00 in0.0 mm 0.00 in0.0 mm
05:54 AM 3.0°F-16.1°C 1.0°F-17.2°C 91% 7.0 mph ENE11.3 kmh ENE -- 29.98 in1015.2 mb 0.00 in0.0 mm 0.00 in0.0 mm 0.00 in0.0 mm
05:55 AM 3.0°F-16.1°C 1.0°F-17.2°C 91% 9.0 mph ESE14.5 kmh ESE -- 29.98 in1015.2 mb 0.00 in0.0 mm 0.00 in0.0 mm 0.00 in0.0 mm
05:56 AM 3.0°F-16.1°C 1.0°F-17.2°C 91% 8.0 mph E12.9 kmh E -- 29.98 in1015.2 mb 0.00 in0.0 mm 0.00 in0.0 mm 0.00 in0.0 mm
05:57 AM 3.0°F-16.1°C 1.0°F-17.2°C 91% 10.0 mph E16.1 kmh E -- 29.98 in1015.2 mb 0.00 in0.0 mm 0.00 in0.0 mm 0.00 in0.0 mm
05:58 AM 2.7°F-16.3°C 0.6°F-17.4°C 91% 8.0 mph ESE12.9 kmh ESE -- 29.98 in1015.2 mb 0.00 in0.0 mm 0.00 in0.0 mm 0.00 in0.0 mm
05:59 AM 2.7°F-16.3°C 0.6°F-17.4°C 91% 9.0 mph E14.5 kmh E -- 29.98 in1015.2 mb 0.00 in0.0 mm 0.00 in0.0 mm 0.00 in0.0 mm
06:01 AM 2.7°F-16.3°C 0.6°F-17.4°C 91% 9.0 mph ESE14.5 kmh ESE -- 29.98 in1015.2 mb 0.00 in0.0 mm 0.00 in0.0 mm 0.00 in0.0 mm
06:02 AM 2.7°F-16.3°C 0.6°F-17.4°C 91% 7.0 mph E11.3 kmh E -- 29.98 in1015.2 mb 0.00 in0.0 mm 0.00 in0.0 mm 0.00 in0.0 mm
06:03 AM 2.7°F-16.3°C 0.6°F-17.4°C 91% 10.0 mph ESE16.1 kmh ESE -- 29.98 in1015.2 mb 0.00 in0.0 mm 0.00 in0.0 mm 0.00 in0.0 mm
06:04 AM 2.7°F-16.3°C 0.6°F-17.4°C 91% 6.0 mph ESE9.7 kmh ESE -- 29.98 in1015.2 mb 0.00 in0.0 mm 0.00 in0.0 mm 0.00 in0.0 mm
06:05 AM 2.7°F-16.3°C 0.6°F-17.4°C 91% 9.0 mph ESE14.5 kmh ESE -- 29.98 in1015.2 mb 0.00 in0.0 mm 0.00 in0.0 mm 0.00 in0.0 mm
06:06 AM 2.7°F-16.3°C 0.6°F-17.4°C 91% 9.0 mph E14.5 kmh E -- 29.98 in1015.2 mb 0.00 in0.0 mm 0.00 in0.0 mm 0.00 in0.0 mm
06:07 AM 2.7°F-16.3°C 0.6°F-17.4°C 91% 7.0 mph ESE11.3 kmh ESE -- 29.98 in1015.2 mb 0.00 in0.0 mm 0.00 in0.0 mm 0.00 in0.0 mm
06:09 AM 2.7°F-16.3°C 0.6°F-17.4°C 91% 12.0 mph ESE19.3 kmh ESE -- 29.98 in1015.2 mb 0.00 in0.0 mm 0.00 in0.0 mm 0.00 in0.0 mm
06:10 AM 2.7°F-16.3°C 0.6°F-17.4°C 91% 8.0 mph ESE12.9 kmh ESE -- 29.98 in1015.2 mb 0.00 in0.0 mm 0.00 in0.0 mm 0.00 in0.0 mm
06:11 AM 2.7°F-16.3°C 0.6°F-17.4°C 91% 6.0 mph ESE9.7 kmh ESE -- 29.98 in1015.2 mb 0.00 in0.0 mm 0.00 in0.0 mm 0.00 in0.0 mm
06:12 AM 2.7°F-16.3°C 0.6°F-17.4°C 91% 10.0 mph ESE16.1 kmh ESE -- 29.98 in1015.2 mb 0.00 in0.0 mm 0.00 in0.0 mm 0.00 in0.0 mm
06:13 AM 2.7°F-16.3°C 0.6°F-17.4°C 91% 7.0 mph ESE11.3 kmh ESE -- 29.98 in1015.2 mb 0.00 in0.0 mm 0.00 in0.0 mm 0.00 in0.0 mm
06:14 AM 2.7°F-16.3°C 0.6°F-17.4°C 91% 14.0 mph ESE22.5 kmh ESE -- 29.98 in1015.2 mb 0.00 in0.0 mm 0.00 in0.0 mm 0.00 in0.0 mm
06:15 AM 2.7°F-16.3°C 0.6°F-17.4°C 91% 12.0 mph ESE19.3 kmh ESE -- 29.98 in1015.2 mb 0.00 in0.0 mm 0.00 in0.0 mm 0.00 in0.0 mm
06:16 AM 2.7°F-16.3°C 0.6°F-17.4°C 91% 9.0 mph ESE14.5 kmh ESE -- 29.98 in1015.2 mb 0.00 in0.0 mm 0.00 in0.0 mm 0.00 in0.0 mm
06:17 AM 2.7°F-16.3°C 0.6°F-17.4°C 91% 6.0 mph E9.7 kmh E -- 29.98 in1015.2 mb 0.00 in0.0 mm 0.00 in0.0 mm 0.00 in0.0 mm
06:19 AM 2.7°F-16.3°C 0.6°F-17.4°C 91% 9.0 mph ESE14.5 kmh ESE -- 29.98 in1015.2 mb 0.00 in0.0 mm 0.00 in0.0 mm 0.00 in0.0 mm
06:20 AM 2.7°F-16.3°C 0.6°F-17.4°C 91% 7.0 mph ESE11.3 kmh ESE -- 29.98 in1015.2 mb 0.00 in0.0 mm 0.00 in0.0 mm 0.00 in0.0 mm
06:21 AM 2.7°F-16.3°C 0.6°F-17.4°C 91% 8.0 mph ESE12.9 kmh ESE -- 29.98 in1015.2 mb 0.00 in0.0 mm 0.00 in0.0 mm 0.00 in0.0 mm
06:22 AM 2.7°F-16.3°C 0.6°F-17.4°C 91% 6.0 mph ESE9.7 kmh ESE -- 29.98 in1015.2 mb 0.00 in0.0 mm 0.00 in0.0 mm 0.00 in0.0 mm
06:23 AM 2.7°F-16.3°C 0.6°F-17.4°C 91% 9.0 mph ENE14.5 kmh ENE -- 29.98 in1015.2 mb 0.00 in0.0 mm 0.00 in0.0 mm 0.00 in0.0 mm
06:24 AM 2.7°F-16.3°C 0.6°F-17.4°C 91% 9.0 mph E14.5 kmh E -- 29.98 in1015.2 mb 0.00 in0.0 mm 0.00 in0.0 mm 0.00 in0.0 mm
06:25 AM 2.7°F-16.3°C 0.6°F-17.4°C 91% 8.0 mph E12.9 kmh E -- 29.98 in1015.2 mb 0.00 in0.0 mm 0.00 in0.0 mm 0.00 in0.0 mm
06:26 AM 2.7°F-16.3°C 0.6°F-17.4°C 91% 6.0 mph ESE9.7 kmh ESE -- 29.98 in1015.2 mb 0.00 in0.0 mm 0.00 in0.0 mm 0.00 in0.0 mm
06:27 AM 2.7°F-16.3°C 0.6°F-17.4°C 91% 5.0 mph ESE8.0 kmh ESE -- 29.97 in1014.9 mb 0.00 in0.0 mm 0.00 in0.0 mm 0.00 in0.0 mm
06:28 AM 2.7°F-16.3°C 0.6°F-17.4°C 91% 10.0 mph ESE16.1 kmh ESE -- 29.97 in1014.9 mb 0.00 in0.0 mm 0.00 in0.0 mm 0.00 in0.0 mm
06:29 AM 2.7°F-16.3°C 0.6°F-17.4°C 91% 6.0 mph ENE9.7 kmh ENE -- 29.97 in1014.9 mb 0.00 in0.0 mm 0.00 in0.0 mm 0.00 in0.0 mm
06:30 AM 2.7°F-16.3°C 0.6°F-17.4°C 91% 6.0 mph SE9.7 kmh SE -- 29.97 in1014.9 mb 0.00 in0.0 mm 0.00 in0.0 mm 0.00 in0.0 mm
06:31 AM 2.7°F-16.3°C 0.6°F-17.4°C 91% 8.0 mph E12.9 kmh E -- 29.98 in1015.2 mb 0.00 in0.0 mm 0.00 in0.0 mm 0.00 in0.0 mm
06:32 AM 2.7°F-16.3°C 0.6°F-17.4°C 91% 9.0 mph ESE14.5 kmh ESE -- 29.98 in1015.2 mb 0.00 in0.0 mm 0.00 in0.0 mm 0.00 in0.0 mm
06:34 AM 2.7°F-16.3°C 0.6°F-17.4°C 91% 6.0 mph E9.7 kmh E -- 29.98 in1015.2 mb 0.00 in0.0 mm 0.00 in0.0 mm 0.00 in0.0 mm
06:35 AM 2.7°F-16.3°C 0.6°F-17.4°C 91% 7.0 mph SE11.3 kmh SE -- 29.98 in1015.2 mb 0.00 in0.0 mm 0.00 in0.0 mm 0.00 in0.0 mm
06:36 AM 2.7°F-16.3°C 0.6°F-17.4°C 91% 8.0 mph ESE12.9 kmh ESE -- 29.98 in1015.2 mb 0.00 in0.0 mm 0.00 in0.0 mm 0.00 in0.0 mm
06:37 AM 2.7°F-16.3°C 0.6°F-17.4°C 91% 9.0 mph ESE14.5 kmh ESE -- 29.97 in1014.9 mb 0.00 in0.0 mm 0.00 in0.0 mm 0.00 in0.0 mm
06:38 AM 2.7°F-16.3°C 0.6°F-17.4°C 91% 5.0 mph ESE8.0 kmh ESE -- 29.97 in1014.9 mb 0.00 in0.0 mm 0.00 in0.0 mm 0.00 in0.0 mm
06:39 AM 2.7°F-16.3°C 0.6°F-17.4°C 91% 4.0 mph SSE6.4 kmh SSE -- 29.97 in1014.9 mb 0.00 in0.0 mm 0.00 in0.0 mm 0.00 in0.0 mm
06:40 AM 2.7°F-16.3°C 0.6°F-17.4°C 91% 8.0 mph E12.9 kmh E -- 29.97 in1014.9 mb 0.00 in0.0 mm 0.00 in0.0 mm 0.00 in0.0 mm
06:41 AM 2.7°F-16.3°C 0.6°F-17.4°C 91% 11.0 mph ESE17.7 kmh ESE -- 29.98 in1015.2 mb 0.00 in0.0 mm 0.00 in0.0 mm 0.00 in0.0 mm
06:42 AM 2.7°F-16.3°C 0.6°F-17.4°C 91% 9.0 mph SSE14.5 kmh SSE -- 29.98 in1015.2 mb 0.00 in0.0 mm 0.00 in0.0 mm 0.00 in0.0 mm
06:43 AM 2.7°F-16.3°C 0.6°F-17.4°C 91% 8.0 mph ENE12.9 kmh ENE -- 29.98 in1015.2 mb 0.00 in0.0 mm 0.00 in0.0 mm 0.00 in0.0 mm
06:44 AM 2.7°F-16.3°C 0.6°F-17.4°C 91% 8.0 mph SSE12.9 kmh SSE -- 29.97 in1014.9 mb 0.00 in0.0 mm 0.00 in0.0 mm 0.00 in0.0 mm
06:45 AM 2.7°F-16.3°C 0.6°F-17.4°C 91% 7.0 mph SSE11.3 kmh SSE -- 29.97 in1014.9 mb 0.00 in0.0 mm 0.00 in0.0 mm 0.00 in0.0 mm
06:46 AM 2.7°F-16.3°C 0.6°F-17.4°C 91% 7.0 mph E11.3 kmh E -- 29.97 in1014.9 mb 0.00 in0.0 mm 0.00 in0.0 mm 0.00 in0.0 mm
06:47 AM 2.7°F-16.3°C 0.6°F-17.4°C 91% 4.0 mph SE6.4 kmh SE -- 29.97 in1014.9 mb 0.00 in0.0 mm 0.00 in0.0 mm 0.00 in0.0 mm
06:48 AM 2.7°F-16.3°C 0.6°F-17.4°C 91% 8.0 mph E12.9 kmh E -- 29.97 in1014.9 mb 0.00 in0.0 mm 0.00 in0.0 mm 0.00 in0.0 mm
06:49 AM 2.7°F-16.3°C 0.6°F-17.4°C 91% 13.0 mph ESE20.9 kmh ESE -- 29.97 in1014.9 mb 0.00 in0.0 mm 0.00 in0.0 mm 0.00 in0.0 mm
06:50 AM 2.7°F-16.3°C 0.6°F-17.4°C 91% 10.0 mph ESE16.1 kmh ESE -- 29.97 in1014.9 mb 0.00 in0.0 mm 0.00 in0.0 mm 0.00 in0.0 mm
06:51 AM 2.7°F-16.3°C 0.6°F-17.4°C 91% 9.0 mph ESE14.5 kmh ESE -- 29.97 in1014.9 mb 0.00 in0.0 mm 0.00 in0.0 mm 0.00 in0.0 mm
06:52 AM 2.7°F-16.3°C 0.6°F-17.4°C 91% 11.0 mph ESE17.7 kmh ESE -- 29.97 in1014.9 mb 0.00 in0.0 mm 0.00 in0.0 mm 0.00 in0.0 mm
06:53 AM 2.7°F-16.3°C 0.6°F-17.4°C 91% 11.0 mph E17.7 kmh E -- 29.97 in1014.9 mb 0.00 in0.0 mm 0.00 in0.0 mm 0.00 in0.0 mm
06:54 AM 2.5°F-16.4°C 0.4°F-17.6°C 91% 8.0 mph ESE12.9 kmh ESE -- 29.97 in1014.9 mb 0.00 in0.0 mm 0.00 in0.0 mm 0.00 in0.0 mm
06:55 AM 2.5°F-16.4°C 0.4°F-17.6°C 91% 6.0 mph SE9.7 kmh SE -- 29.97 in1014.9 mb 0.00 in0.0 mm 0.00 in0.0 mm 0.00 in0.0 mm
06:56 AM 2.5°F-16.4°C 0.4°F-17.6°C 91% 9.0 mph E14.5 kmh E -- 29.97 in1014.9 mb 0.00 in0.0 mm 0.00 in0.0 mm 0.00 in0.0 mm
06:57 AM 2.5°F-16.4°C 0.4°F-17.6°C 91% 10.0 mph SE16.1 kmh SE -- 29.97 in1014.9 mb 0.00 in0.0 mm 0.00 in0.0 mm 0.00 in0.0 mm
06:58 AM 2.5°F-16.4°C 0.4°F-17.6°C 91% 6.0 mph ESE9.7 kmh ESE -- 29.97 in1014.9 mb 0.00 in0.0 mm 0.00 in0.0 mm 0.00 in0.0 mm
06:59 AM 2.5°F-16.4°C 0.4°F-17.6°C 91% 9.0 mph E14.5 kmh E -- 29.97 in1014.9 mb 0.00 in0.0 mm 0.00 in0.0 mm 0.00 in0.0 mm
07:00 AM 2.5°F-16.4°C 0.4°F-17.6°C 91% 9.0 mph ESE14.5 kmh ESE -- 29.97 in1014.9 mb 0.00 in0.0 mm 0.00 in0.0 mm 0.00 in0.0 mm
07:03 AM 2.5°F-16.4°C 0.4°F-17.6°C 91% 4.0 mph ESE6.4 kmh ESE -- 29.97 in1014.9 mb 0.00 in0.0 mm 0.00 in0.0 mm 0.00 in0.0 mm
07:04 AM 2.5°F-16.4°C 0.4°F-17.6°C 91% 9.0 mph ESE14.5 kmh ESE -- 29.97 in1014.9 mb 0.00 in0.0 mm 0.00 in0.0 mm 0.00 in0.0 mm
07:05 AM 2.5°F-16.4°C 0.4°F-17.6°C 91% 9.0 mph ESE14.5 kmh ESE -- 29.98 in1015.2 mb 0.00 in0.0 mm 0.00 in0.0 mm 0.00 in0.0 mm
07:06 AM 2.5°F-16.4°C 0.4°F-17.6°C 91% 7.0 mph ESE11.3 kmh ESE -- 29.97 in1014.9 mb 0.00 in0.0 mm 0.00 in0.0 mm 0.00 in0.0 mm
07:07 AM 2.5°F-16.4°C 0.4°F-17.6°C 91% 12.0 mph E19.3 kmh E -- 29.98 in1015.2 mb 0.00 in0.0 mm 0.00 in0.0 mm 0.00 in0.0 mm
07:08 AM 2.5°F-16.4°C 0.4°F-17.6°C 91% 7.0 mph SE11.3 kmh SE -- 29.97 in1014.9 mb 0.00 in0.0 mm 0.00 in0.0 mm 0.00 in0.0 mm
07:09 AM 2.5°F-16.4°C 0.4°F-17.6°C 91% 12.0 mph SE19.3 kmh SE -- 29.97 in1014.9 mb 0.00 in0.0 mm 0.00 in0.0 mm 0.00 in0.0 mm
07:10 AM 2.5°F-16.4°C 0.4°F-17.6°C 91% 6.0 mph SE9.7 kmh SE -- 29.97 in1014.9 mb 0.00 in0.0 mm 0.00 in0.0 mm 0.00 in0.0 mm
07:11 AM 2.5°F-16.4°C 0.4°F-17.6°C 91% 8.0 mph ESE12.9 kmh ESE -- 29.97 in1014.9 mb 0.00 in0.0 mm 0.00 in0.0 mm 0.00 in0.0 mm
07:12 AM 2.5°F-16.4°C 0.4°F-17.6°C 91% 5.0 mph ENE8.0 kmh ENE -- 29.97 in1014.9 mb 0.00 in0.0 mm 0.00 in0.0 mm 0.00 in0.0 mm
07:13 AM 2.5°F-16.4°C 0.4°F-17.6°C 91% 7.0 mph ESE11.3 kmh ESE -- 29.97 in1014.9 mb 0.00 in0.0 mm 0.00 in0.0 mm 0.00 in0.0 mm
07:14 AM 2.5°F-16.4°C 0.4°F-17.6°C 91% 6.0 mph E9.7 kmh E -- 29.97 in1014.9 mb 0.00 in0.0 mm 0.00 in0.0 mm 0.00 in0.0 mm
07:15 AM 2.5°F-16.4°C 0.4°F-17.6°C 91% 8.0 mph E12.9 kmh E -- 29.97 in1014.9 mb 0.00 in0.0 mm 0.00 in0.0 mm 0.00 in0.0 mm
07:16 AM 2.5°F-16.4°C 0.4°F-17.6°C 91% 6.0 mph E9.7 kmh E -- 29.97 in1014.9 mb 0.00 in0.0 mm 0.00 in0.0 mm 0.00 in0.0 mm
07:18 AM 2.5°F-16.4°C 0.4°F-17.6°C 91% 9.0 mph ESE14.5 kmh ESE -- 29.97 in1014.9 mb 0.00 in0.0 mm 0.00 in0.0 mm 0.00 in0.0 mm
07:19 AM 2.5°F-16.4°C 0.4°F-17.6°C 91% 6.0 mph ESE9.7 kmh ESE -- 29.97 in1014.9 mb 0.00 in0.0 mm 0.00 in0.0 mm 0.00 in0.0 mm
07:20 AM 2.5°F-16.4°C 0.4°F-17.6°C 91% 5.0 mph ESE8.0 kmh ESE -- 29.96 in1014.6 mb 0.00 in0.0 mm 0.00 in0.0 mm 0.00 in0.0 mm
07:21 AM 2.5°F-16.4°C 0.4°F-17.6°C 91% 8.0 mph ENE12.9 kmh ENE -- 29.96 in1014.6 mb 0.00 in0.0 mm 0.00 in0.0 mm 0.00 in0.0 mm
07:22 AM 2.5°F-16.4°C 0.4°F-17.6°C 91% 4.0 mph ESE6.4 kmh ESE -- 29.97 in1014.9 mb 0.00 in0.0 mm 0.00 in0.0 mm 0.00 in0.0 mm
07:23 AM 2.5°F-16.4°C 0.4°F-17.6°C 91% 8.0 mph E12.9 kmh E -- 29.97 in1014.9 mb 0.00 in0.0 mm 0.00 in0.0 mm 0.00 in0.0 mm
07:24 AM 2.5°F-16.4°C 0.4°F-17.6°C 91% 7.0 mph ESE11.3 kmh ESE -- 29.96 in1014.6 mb 0.00 in0.0 mm 0.00 in0.0 mm 0.00 in0.0 mm
07:25 AM 2.5°F-16.4°C 0.4°F-17.6°C 91% 8.0 mph E12.9 kmh E -- 29.96 in1014.6 mb 0.00 in0.0 mm 0.00 in0.0 mm 0.00 in0.0 mm
07:26 AM 2.7°F-16.3°C 0.6°F-17.4°C 91% 6.0 mph ESE9.7 kmh ESE -- 29.97 in1014.9 mb 0.00 in0.0 mm 0.00 in0.0 mm 0.00 in0.0 mm
07:30 AM 2.7°F-16.3°C 0.6°F-17.4°C 91% 4.0 mph ENE6.4 kmh ENE -- 29.97 in1014.9 mb 0.00 in0.0 mm 0.00 in0.0 mm 0.00 in0.0 mm
07:31 AM 2.7°F-16.3°C 0.6°F-17.4°C 91% 6.0 mph ENE9.7 kmh ENE -- 29.97 in1014.9 mb 0.00 in0.0 mm 0.00 in0.0 mm 0.00 in0.0 mm
07:32 AM 2.7°F-16.3°C 0.6°F-17.4°C 91% 5.0 mph SE8.0 kmh SE -- 29.97 in1014.9 mb 0.00 in0.0 mm 0.00 in0.0 mm 0.00 in0.0 mm
07:33 AM 2.7°F-16.3°C 0.6°F-17.4°C 91% 8.0 mph E12.9 kmh E -- 29.97 in1014.9 mb 0.00 in0.0 mm 0.00 in0.0 mm 0.00 in0.0 mm
07:34 AM 2.7°F-16.3°C 0.6°F-17.4°C 91% 9.0 mph ESE14.5 kmh ESE -- 29.97 in1014.9 mb 0.00 in0.0 mm 0.00 in0.0 mm 0.00 in0.0 mm
07:35 AM 2.7°F-16.3°C 0.6°F-17.4°C 91% 7.0 mph ENE11.3 kmh ENE -- 29.97 in1014.9 mb 0.00 in0.0 mm 0.00 in0.0 mm 0.00 in0.0 mm
07:36 AM 2.7°F-16.3°C 0.6°F-17.4°C 91% 9.0 mph E14.5 kmh E -- 29.97 in1014.9 mb 0.00 in0.0 mm 0.00 in0.0 mm 0.00 in0.0 mm
07:37 AM 2.7°F-16.3°C 0.6°F-17.4°C 91% 6.0 mph NE9.7 kmh NE -- 29.97 in1014.9 mb 0.00 in0.0 mm 0.00 in0.0 mm 0.00 in0.0 mm
07:38 AM 2.7°F-16.3°C 0.6°F-17.4°C 91% 9.0 mph E14.5 kmh E -- 29.97 in1014.9 mb 0.00 in0.0 mm 0.00 in0.0 mm 0.00 in0.0 mm
07:39 AM 2.7°F-16.3°C 0.6°F-17.4°C 91% 10.0 mph ESE16.1 kmh ESE -- 29.97 in1014.9 mb 0.00 in0.0 mm 0.00 in0.0 mm 0.00 in0.0 mm
07:40 AM 2.7°F-16.3°C 0.6°F-17.4°C 91% 6.0 mph E9.7 kmh E -- 29.97 in1014.9 mb 0.00 in0.0 mm 0.00 in0.0 mm 0.00 in0.0 mm
07:41 AM 2.7°F-16.3°C 0.6°F-17.4°C 91% 10.0 mph E16.1 kmh E -- 29.97 in1014.9 mb 0.00 in0.0 mm 0.00 in0.0 mm 0.00 in0.0 mm
07:42 AM 2.7°F-16.3°C 0.6°F-17.4°C 91% 8.0 mph SE12.9 kmh SE -- 29.97 in1014.9 mb 0.00 in0.0 mm 0.00 in0.0 mm 0.00 in0.0 mm
07:43 AM 2.7°F-16.3°C 0.6°F-17.4°C 91% 4.0 mph SSE6.4 kmh SSE -- 29.97 in1014.9 mb 0.00 in0.0 mm 0.00 in0.0 mm 0.00 in0.0 mm
07:44 AM 2.7°F-16.3°C 0.6°F-17.4°C 91% 6.0 mph SE9.7 kmh SE -- 29.97 in1014.9 mb 0.00 in0.0 mm 0.00 in0.0 mm 0.00 in0.0 mm
07:45 AM 2.7°F-16.3°C 0.6°F-17.4°C 91% 5.0 mph E8.0 kmh E -- 29.97 in1014.9 mb 0.00 in0.0 mm 0.00 in0.0 mm 0.00 in0.0 mm
07:46 AM 2.7°F-16.3°C 0.6°F-17.4°C 91% 7.0 mph ESE11.3 kmh ESE -- 29.97 in1014.9 mb 0.00 in0.0 mm 0.00 in0.0 mm 0.00 in0.0 mm
07:47 AM 2.7°F-16.3°C 0.6°F-17.4°C 91% 4.0 mph E6.4 kmh E -- 29.97 in1014.9 mb 0.00 in0.0 mm 0.00 in0.0 mm 0.00 in0.0 mm
07:49 AM 2.7°F-16.3°C 0.6°F-17.4°C 91% 8.0 mph E12.9 kmh E -- 29.98 in1015.2 mb 0.00 in0.0 mm 0.00 in0.0 mm 0.00 in0.0 mm
07:50 AM 2.7°F-16.3°C 0.6°F-17.4°C 91% 10.0 mph ESE16.1 kmh ESE -- 29.97 in1014.9 mb 0.00 in0.0 mm 0.00 in0.0 mm 0.00 in0.0 mm
07:51 AM 2.7°F-16.3°C 0.6°F-17.4°C 91% 6.0 mph ESE9.7 kmh ESE -- 29.97 in1014.9 mb 0.00 in0.0 mm 0.00 in0.0 mm 0.00 in0.0 mm
07:52 AM 2.7°F-16.3°C 0.6°F-17.4°C 91% 7.0 mph ESE11.3 kmh ESE -- 29.97 in1014.9 mb 0.00 in0.0 mm 0.00 in0.0 mm 0.00 in0.0 mm
07:53 AM 2.7°F-16.3°C 0.6°F-17.4°C 91% 5.0 mph ESE8.0 kmh ESE -- 29.97 in1014.9 mb 0.00 in0.0 mm 0.00 in0.0 mm 0.00 in0.0 mm
07:54 AM 2.7°F-16.3°C 0.6°F-17.4°C 91% 9.0 mph ESE14.5 kmh ESE -- 29.97 in1014.9 mb 0.00 in0.0 mm 0.00 in0.0 mm 0.00 in0.0 mm
07:55 AM 2.7°F-16.3°C 0.6°F-17.4°C 91% 6.0 mph ESE9.7 kmh ESE -- 29.97 in1014.9 mb 0.00 in0.0 mm 0.00 in0.0 mm 0.00 in0.0 mm
07:56 AM 2.7°F-16.3°C 0.6°F-17.4°C 91% 7.0 mph E11.3 kmh E -- 29.97 in1014.9 mb 0.00 in0.0 mm 0.00 in0.0 mm 0.00 in0.0 mm
07:57 AM 2.7°F-16.3°C 0.8°F-17.3°C 92% 7.0 mph E11.3 kmh E -- 29.97 in1014.9 mb 0.00 in0.0 mm 0.00 in0.0 mm 0.00 in0.0 mm
07:58 AM 2.7°F-16.3°C 0.8°F-17.3°C 92% 3.0 mph ESE4.8 kmh ESE -- 29.97 in1014.9 mb 0.00 in0.0 mm 0.00 in0.0 mm 0.00 in0.0 mm
08:01 AM 2.7°F-16.3°C 0.8°F-17.3°C 92% 4.0 mph SSE6.4 kmh SSE -- 29.97 in1014.9 mb 0.00 in0.0 mm 0.00 in0.0 mm 0.00 in0.0 mm
08:02 AM 2.7°F-16.3°C 0.6°F-17.4°C 91% 3.0 mph SE4.8 kmh SE -- 29.97 in1014.9 mb 0.00 in0.0 mm 0.00 in0.0 mm 0.00 in0.0 mm
08:03 AM 2.7°F-16.3°C 0.6°F-17.4°C 91% 5.0 mph SE8.0 kmh SE -- 29.97 in1014.9 mb 0.00 in0.0 mm 0.00 in0.0 mm 0.00 in0.0 mm
08:04 AM 2.7°F-16.3°C 0.6°F-17.4°C 91% 5.0 mph SSE8.0 kmh SSE -- 29.97 in1014.9 mb 0.00 in0.0 mm 0.00 in0.0 mm 0.00 in0.0 mm
08:05 AM 2.7°F-16.3°C 0.6°F-17.4°C 91% 8.0 mph E12.9 kmh E -- 29.97 in1014.9 mb 0.00 in0.0 mm 0.00 in0.0 mm 0.00 in0.0 mm
08:07 AM 2.7°F-16.3°C 0.6°F-17.4°C 91% 8.0 mph NE12.9 kmh NE -- 29.97 in1014.9 mb 0.00 in0.0 mm 0.00 in0.0 mm 0.00 in0.0 mm
08:08 AM 2.7°F-16.3°C 0.6°F-17.4°C 91% 6.0 mph E9.7 kmh E -- 29.97 in1014.9 mb 0.00 in0.0 mm 0.00 in0.0 mm 0.00 in0.0 mm
08:09 AM 2.7°F-16.3°C 0.6°F-17.4°C 91% 7.0 mph NE11.3 kmh NE -- 29.97 in1014.9 mb 0.00 in0.0 mm 0.00 in0.0 mm 0.00 in0.0 mm
08:10 AM 2.7°F-16.3°C 0.6°F-17.4°C 91% 5.0 mph E8.0 kmh E -- 29.97 in1014.9 mb 0.00 in0.0 mm 0.00 in0.0 mm 0.00 in0.0 mm
08:11 AM 2.7°F-16.3°C 0.6°F-17.4°C 91% 6.0 mph SE9.7 kmh SE -- 29.97 in1014.9 mb 0.00 in0.0 mm 0.00 in0.0 mm 0.00 in0.0 mm
08:12 AM 2.7°F-16.3°C 0.6°F-17.4°C 91% 8.0 mph ENE12.9 kmh ENE -- 29.97 in1014.9 mb 0.00 in0.0 mm 0.00 in0.0 mm 0.00 in0.0 mm
08:13 AM 2.7°F-16.3°C 0.6°F-17.4°C 91% 10.0 mph ENE16.1 kmh ENE -- 29.97 in1014.9 mb 0.00 in0.0 mm 0.00 in0.0 mm 0.00 in0.0 mm
08:14 AM 2.7°F-16.3°C 0.6°F-17.4°C 91% 4.0 mph ESE6.4 kmh ESE -- 29.97 in1014.9 mb 0.00 in0.0 mm 0.00 in0.0 mm 0.00 in0.0 mm
08:15 AM 2.7°F-16.3°C 0.6°F-17.4°C 91% 10.0 mph ESE16.1 kmh ESE -- 29.97 in1014.9 mb 0.00 in0.0 mm 0.00 in0.0 mm 0.00 in0.0 mm
08:17 AM 2.7°F-16.3°C 0.6°F-17.4°C 91% 9.0 mph ESE14.5 kmh ESE -- 29.97 in1014.9 mb 0.00 in0.0 mm 0.00 in0.0 mm 0.00 in0.0 mm
08:18 AM 2.7°F-16.3°C 0.6°F-17.4°C 91% 4.0 mph ESE6.4 kmh ESE -- 29.97 in1014.9 mb 0.00 in0.0 mm 0.00 in0.0 mm 0.00 in0.0 mm
08:20 AM 2.7°F-16.3°C 0.6°F-17.4°C 91% 5.0 mph E8.0 kmh E -- 29.96 in1014.6 mb 0.00 in0.0 mm 0.00 in0.0 mm 0.00 in0.0 mm
08:21 AM 2.7°F-16.3°C 0.6°F-17.4°C 91% 7.0 mph ESE11.3 kmh ESE -- 29.97 in1014.9 mb 0.00 in0.0 mm 0.00 in0.0 mm 0.00 in0.0 mm
08:23 AM 2.7°F-16.3°C 0.6°F-17.4°C 91% 6.0 mph SE9.7 kmh SE -- 29.96 in1014.6 mb 0.00 in0.0 mm 0.00 in0.0 mm 0.00 in0.0 mm
08:24 AM 2.7°F-16.3°C 0.6°F-17.4°C 91% 8.0 mph ESE12.9 kmh ESE -- 29.96 in1014.6 mb 0.00 in0.0 mm 0.00 in0.0 mm 0.00 in0.0 mm
08:25 AM 2.7°F-16.3°C 0.6°F-17.4°C 91% 9.0 mph SE14.5 kmh SE -- 29.96 in1014.6 mb 0.00 in0.0 mm 0.00 in0.0 mm 0.00 in0.0 mm
08:26 AM 2.7°F-16.3°C 0.6°F-17.4°C 91% 7.0 mph SE11.3 kmh SE -- 29.96 in1014.6 mb 0.00 in0.0 mm 0.00 in0.0 mm 0.00 in0.0 mm
08:27 AM 2.7°F-16.3°C 0.6°F-17.4°C 91% 6.0 mph SSE9.7 kmh SSE -- 29.96 in1014.6 mb 0.00 in0.0 mm 0.00 in0.0 mm 0.00 in0.0 mm
08:28 AM 2.7°F-16.3°C 0.6°F-17.4°C 91% 6.0 mph ESE9.7 kmh ESE -- 29.96 in1014.6 mb 0.00 in0.0 mm 0.00 in0.0 mm 0.00 in0.0 mm
08:29 AM 2.7°F-16.3°C 0.6°F-17.4°C 91% 12.0 mph ESE19.3 kmh ESE -- 29.96 in1014.6 mb 0.00 in0.0 mm 0.00 in0.0 mm 0.00 in0.0 mm
08:30 AM 2.7°F-16.3°C 0.6°F-17.4°C 91% 8.0 mph ESE12.9 kmh ESE -- 29.96 in1014.6 mb 0.00 in0.0 mm 0.00 in0.0 mm 0.00 in0.0 mm
08:32 AM 2.7°F-16.3°C 0.6°F-17.4°C 91% 8.0 mph SE12.9 kmh SE -- 29.96 in1014.6 mb 0.00 in0.0 mm 0.00 in0.0 mm 0.00 in0.0 mm
08:33 AM 2.7°F-16.3°C 0.6°F-17.4°C 91% 4.0 mph E6.4 kmh E -- 29.96 in1014.6 mb 0.00 in0.0 mm 0.00 in0.0 mm 0.00 in0.0 mm
08:34 AM 2.7°F-16.3°C 0.6°F-17.4°C 91% 5.0 mph SSE8.0 kmh SSE -- 29.96 in1014.6 mb 0.00 in0.0 mm 0.00 in0.0 mm 0.00 in0.0 mm
08:35 AM 2.7°F-16.3°C 0.6°F-17.4°C 91% 7.0 mph ESE11.3 kmh ESE -- 29.96 in1014.6 mb 0.00 in0.0 mm 0.00 in0.0 mm 0.00 in0.0 mm
08:36 AM 2.7°F-16.3°C 0.6°F-17.4°C 91% 6.0 mph E9.7 kmh E -- 29.96 in1014.6 mb 0.00 in0.0 mm 0.00 in0.0 mm 0.00 in0.0 mm
08:37 AM 2.7°F-16.3°C 0.6°F-17.4°C 91% 8.0 mph ESE12.9 kmh ESE -- 29.96 in1014.6 mb 0.00 in0.0 mm 0.00 in0.0 mm 0.00 in0.0 mm
08:38 AM 2.7°F-16.3°C 0.6°F-17.4°C 91% 8.0 mph NE12.9 kmh NE -- 29.97 in1014.9 mb 0.00 in0.0 mm 0.00 in0.0 mm 0.00 in0.0 mm
08:39 AM 2.7°F-16.3°C 0.6°F-17.4°C 91% 6.0 mph E9.7 kmh E -- 29.97 in1014.9 mb 0.00 in0.0 mm 0.00 in0.0 mm 0.00 in0.0 mm
08:40 AM 2.7°F-16.3°C 0.6°F-17.4°C 91% 6.0 mph SSE9.7 kmh SSE -- 29.97 in1014.9 mb 0.00 in0.0 mm 0.00 in0.0 mm 0.00 in0.0 mm
08:41 AM 2.7°F-16.3°C 0.6°F-17.4°C 91% 8.0 mph ESE12.9 kmh ESE -- 29.97 in1014.9 mb 0.00 in0.0 mm 0.00 in0.0 mm 0.00 in0.0 mm
08:43 AM 2.7°F-16.3°C 0.6°F-17.4°C 91% 7.0 mph ESE11.3 kmh ESE -- 29.97 in1014.9 mb 0.00 in0.0 mm 0.00 in0.0 mm 0.00 in0.0 mm
08:44 AM 2.7°F-16.3°C 0.6°F-17.4°C 91% 8.0 mph ESE12.9 kmh ESE -- 29.97 in1014.9 mb 0.00 in0.0 mm 0.00 in0.0 mm 0.00 in0.0 mm
08:45 AM 2.7°F-16.3°C 0.6°F-17.4°C 91% 6.0 mph SE9.7 kmh SE -- 29.97 in1014.9 mb 0.00 in0.0 mm 0.00 in0.0 mm 0.00 in0.0 mm
08:46 AM 2.7°F-16.3°C 0.6°F-17.4°C 91% 6.0 mph E9.7 kmh E -- 29.97 in1014.9 mb 0.00 in0.0 mm 0.00 in0.0 mm 0.00 in0.0 mm
08:47 AM 2.7°F-16.3°C 0.6°F-17.4°C 91% 8.0 mph ESE12.9 kmh ESE -- 29.97 in1014.9 mb 0.00 in0.0 mm 0.00 in0.0 mm 0.00 in0.0 mm
08:48 AM 2.7°F-16.3°C 0.6°F-17.4°C 91% 9.0 mph ESE14.5 kmh ESE -- 29.97 in1014.9 mb 0.00 in0.0 mm 0.00 in0.0 mm 0.00 in0.0 mm
08:49 AM 2.7°F-16.3°C 0.6°F-17.4°C 91% 5.0 mph ESE8.0 kmh ESE -- 29.97 in1014.9 mb 0.00 in0.0 mm 0.00 in0.0 mm 0.00 in0.0 mm
08:50 AM 2.7°F-16.3°C 0.6°F-17.4°C 91% 5.0 mph SSE8.0 kmh SSE -- 29.97 in1014.9 mb 0.00 in0.0 mm 0.00 in0.0 mm 0.00 in0.0 mm
08:51 AM 2.7°F-16.3°C 0.6°F-17.4°C 91% 5.0 mph E8.0 kmh E -- 29.97 in1014.9 mb 0.00 in0.0 mm 0.00 in0.0 mm 0.00 in0.0 mm
08:52 AM 2.7°F-16.3°C 0.6°F-17.4°C 91% 6.0 mph E9.7 kmh E -- 29.97 in1014.9 mb 0.00 in0.0 mm 0.00 in0.0 mm 0.00 in0.0 mm
08:53 AM 2.7°F-16.3°C 0.6°F-17.4°C 91% 6.0 mph ENE9.7 kmh ENE -- 29.97 in1014.9 mb 0.00 in0.0 mm 0.00 in0.0 mm 0.00 in0.0 mm
08:54 AM 2.7°F-16.3°C 0.6°F-17.4°C 91% 8.0 mph ENE12.9 kmh ENE -- 29.97 in1014.9 mb 0.00 in0.0 mm 0.00 in0.0 mm 0.00 in0.0 mm
08:55 AM 2.7°F-16.3°C 0.6°F-17.4°C 91% 7.0 mph ESE11.3 kmh ESE -- 29.97 in1014.9 mb 0.00 in0.0 mm 0.00 in0.0 mm 0.00 in0.0 mm
08:56 AM 2.7°F-16.3°C 0.6°F-17.4°C 91% 5.0 mph E8.0 kmh E -- 29.97 in1014.9 mb 0.00 in0.0 mm 0.00 in0.0 mm 0.00 in0.0 mm
08:57 AM 2.7°F-16.3°C 0.6°F-17.4°C 91% 9.0 mph ESE14.5 kmh ESE -- 29.97 in1014.9 mb 0.00 in0.0 mm 0.00 in0.0 mm 0.00 in0.0 mm
08:58 AM 2.7°F-16.3°C 0.6°F-17.4°C 91% 6.0 mph E9.7 kmh E -- 29.97 in1014.9 mb 0.00 in0.0 mm 0.00 in0.0 mm 0.00 in0.0 mm
08:59 AM 2.7°F-16.3°C 0.6°F-17.4°C 91% 7.0 mph E11.3 kmh E -- 29.97 in1014.9 mb 0.00 in0.0 mm 0.00 in0.0 mm 0.00 in0.0 mm
09:00 AM 2.7°F-16.3°C 0.6°F-17.4°C 91% 8.0 mph ENE12.9 kmh ENE -- 29.97 in1014.9 mb 0.00 in0.0 mm 0.00 in0.0 mm 0.00 in0.0 mm
09:01 AM 2.7°F-16.3°C 0.6°F-17.4°C 91% 6.0 mph E9.7 kmh E -- 29.97 in1014.9 mb 0.00 in0.0 mm 0.00 in0.0 mm 0.00 in0.0 mm
09:02 AM 2.7°F-16.3°C 0.6°F-17.4°C 91% 5.0 mph ESE8.0 kmh ESE -- 29.97 in1014.9 mb 0.00 in0.0 mm 0.00 in0.0 mm 0.00 in0.0 mm
09:03 AM 2.7°F-16.3°C 0.6°F-17.4°C 91% 5.0 mph E8.0 kmh E -- 29.97 in1014.9 mb 0.00 in0.0 mm 0.00 in0.0 mm 0.00 in0.0 mm
09:04 AM 2.7°F-16.3°C 0.6°F-17.4°C 91% 6.0 mph ENE9.7 kmh ENE -- 29.97 in1014.9 mb 0.00 in0.0 mm 0.00 in0.0 mm 0.00 in0.0 mm
09:05 AM 2.7°F-16.3°C 0.6°F-17.4°C 91% 6.0 mph ESE9.7 kmh ESE -- 29.97 in1014.9 mb 0.00 in0.0 mm 0.00 in0.0 mm 0.00 in0.0 mm
09:06 AM 2.7°F-16.3°C 0.6°F-17.4°C 91% 7.0 mph E11.3 kmh E -- 29.97 in1014.9 mb 0.00 in0.0 mm 0.00 in0.0 mm 0.00 in0.0 mm
09:07 AM 2.7°F-16.3°C 0.6°F-17.4°C 91% 8.0 mph E12.9 kmh E -- 29.97 in1014.9 mb 0.00 in0.0 mm 0.00 in0.0 mm 0.00 in0.0 mm
09:08 AM 2.7°F-16.3°C 0.6°F-17.4°C 91% 7.0 mph NE11.3 kmh NE -- 29.97 in1014.9 mb 0.00 in0.0 mm 0.00 in0.0 mm 0.00 in0.0 mm
09:09 AM 2.7°F-16.3°C 0.6°F-17.4°C 91% 6.0 mph ESE9.7 kmh ESE -- 29.97 in1014.9 mb 0.00 in0.0 mm 0.00 in0.0 mm 0.00 in0.0 mm
09:11 AM 2.7°F-16.3°C 0.6°F-17.4°C 91% 5.0 mph E8.0 kmh E -- 29.98 in1015.2 mb 0.00 in0.0 mm 0.00 in0.0 mm 0.00 in0.0 mm
09:12 AM 2.7°F-16.3°C 0.6°F-17.4°C 91% 3.0 mph ENE4.8 kmh ENE -- 29.98 in1015.2 mb 0.00 in0.0 mm 0.00 in0.0 mm 0.00 in0.0 mm
09:13 AM 2.7°F-16.3°C 0.6°F-17.4°C 91% 7.0 mph ENE11.3 kmh ENE -- 29.97 in1014.9 mb 0.00 in0.0 mm 0.00 in0.0 mm 0.00 in0.0 mm
09:14 AM 2.7°F-16.3°C 0.6°F-17.4°C 91% 3.0 mph ESE4.8 kmh ESE -- 29.97 in1014.9 mb 0.00 in0.0 mm 0.00 in0.0 mm 0.00 in0.0 mm
09:15 AM 2.7°F-16.3°C 0.6°F-17.4°C 91% 7.0 mph E11.3 kmh E -- 29.98 in1015.2 mb 0.00 in0.0 mm 0.00 in0.0 mm 0.00 in0.0 mm
09:16 AM 2.7°F-16.3°C 0.6°F-17.4°C 91% 5.0 mph E8.0 kmh E -- 29.97 in1014.9 mb 0.00 in0.0 mm 0.00 in0.0 mm 0.00 in0.0 mm
09:17 AM 2.7°F-16.3°C 0.6°F-17.4°C 91% 4.0 mph ESE6.4 kmh ESE -- 29.98 in1015.2 mb 0.00 in0.0 mm 0.00 in0.0 mm 0.00 in0.0 mm
09:18 AM 2.7°F-16.3°C 0.6°F-17.4°C 91% 5.0 mph ENE8.0 kmh ENE -- 29.97 in1014.9 mb 0.00 in0.0 mm 0.00 in0.0 mm 0.00 in0.0 mm
09:19 AM 2.7°F-16.3°C 0.6°F-17.4°C 91% 4.0 mph ESE6.4 kmh ESE -- 29.98 in1015.2 mb 0.00 in0.0 mm 0.00 in0.0 mm 0.00 in0.0 mm
09:20 AM 2.7°F-16.3°C 0.6°F-17.4°C 91% 4.0 mph SE6.4 kmh SE -- 29.98 in1015.2 mb 0.00 in0.0 mm 0.00 in0.0 mm 0.00 in0.0 mm
09:21 AM 2.7°F-16.3°C 0.6°F-17.4°C 91% 8.0 mph ESE12.9 kmh ESE -- 29.98 in1015.2 mb 0.00 in0.0 mm 0.00 in0.0 mm 0.00 in0.0 mm
09:22 AM 2.7°F-16.3°C 0.6°F-17.4°C 91% 5.0 mph ENE8.0 kmh ENE -- 29.98 in1015.2 mb 0.00 in0.0 mm 0.00 in0.0 mm 0.00 in0.0 mm
09:23 AM 2.7°F-16.3°C 0.6°F-17.4°C 91% 5.0 mph ESE8.0 kmh ESE -- 29.99 in1015.6 mb 0.00 in0.0 mm 0.00 in0.0 mm 0.00 in0.0 mm
09:24 AM 2.7°F-16.3°C 0.6°F-17.4°C 91% 7.0 mph E11.3 kmh E -- 29.99 in1015.6 mb 0.00 in0.0 mm 0.00 in0.0 mm 0.00 in0.0 mm
09:25 AM 2.7°F-16.3°C 0.6°F-17.4°C 91% 5.0 mph E8.0 kmh E -- 29.99 in1015.6 mb 0.00 in0.0 mm 0.00 in0.0 mm 0.00 in0.0 mm
09:26 AM 2.7°F-16.3°C 0.6°F-17.4°C 91% 4.0 mph ENE6.4 kmh ENE -- 29.99 in1015.6 mb 0.00 in0.0 mm 0.00 in0.0 mm 0.00 in0.0 mm
09:27 AM 2.8°F-16.2°C 0.8°F-17.3°C 91% 5.0 mph ESE8.0 kmh ESE -- 29.98 in1015.2 mb 0.00 in0.0 mm 0.00 in0.0 mm 0.00 in0.0 mm
09:28 AM 2.7°F-16.3°C 0.6°F-17.4°C 91% 5.0 mph ESE8.0 kmh ESE -- 29.98 in1015.2 mb 0.00 in0.0 mm 0.00 in0.0 mm 0.00 in0.0 mm
09:29 AM 2.7°F-16.3°C 0.6°F-17.4°C 91% 5.0 mph ESE8.0 kmh ESE -- 29.99 in1015.6 mb 0.00 in0.0 mm 0.00 in0.0 mm 0.00 in0.0 mm
09:30 AM 2.7°F-16.3°C 0.6°F-17.4°C 91% 6.0 mph ESE9.7 kmh ESE -- 29.98 in1015.2 mb 0.00 in0.0 mm 0.00 in0.0 mm 0.00 in0.0 mm
09:31 AM 2.7°F-16.3°C 0.6°F-17.4°C 91% 6.0 mph NE9.7 kmh NE -- 29.98 in1015.2 mb 0.00 in0.0 mm 0.00 in0.0 mm 0.00 in0.0 mm
09:32 AM 2.7°F-16.3°C 0.6°F-17.4°C 91% 6.0 mph ESE9.7 kmh ESE -- 29.98 in1015.2 mb 0.00 in0.0 mm 0.00 in0.0 mm 0.00 in0.0 mm
09:34 AM 2.7°F-16.3°C 0.6°F-17.4°C 91% 7.0 mph E11.3 kmh E -- 29.98 in1015.2 mb 0.00 in0.0 mm 0.00 in0.0 mm 0.00 in0.0 mm
09:35 AM 2.7°F-16.3°C 0.6°F-17.4°C 91% 5.0 mph ESE8.0 kmh ESE -- 29.98 in1015.2 mb 0.00 in0.0 mm 0.00 in0.0 mm 0.00 in0.0 mm
09:36 AM 2.7°F-16.3°C 0.6°F-17.4°C 91% 4.0 mph E6.4 kmh E -- 29.98 in1015.2 mb 0.00 in0.0 mm 0.00 in0.0 mm 0.00 in0.0 mm
09:37 AM 2.7°F-16.3°C 0.6°F-17.4°C 91% 7.0 mph SE11.3 kmh SE -- 29.98 in1015.2 mb 0.00 in0.0 mm 0.00 in0.0 mm 0.00 in0.0 mm
09:38 AM 2.7°F-16.3°C 0.6°F-17.4°C 91% 6.0 mph E9.7 kmh E -- 29.98 in1015.2 mb 0.00 in0.0 mm 0.00 in0.0 mm 0.00 in0.0 mm
09:39 AM 2.7°F-16.3°C 0.6°F-17.4°C 91% 6.0 mph ESE9.7 kmh ESE -- 29.98 in1015.2 mb 0.00 in0.0 mm 0.00 in0.0 mm 0.00 in0.0 mm
09:40 AM 2.7°F-16.3°C 0.6°F-17.4°C 91% 4.0 mph ESE6.4 kmh ESE -- 29.98 in1015.2 mb 0.00 in0.0 mm 0.00 in0.0 mm 0.00 in0.0 mm
09:41 AM 2.7°F-16.3°C 0.6°F-17.4°C 91% 6.0 mph ESE9.7 kmh ESE -- 29.98 in1015.2 mb 0.00 in0.0 mm 0.00 in0.0 mm 0.00 in0.0 mm
09:42 AM 3.0°F-16.1°C 1.0°F-17.2°C 91% 5.0 mph E8.0 kmh E -- 29.98 in1015.2 mb 0.00 in0.0 mm 0.00 in0.0 mm 0.00 in0.0 mm
09:43 AM 3.0°F-16.1°C 1.0°F-17.2°C 91% 6.0 mph E9.7 kmh E -- 29.98 in1015.2 mb 0.00 in0.0 mm 0.00 in0.0 mm 0.00 in0.0 mm
09:45 AM 3.0°F-16.1°C 1.0°F-17.2°C 91% 5.0 mph E8.0 kmh E -- 29.98 in1015.2 mb 0.00 in0.0 mm 0.00 in0.0 mm 0.00 in0.0 mm
09:46 AM 3.0°F-16.1°C 1.0°F-17.2°C 91% 4.0 mph ESE6.4 kmh ESE -- 29.98 in1015.2 mb 0.00 in0.0 mm 0.00 in0.0 mm 0.00 in0.0 mm
09:47 AM 3.0°F-16.1°C 1.0°F-17.2°C 91% 6.0 mph ENE9.7 kmh ENE -- 29.98 in1015.2 mb 0.00 in0.0 mm 0.00 in0.0 mm 0.00 in0.0 mm
09:48 AM 3.0°F-16.1°C 1.0°F-17.2°C 91% 6.0 mph ESE9.7 kmh ESE -- 29.98 in1015.2 mb 0.00 in0.0 mm 0.00 in0.0 mm 0.00 in0.0 mm
09:49 AM 3.0°F-16.1°C 1.0°F-17.2°C 91% 4.0 mph ESE6.4 kmh ESE -- 29.98 in1015.2 mb 0.00 in0.0 mm 0.00 in0.0 mm 0.00 in0.0 mm
09:50 AM 3.0°F-16.1°C 1.0°F-17.2°C 91% 6.0 mph ESE9.7 kmh ESE -- 29.98 in1015.2 mb 0.00 in0.0 mm 0.00 in0.0 mm 0.00 in0.0 mm
09:51 AM 3.0°F-16.1°C 1.0°F-17.2°C 91% 5.0 mph ENE8.0 kmh ENE -- 29.98 in1015.2 mb 0.00 in0.0 mm 0.00 in0.0 mm 0.00 in0.0 mm
09:52 AM 3.0°F-16.1°C 1.0°F-17.2°C 91% 6.0 mph ESE9.7 kmh ESE -- 29.99 in1015.6 mb 0.00 in0.0 mm 0.00 in0.0 mm 0.00 in0.0 mm
09:53 AM 3.0°F-16.1°C 1.0°F-17.2°C 91% 7.0 mph E11.3 kmh E -- 29.98 in1015.2 mb 0.00 in0.0 mm 0.00 in0.0 mm 0.00 in0.0 mm
09:54 AM 3.0°F-16.1°C 1.0°F-17.2°C 91% 5.0 mph E8.0 kmh E -- 29.98 in1015.2 mb 0.00 in0.0 mm 0.00 in0.0 mm 0.00 in0.0 mm
09:55 AM 3.0°F-16.1°C 1.0°F-17.2°C 91% 7.0 mph ESE11.3 kmh ESE -- 29.98 in1015.2 mb 0.00 in0.0 mm 0.00 in0.0 mm 0.00 in0.0 mm
09:56 AM 3.0°F-16.1°C 1.0°F-17.2°C 91% 6.0 mph E9.7 kmh E -- 29.98 in1015.2 mb 0.00 in0.0 mm 0.00 in0.0 mm 0.00 in0.0 mm
09:57 AM 3.0°F-16.1°C 1.0°F-17.2°C 91% 5.0 mph E8.0 kmh E -- 29.98 in1015.2 mb 0.00 in0.0 mm 0.00 in0.0 mm 0.00 in0.0 mm
09:58 AM 3.0°F-16.1°C 1.0°F-17.2°C 91% 6.0 mph E9.7 kmh E -- 29.98 in1015.2 mb 0.00 in0.0 mm 0.00 in0.0 mm 0.00 in0.0 mm
10:00 AM 3.0°F-16.1°C 1.0°F-17.2°C 91% 7.0 mph E11.3 kmh E -- 29.98 in1015.2 mb 0.00 in0.0 mm 0.00 in0.0 mm 0.00 in0.0 mm
10:01 AM 3.0°F-16.1°C 1.0°F-17.2°C 91% 5.0 mph E8.0 kmh E -- 29.99 in1015.6 mb 0.00 in0.0 mm 0.00 in0.0 mm 0.00 in0.0 mm
10:02 AM 3.0°F-16.1°C 1.0°F-17.2°C 91% 6.0 mph ESE9.7 kmh ESE -- 29.99 in1015.6 mb 0.00 in0.0 mm 0.00 in0.0 mm 0.00 in0.0 mm
10:03 AM 3.0°F-16.1°C 1.0°F-17.2°C 91% 4.0 mph E6.4 kmh E -- 29.98 in1015.2 mb 0.00 in0.0 mm 0.00 in0.0 mm 0.00 in0.0 mm
10:04 AM 3.0°F-16.1°C 1.0°F-17.2°C 91% 5.0 mph ESE8.0 kmh ESE -- 29.98 in1015.2 mb 0.00 in0.0 mm 0.00 in0.0 mm 0.00 in0.0 mm
10:05 AM 3.0°F-16.1°C 1.0°F-17.2°C 91% 7.0 mph ENE11.3 kmh ENE -- 29.98 in1015.2 mb 0.00 in0.0 mm 0.00 in0.0 mm 0.00 in0.0 mm
10:06 AM 3.0°F-16.1°C 1.0°F-17.2°C 91% 8.0 mph ESE12.9 kmh ESE -- 29.98 in1015.2 mb 0.00 in0.0 mm 0.00 in0.0 mm 0.00 in0.0 mm
10:07 AM 3.0°F-16.1°C 1.0°F-17.2°C 91% 11.0 mph E17.7 kmh E -- 29.98 in1015.2 mb 0.00 in0.0 mm 0.00 in0.0 mm 0.00 in0.0 mm
10:08 AM 3.0°F-16.1°C 1.0°F-17.2°C 91% 8.0 mph E12.9 kmh E -- 29.98 in1015.2 mb 0.00 in0.0 mm 0.00 in0.0 mm 0.00 in0.0 mm
10:09 AM 3.0°F-16.1°C 1.0°F-17.2°C 91% 7.0 mph ESE11.3 kmh ESE -- 29.98 in1015.2 mb 0.00 in0.0 mm 0.00 in0.0 mm 0.00 in0.0 mm
10:10 AM 3.0°F-16.1°C 1.0°F-17.2°C 91% 7.0 mph ENE11.3 kmh ENE -- 29.98 in1015.2 mb 0.00 in0.0 mm 0.00 in0.0 mm 0.00 in0.0 mm
10:11 AM 3.0°F-16.1°C 1.0°F-17.2°C 91% 5.0 mph SSE8.0 kmh SSE -- 29.98 in1015.2 mb 0.00 in0.0 mm 0.00 in0.0 mm 0.00 in0.0 mm
10:12 AM 3.0°F-16.1°C 1.0°F-17.2°C 91% 6.0 mph ESE9.7 kmh ESE -- 29.98 in1015.2 mb 0.00 in0.0 mm 0.00 in0.0 mm 0.00 in0.0 mm
10:13 AM 3.1°F-16.1°C 1.0°F-17.2°C 91% 4.0 mph E6.4 kmh E -- 29.98 in1015.2 mb 0.00 in0.0 mm 0.00 in0.0 mm 0.00 in0.0 mm
10:14 AM 3.1°F-16.1°C 1.0°F-17.2°C 91% 6.0 mph E9.7 kmh E -- 29.98 in1015.2 mb 0.00 in0.0 mm 0.00 in0.0 mm 0.00 in0.0 mm
10:15 AM 3.1°F-16.1°C 1.0°F-17.2°C 91% 6.0 mph E9.7 kmh E -- 29.99 in1015.6 mb 0.00 in0.0 mm 0.00 in0.0 mm 0.00 in0.0 mm
10:16 AM 3.1°F-16.1°C 1.0°F-17.2°C 91% 4.0 mph E6.4 kmh E -- 29.99 in1015.6 mb 0.00 in0.0 mm 0.00 in0.0 mm 0.00 in0.0 mm
10:17 AM 3.1°F-16.1°C 1.0°F-17.2°C 91% 4.0 mph E6.4 kmh E -- 29.98 in1015.2 mb 0.00 in0.0 mm 0.00 in0.0 mm 0.00 in0.0 mm
10:18 AM 3.1°F-16.1°C 1.0°F-17.2°C 91% 4.0 mph SSE6.4 kmh SSE -- 29.98 in1015.2 mb 0.00 in0.0 mm 0.00 in0.0 mm 0.00 in0.0 mm
10:19 AM 3.4°F-15.9°C 1.3°F-17.1°C 91% 3.0 mph ESE4.8 kmh ESE -- 29.99 in1015.6 mb 0.00 in0.0 mm 0.00 in0.0 mm 0.00 in0.0 mm
10:20 AM 3.4°F-15.9°C 1.3°F-17.1°C 91% 4.0 mph ESE6.4 kmh ESE -- 29.99 in1015.6 mb 0.00 in0.0 mm 0.00 in0.0 mm 0.00 in0.0 mm
10:21 AM 3.4°F-15.9°C 1.3°F-17.1°C 91% 6.0 mph ESE9.7 kmh ESE -- 29.98 in1015.2 mb 0.00 in0.0 mm 0.00 in0.0 mm 0.00 in0.0 mm
10:25 AM 3.4°F-15.9°C 1.3°F-17.1°C 91% 6.0 mph E9.7 kmh E -- 29.98 in1015.2 mb 0.00 in0.0 mm 0.00 in0.0 mm 0.00 in0.0 mm
10:26 AM 3.4°F-15.9°C 1.3°F-17.1°C 91% 7.0 mph E11.3 kmh E -- 29.98 in1015.2 mb 0.00 in0.0 mm 0.00 in0.0 mm 0.00 in0.0 mm
10:27 AM 3.4°F-15.9°C 1.3°F-17.1°C 91% 4.0 mph ENE6.4 kmh ENE -- 29.98 in1015.2 mb 0.00 in0.0 mm 0.00 in0.0 mm 0.00 in0.0 mm
10:28 AM 3.4°F-15.9°C 1.3°F-17.1°C 91% 6.0 mph ESE9.7 kmh ESE -- 29.98 in1015.2 mb 0.00 in0.0 mm 0.00 in0.0 mm 0.00 in0.0 mm
10:29 AM 3.4°F-15.9°C 1.3°F-17.1°C 91% 7.0 mph ENE11.3 kmh ENE -- 29.99 in1015.6 mb 0.00 in0.0 mm 0.00 in0.0 mm 0.00 in0.0 mm
10:30 AM 3.4°F-15.9°C 1.3°F-17.1°C 91% 8.0 mph ENE12.9 kmh ENE -- 29.99 in1015.6 mb 0.00 in0.0 mm 0.00 in0.0 mm 0.00 in0.0 mm
10:31 AM 3.4°F-15.9°C 1.3°F-17.1°C 91% 6.0 mph ESE9.7 kmh ESE -- 29.98 in1015.2 mb 0.00 in0.0 mm 0.00 in0.0 mm 0.00 in0.0 mm
10:32 AM 3.4°F-15.9°C 1.3°F-17.1°C 91% 5.0 mph ESE8.0 kmh ESE -- 29.98 in1015.2 mb 0.00 in0.0 mm 0.00 in0.0 mm 0.00 in0.0 mm
10:33 AM 3.4°F-15.9°C 1.3°F-17.1°C 91% 6.0 mph ESE9.7 kmh ESE -- 29.98 in1015.2 mb 0.00 in0.0 mm 0.00 in0.0 mm 0.00 in0.0 mm
10:34 AM 3.4°F-15.9°C 1.3°F-17.1°C 91% 7.0 mph E11.3 kmh E -- 29.98 in1015.2 mb 0.00 in0.0 mm 0.00 in0.0 mm 0.00 in0.0 mm
10:35 AM 3.4°F-15.9°C 1.3°F-17.1°C 91% 6.0 mph E9.7 kmh E -- 29.98 in1015.2 mb 0.00 in0.0 mm 0.00 in0.0 mm 0.00 in0.0 mm
10:36 AM 3.4°F-15.9°C 1.3°F-17.1°C 91% 4.0 mph E6.4 kmh E -- 29.98 in1015.2 mb 0.00 in0.0 mm 0.00 in0.0 mm 0.00 in0.0 mm
10:37 AM 3.4°F-15.9°C 1.3°F-17.1°C 91% 6.0 mph SSE9.7 kmh SSE -- 29.98 in1015.2 mb 0.00 in0.0 mm 0.00 in0.0 mm 0.00 in0.0 mm
10:38 AM 3.4°F-15.9°C 1.3°F-17.1°C 91% 4.0 mph ENE6.4 kmh ENE -- 29.98 in1015.2 mb 0.00 in0.0 mm 0.00 in0.0 mm 0.00 in0.0 mm
10:39 AM 3.4°F-15.9°C 1.3°F-17.1°C 91% 7.0 mph E11.3 kmh E -- 29.98 in1015.2 mb 0.00 in0.0 mm 0.00 in0.0 mm 0.00 in0.0 mm
10:40 AM 3.4°F-15.9°C 1.3°F-17.1°C 91% 4.0 mph ESE6.4 kmh ESE -- 29.98 in1015.2 mb 0.00 in0.0 mm 0.00 in0.0 mm 0.00 in0.0 mm
10:41 AM 3.5°F-15.8°C 1.5°F-16.9°C 91% 4.0 mph E6.4 kmh E -- 29.98 in1015.2 mb 0.00 in0.0 mm 0.00 in0.0 mm 0.00 in0.0 mm
10:42 AM 3.5°F-15.8°C 1.5°F-16.9°C 91% 7.0 mph ESE11.3 kmh ESE -- 29.99 in1015.6 mb 0.00 in0.0 mm 0.00 in0.0 mm 0.00 in0.0 mm
10:43 AM 3.5°F-15.8°C 1.5°F-16.9°C 91% 6.0 mph ESE9.7 kmh ESE -- 29.98 in1015.2 mb 0.00 in0.0 mm 0.00 in0.0 mm 0.00 in0.0 mm
10:44 AM 3.5°F-15.8°C 1.5°F-16.9°C 91% 4.0 mph ESE6.4 kmh ESE -- 29.98 in1015.2 mb 0.00 in0.0 mm 0.00 in0.0 mm 0.00 in0.0 mm
10:45 AM 3.7°F-15.7°C 1.7°F-16.8°C 91% 5.0 mph ESE8.0 kmh ESE -- 29.98 in1015.2 mb 0.00 in0.0 mm 0.00 in0.0 mm 0.00 in0.0 mm
10:46 AM 3.7°F-15.7°C 1.7°F-16.8°C 91% 4.0 mph E6.4 kmh E -- 29.98 in1015.2 mb 0.00 in0.0 mm 0.00 in0.0 mm 0.00 in0.0 mm
10:47 AM 3.7°F-15.7°C 1.7°F-16.8°C 91% 3.0 mph NE4.8 kmh NE -- 29.98 in1015.2 mb 0.00 in0.0 mm 0.00 in0.0 mm 0.00 in0.0 mm
10:48 AM 3.7°F-15.7°C 1.7°F-16.8°C 91% 3.0 mph SE4.8 kmh SE -- 29.98 in1015.2 mb 0.00 in0.0 mm 0.00 in0.0 mm 0.00 in0.0 mm
10:49 AM 3.9°F-15.6°C 1.9°F-16.7°C 91% 5.0 mph ESE8.0 kmh ESE -- 29.98 in1015.2 mb 0.00 in0.0 mm 0.00 in0.0 mm 0.00 in0.0 mm
10:50 AM 3.9°F-15.6°C 1.9°F-16.7°C 91% 5.0 mph ENE8.0 kmh ENE -- 29.98 in1015.2 mb 0.00 in0.0 mm 0.00 in0.0 mm 0.00 in0.0 mm
10:51 AM 3.9°F-15.6°C 1.9°F-16.7°C 91% 6.0 mph ESE9.7 kmh ESE -- 29.98 in1015.2 mb 0.00 in0.0 mm 0.00 in0.0 mm 0.00 in0.0 mm
10:52 AM 3.9°F-15.6°C 1.9°F-16.7°C 91% 3.0 mph ESE4.8 kmh ESE -- 29.98 in1015.2 mb 0.00 in0.0 mm 0.00 in0.0 mm 0.00 in0.0 mm
10:53 AM 3.9°F-15.6°C 1.9°F-16.7°C 91% 4.0 mph ESE6.4 kmh ESE -- 29.98 in1015.2 mb 0.00 in0.0 mm 0.00 in0.0 mm 0.00 in0.0 mm
10:54 AM 3.9°F-15.6°C 1.9°F-16.7°C 91% 6.0 mph ESE9.7 kmh ESE -- 29.98 in1015.2 mb 0.00 in0.0 mm 0.00 in0.0 mm 0.00 in0.0 mm
10:56 AM 3.9°F-15.6°C 1.9°F-16.7°C 91% 4.0 mph ESE6.4 kmh ESE -- 29.98 in1015.2 mb 0.00 in0.0 mm 0.00 in0.0 mm 0.00 in0.0 mm
10:57 AM 3.9°F-15.6°C 1.9°F-16.7°C 91% 3.0 mph ESE4.8 kmh ESE -- 29.98 in1015.2 mb 0.00 in0.0 mm 0.00 in0.0 mm 0.00 in0.0 mm
10:58 AM 4.0°F-15.6°C 1.9°F-16.7°C 91% 3.0 mph E4.8 kmh E -- 29.98 in1015.2 mb 0.00 in0.0 mm 0.00 in0.0 mm 0.00 in0.0 mm
10:59 AM 4.0°F-15.6°C 1.9°F-16.7°C 91% 5.0 mph E8.0 kmh E -- 29.98 in1015.2 mb 0.00 in0.0 mm 0.00 in0.0 mm 0.00 in0.0 mm
11:00 AM 4.0°F-15.6°C 1.9°F-16.7°C 91% 6.0 mph E9.7 kmh E -- 29.98 in1015.2 mb 0.00 in0.0 mm 0.00 in0.0 mm 0.00 in0.0 mm
11:01 AM 4.0°F-15.6°C 1.9°F-16.7°C 91% 5.0 mph ESE8.0 kmh ESE -- 29.98 in1015.2 mb 0.00 in0.0 mm 0.00 in0.0 mm 0.00 in0.0 mm
11:02 AM 4.0°F-15.6°C 1.9°F-16.7°C 91% 7.0 mph E11.3 kmh E -- 29.98 in1015.2 mb 0.00 in0.0 mm 0.00 in0.0 mm 0.00 in0.0 mm
11:03 AM 4.0°F-15.6°C 1.9°F-16.7°C 91% 5.0 mph NNE8.0 kmh NNE -- 29.98 in1015.2 mb 0.00 in0.0 mm 0.00 in0.0 mm 0.00 in0.0 mm
11:04 AM 4.0°F-15.6°C 1.9°F-16.7°C 91% 6.0 mph ENE9.7 kmh ENE -- 29.98 in1015.2 mb 0.00 in0.0 mm 0.00 in0.0 mm 0.00 in0.0 mm
11:05 AM 4.0°F-15.6°C 1.9°F-16.7°C 91% 10.0 mph SE16.1 kmh SE -- 29.98 in1015.2 mb 0.00 in0.0 mm 0.00 in0.0 mm 0.00 in0.0 mm
11:06 AM 4.0°F-15.6°C 1.9°F-16.7°C 91% 8.0 mph ESE12.9 kmh ESE -- 29.98 in1015.2 mb 0.00 in0.0 mm 0.00 in0.0 mm 0.00 in0.0 mm
11:07 AM 4.0°F-15.6°C 1.9°F-16.7°C 91% 5.0 mph SSE8.0 kmh SSE -- 29.98 in1015.2 mb 0.00 in0.0 mm 0.00 in0.0 mm 0.00 in0.0 mm
11:08 AM 4.0°F-15.6°C 1.9°F-16.7°C 91% 5.0 mph ESE8.0 kmh ESE -- 29.98 in1015.2 mb 0.00 in0.0 mm 0.00 in0.0 mm 0.00 in0.0 mm
11:09 AM 4.0°F-15.6°C 1.9°F-16.7°C 91% 6.0 mph ESE9.7 kmh ESE -- 29.98 in1015.2 mb 0.00 in0.0 mm 0.00 in0.0 mm 0.00 in0.0 mm
11:10 AM 4.0°F-15.6°C 1.9°F-16.7°C 91% 4.0 mph SSE6.4 kmh SSE -- 29.98 in1015.2 mb 0.00 in0.0 mm 0.00 in0.0 mm 0.00 in0.0 mm
11:11 AM 4.3°F-15.4°C 2.2°F-16.6°C 91% 4.0 mph E6.4 kmh E -- 29.98 in1015.2 mb 0.00 in0.0 mm 0.00 in0.0 mm 0.00 in0.0 mm
11:12 AM 4.3°F-15.4°C 2.2°F-16.6°C 91% 6.0 mph E9.7 kmh E -- 29.98 in1015.2 mb 0.00 in0.0 mm 0.00 in0.0 mm 0.00 in0.0 mm
11:13 AM 4.3°F-15.4°C 2.2°F-16.6°C 91% 4.0 mph ESE6.4 kmh ESE -- 29.98 in1015.2 mb 0.00 in0.0 mm 0.00 in0.0 mm 0.00 in0.0 mm
11:14 AM 4.5°F-15.3°C 2.4°F-16.4°C 91% 3.0 mph E4.8 kmh E -- 29.98 in1015.2 mb 0.00 in0.0 mm 0.00 in0.0 mm 0.00 in0.0 mm
11:15 AM 4.5°F-15.3°C 2.4°F-16.4°C 91% 4.0 mph ESE6.4 kmh ESE -- 29.98 in1015.2 mb 0.00 in0.0 mm 0.00 in0.0 mm 0.00 in0.0 mm
11:16 AM 4.5°F-15.3°C 2.4°F-16.4°C 91% 6.0 mph ESE9.7 kmh ESE -- 29.98 in1015.2 mb 0.00 in0.0 mm 0.00 in0.0 mm 0.00 in0.0 mm
11:17 AM 4.5°F-15.3°C 2.4°F-16.4°C 91% 3.0 mph ESE4.8 kmh ESE -- 29.98 in1015.2 mb 0.00 in0.0 mm 0.00 in0.0 mm 0.00 in0.0 mm
11:18 AM 4.5°F-15.3°C 2.4°F-16.4°C 91% 7.0 mph ESE11.3 kmh ESE -- 29.98 in1015.2 mb 0.00 in0.0 mm 0.00 in0.0 mm 0.00 in0.0 mm
11:20 AM 4.5°F-15.3°C 2.4°F-16.4°C 91% 4.0 mph ESE6.4 kmh ESE -- 29.98 in1015.2 mb 0.00 in0.0 mm 0.00 in0.0 mm 0.00 in0.0 mm
11:21 AM 4.5°F-15.3°C 2.4°F-16.4°C 91% 6.0 mph ESE9.7 kmh ESE -- 29.98 in1015.2 mb 0.00 in0.0 mm 0.00 in0.0 mm 0.00 in0.0 mm
11:22 AM 4.8°F-15.1°C 2.7°F-16.3°C 91% 6.0 mph E9.7 kmh E -- 29.98 in1015.2 mb 0.00 in0.0 mm 0.00 in0.0 mm 0.00 in0.0 mm
11:23 AM 4.8°F-15.1°C 2.7°F-16.3°C 91% 4.0 mph SE6.4 kmh SE -- 29.98 in1015.2 mb 0.00 in0.0 mm 0.00 in0.0 mm 0.00 in0.0 mm
11:24 AM 4.8°F-15.1°C 2.5°F-16.4°C 90% 5.0 mph SSW8.0 kmh SSW -- 29.98 in1015.2 mb 0.00 in0.0 mm 0.00 in0.0 mm 0.00 in0.0 mm
11:25 AM 4.8°F-15.1°C 2.5°F-16.4°C 90% 6.0 mph SSW9.7 kmh SSW -- 29.98 in1015.2 mb 0.00 in0.0 mm 0.00 in0.0 mm 0.00 in0.0 mm
11:26 AM 4.8°F-15.1°C 2.5°F-16.4°C 90% 7.0 mph ESE11.3 kmh ESE -- 29.98 in1015.2 mb 0.00 in0.0 mm 0.00 in0.0 mm 0.00 in0.0 mm
11:27 AM 4.8°F-15.1°C 2.5°F-16.4°C 90% 6.0 mph ESE9.7 kmh ESE -- 29.98 in1015.2 mb 0.00 in0.0 mm 0.00 in0.0 mm 0.00 in0.0 mm
11:29 AM 4.8°F-15.1°C 2.5°F-16.4°C 90% 5.0 mph ESE8.0 kmh ESE -- 29.98 in1015.2 mb 0.00 in0.0 mm 0.00 in0.0 mm 0.00 in0.0 mm
11:30 AM 5.0°F-15.0°C 2.7°F-16.3°C 90% 6.0 mph SE9.7 kmh SE -- 29.98 in1015.2 mb 0.00 in0.0 mm 0.00 in0.0 mm 0.00 in0.0 mm
11:31 AM 5.0°F-15.0°C 2.7°F-16.3°C 90% 7.0 mph SE11.3 kmh SE -- 29.98 in1015.2 mb 0.00 in0.0 mm 0.00 in0.0 mm 0.00 in0.0 mm
11:32 AM 5.0°F-15.0°C 2.7°F-16.3°C 90% 4.0 mph ESE6.4 kmh ESE -- 29.98 in1015.2 mb 0.00 in0.0 mm 0.00 in0.0 mm 0.00 in0.0 mm
11:33 AM 5.0°F-15.0°C 2.2°F-16.6°C 88% 5.0 mph ENE8.0 kmh ENE -- 29.97 in1014.9 mb 0.00 in0.0 mm 0.00 in0.0 mm 0.00 in0.0 mm
11:34 AM 5.0°F-15.0°C 2.2°F-16.6°C 88% 7.0 mph ESE11.3 kmh ESE -- 29.97 in1014.9 mb 0.00 in0.0 mm 0.00 in0.0 mm 0.00 in0.0 mm
11:35 AM 5.0°F-15.0°C 2.2°F-16.6°C 88% 6.0 mph ESE9.7 kmh ESE -- 29.98 in1015.2 mb 0.00 in0.0 mm 0.00 in0.0 mm 0.00 in0.0 mm
11:36 AM 5.0°F-15.0°C 2.2°F-16.6°C 88% 9.0 mph E14.5 kmh E -- 29.98 in1015.2 mb 0.00 in0.0 mm 0.00 in0.0 mm 0.00 in0.0 mm
11:37 AM 5.0°F-15.0°C 2.2°F-16.6°C 88% 6.0 mph ESE9.7 kmh ESE -- 29.98 in1015.2 mb 0.00 in0.0 mm 0.00 in0.0 mm 0.00 in0.0 mm
11:38 AM 5.0°F-15.0°C 2.2°F-16.6°C 88% 9.0 mph ESE14.5 kmh ESE -- 29.98 in1015.2 mb 0.00 in0.0 mm 0.00 in0.0 mm 0.00 in0.0 mm
11:39 AM 5.0°F-15.0°C 2.2°F-16.6°C 88% 7.0 mph SE11.3 kmh SE -- 29.98 in1015.2 mb 0.00 in0.0 mm 0.00 in0.0 mm 0.00 in0.0 mm
11:40 AM 5.0°F-15.0°C 2.2°F-16.6°C 88% 7.0 mph ESE11.3 kmh ESE -- 29.98 in1015.2 mb 0.00 in0.0 mm 0.00 in0.0 mm 0.00 in0.0 mm
11:41 AM 4.8°F-15.1°C 2.0°F-16.7°C 88% 6.0 mph ENE9.7 kmh ENE -- 29.98 in1015.2 mb 0.00 in0.0 mm 0.00 in0.0 mm 0.00 in0.0 mm
11:42 AM 4.8°F-15.1°C 2.0°F-16.7°C 88% 5.0 mph E8.0 kmh E -- 29.98 in1015.2 mb 0.00 in0.0 mm 0.00 in0.0 mm 0.00 in0.0 mm
11:43 AM 4.8°F-15.1°C 2.0°F-16.7°C 88% 6.0 mph SE9.7 kmh SE -- 29.98 in1015.2 mb 0.00 in0.0 mm 0.00 in0.0 mm 0.00 in0.0 mm
11:44 AM 4.8°F-15.1°C 2.0°F-16.7°C 88% 7.0 mph ESE11.3 kmh ESE -- 29.98 in1015.2 mb 0.00 in0.0 mm 0.00 in0.0 mm 0.00 in0.0 mm
11:45 AM 4.8°F-15.1°C 2.0°F-16.7°C 88% 9.0 mph SE14.5 kmh SE -- 29.98 in1015.2 mb 0.00 in0.0 mm 0.00 in0.0 mm 0.00 in0.0 mm
11:46 AM 4.5°F-15.3°C 1.7°F-16.8°C 88% 7.0 mph ESE11.3 kmh ESE -- 29.98 in1015.2 mb 0.00 in0.0 mm 0.00 in0.0 mm 0.00 in0.0 mm
11:47 AM 4.5°F-15.3°C 1.7°F-16.8°C 88% 8.0 mph ESE12.9 kmh ESE -- 29.98 in1015.2 mb 0.00 in0.0 mm 0.00 in0.0 mm 0.00 in0.0 mm
11:48 AM 4.5°F-15.3°C 2.4°F-16.4°C 91% 8.0 mph ESE12.9 kmh ESE -- 29.97 in1014.9 mb 0.00 in0.0 mm 0.00 in0.0 mm 0.00 in0.0 mm
11:49 AM 4.5°F-15.3°C 2.4°F-16.4°C 91% 6.0 mph ESE9.7 kmh ESE -- 29.98 in1015.2 mb 0.00 in0.0 mm 0.00 in0.0 mm 0.00 in0.0 mm
11:50 AM 4.5°F-15.3°C 2.4°F-16.4°C 91% 7.0 mph ESE11.3 kmh ESE -- 29.98 in1015.2 mb 0.00 in0.0 mm 0.00 in0.0 mm 0.00 in0.0 mm
11:51 AM 4.5°F-15.3°C 2.4°F-16.4°C 91% 6.0 mph ESE9.7 kmh ESE -- 29.98 in1015.2 mb 0.00 in0.0 mm 0.00 in0.0 mm 0.00 in0.0 mm
11:52 AM 4.5°F-15.3°C 2.4°F-16.4°C 91% 9.0 mph ESE14.5 kmh ESE -- 29.98 in1015.2 mb 0.00 in0.0 mm 0.00 in0.0 mm 0.00 in0.0 mm
11:53 AM 4.5°F-15.3°C 2.4°F-16.4°C 91% 6.0 mph ESE9.7 kmh ESE -- 29.98 in1015.2 mb 0.00 in0.0 mm 0.00 in0.0 mm 0.00 in0.0 mm
11:55 AM 4.5°F-15.3°C 2.4°F-16.4°C 91% 6.0 mph ESE9.7 kmh ESE -- 29.97 in1014.9 mb 0.00 in0.0 mm 0.00 in0.0 mm 0.00 in0.0 mm
11:56 AM 4.5°F-15.3°C 2.4°F-16.4°C 91% 8.0 mph ESE12.9 kmh ESE -- 29.97 in1014.9 mb 0.00 in0.0 mm 0.00 in0.0 mm 0.00 in0.0 mm
11:57 AM 4.5°F-15.3°C 2.4°F-16.4°C 91% 7.0 mph SSE11.3 kmh SSE -- 29.97 in1014.9 mb 0.00 in0.0 mm 0.00 in0.0 mm 0.00 in0.0 mm
11:58 AM 4.8°F-15.1°C 2.7°F-16.3°C 91% 6.0 mph ESE9.7 kmh ESE -- 29.97 in1014.9 mb 0.00 in0.0 mm 0.00 in0.0 mm 0.00 in0.0 mm
11:59 AM 4.8°F-15.1°C 2.5°F-16.4°C 90% 6.0 mph ESE9.7 kmh ESE -- 29.97 in1014.9 mb 0.00 in0.0 mm 0.00 in0.0 mm 0.00 in0.0 mm
12:00 PM 4.8°F-15.1°C 2.5°F-16.4°C 90% 2.0 mph ESE3.2 kmh ESE -- 29.97 in1014.9 mb 0.00 in0.0 mm 0.00 in0.0 mm 0.00 in0.0 mm
12:01 PM 4.8°F-15.1°C 2.5°F-16.4°C 90% 5.0 mph ESE8.0 kmh ESE -- 29.97 in1014.9 mb 0.00 in0.0 mm 0.00 in0.0 mm 0.00 in0.0 mm
12:02 PM 4.8°F-15.1°C 2.5°F-16.4°C 90% 8.0 mph ESE12.9 kmh ESE -- 29.97 in1014.9 mb 0.00 in0.0 mm 0.00 in0.0 mm 0.00 in0.0 mm
12:04 PM 4.8°F-15.1°C 2.5°F-16.4°C 90% 8.0 mph S12.9 kmh S -- 29.97 in1014.9 mb 0.00 in0.0 mm 0.00 in0.0 mm 0.00 in0.0 mm
12:05 PM 4.8°F-15.1°C 2.5°F-16.4°C 90% 7.0 mph ESE11.3 kmh ESE -- 29.97 in1014.9 mb 0.00 in0.0 mm 0.00 in0.0 mm 0.00 in0.0 mm
12:07 PM 4.8°F-15.1°C 2.5°F-16.4°C 90% 4.0 mph SE6.4 kmh SE -- 29.97 in1014.9 mb 0.00 in0.0 mm 0.00 in0.0 mm 0.00 in0.0 mm
12:08 PM 5.0°F-15.0°C 2.9°F-16.2°C 91% 6.0 mph ESE9.7 kmh ESE -- 29.97 in1014.9 mb 0.00 in0.0 mm 0.00 in0.0 mm 0.00 in0.0 mm
12:09 PM 5.0°F-15.0°C 2.9°F-16.2°C 91% 7.0 mph E11.3 kmh E -- 29.97 in1014.9 mb 0.00 in0.0 mm 0.00 in0.0 mm 0.00 in0.0 mm
12:10 PM 5.0°F-15.0°C 2.9°F-16.2°C 91% 5.0 mph ESE8.0 kmh ESE -- 29.97 in1014.9 mb 0.00 in0.0 mm 0.00 in0.0 mm 0.00 in0.0 mm
12:11 PM 5.0°F-15.0°C 2.9°F-16.2°C 91% 7.0 mph ESE11.3 kmh ESE -- 29.97 in1014.9 mb 0.00 in0.0 mm 0.00 in0.0 mm 0.00 in0.0 mm
12:12 PM 5.1°F-14.9°C 3.1°F-16.1°C 91% 8.0 mph E12.9 kmh E -- 29.97 in1014.9 mb 0.00 in0.0 mm 0.00 in0.0 mm 0.00 in0.0 mm
12:13 PM 5.1°F-14.9°C 2.9°F-16.2°C 90% 10.0 mph ESE16.1 kmh ESE -- 29.97 in1014.9 mb 0.00 in0.0 mm 0.00 in0.0 mm 0.00 in0.0 mm
12:14 PM 5.1°F-14.9°C 2.9°F-16.2°C 90% 5.0 mph E8.0 kmh E -- 29.97 in1014.9 mb 0.00 in0.0 mm 0.00 in0.0 mm 0.00 in0.0 mm
12:15 PM 5.4°F-14.8°C 3.0°F-16.1°C 90% 7.0 mph ENE11.3 kmh ENE -- 29.97 in1014.9 mb 0.00 in0.0 mm 0.00 in0.0 mm 0.00 in0.0 mm
12:16 PM 5.4°F-14.8°C 3.0°F-16.1°C 90% 9.0 mph ESE14.5 kmh ESE -- 29.97 in1014.9 mb 0.00 in0.0 mm 0.00 in0.0 mm 0.00 in0.0 mm
12:17 PM 5.4°F-14.8°C 3.0°F-16.1°C 90% 8.0 mph E12.9 kmh E -- 29.97 in1014.9 mb 0.00 in0.0 mm 0.00 in0.0 mm 0.00 in0.0 mm
12:18 PM 5.4°F-14.8°C 3.0°F-16.1°C 90% 6.0 mph ESE9.7 kmh ESE -- 29.97 in1014.9 mb 0.00 in0.0 mm 0.00 in0.0 mm 0.00 in0.0 mm
12:19 PM 5.4°F-14.8°C 3.0°F-16.1°C 90% 7.0 mph ENE11.3 kmh ENE -- 29.97 in1014.9 mb 0.00 in0.0 mm 0.00 in0.0 mm 0.00 in0.0 mm
12:20 PM 5.5°F-14.7°C 3.2°F-16.0°C 90% 3.0 mph SSE4.8 kmh SSE -- 29.97 in1014.9 mb 0.00 in0.0 mm 0.00 in0.0 mm 0.00 in0.0 mm
12:21 PM 5.6°F-14.7°C 3.2°F-16.0°C 90% 7.0 mph E11.3 kmh E -- 29.97 in1014.9 mb 0.00 in0.0 mm 0.00 in0.0 mm 0.00 in0.0 mm
12:22 PM 5.7°F-14.6°C 3.4°F-15.9°C 90% 5.0 mph E8.0 kmh E -- 29.97 in1014.9 mb 0.00 in0.0 mm 0.00 in0.0 mm 0.00 in0.0 mm
12:23 PM 5.9°F-14.5°C 3.1°F-16.1°C 88% 3.0 mph SE4.8 kmh SE -- 29.97 in1014.9 mb 0.00 in0.0 mm 0.00 in0.0 mm 0.00 in0.0 mm
12:24 PM 5.9°F-14.5°C 3.1°F-16.1°C 88% 5.0 mph SE8.0 kmh SE -- 29.97 in1014.9 mb 0.00 in0.0 mm 0.00 in0.0 mm 0.00 in0.0 mm
12:25 PM 5.9°F-14.5°C 3.1°F-16.1°C 88% 6.0 mph ESE9.7 kmh ESE -- 29.97 in1014.9 mb 0.00 in0.0 mm 0.00 in0.0 mm 0.00 in0.0 mm
12:26 PM 5.9°F-14.5°C 3.1°F-16.1°C 88% 6.0 mph ESE9.7 kmh ESE -- 29.98 in1015.2 mb 0.00 in0.0 mm 0.00 in0.0 mm 0.00 in0.0 mm
12:27 PM 5.9°F-14.5°C 3.1°F-16.1°C 88% 4.0 mph ESE6.4 kmh ESE -- 29.97 in1014.9 mb 0.00 in0.0 mm 0.00 in0.0 mm 0.00 in0.0 mm
12:28 PM 6.1°F-14.4°C 3.3°F-15.9°C 88% 6.0 mph ESE9.7 kmh ESE -- 29.97 in1014.9 mb 0.00 in0.0 mm 0.00 in0.0 mm 0.00 in0.0 mm
12:29 PM 6.1°F-14.4°C 3.3°F-15.9°C 88% 7.0 mph E11.3 kmh E -- 29.97 in1014.9 mb 0.00 in0.0 mm 0.00 in0.0 mm 0.00 in0.0 mm
12:30 PM 6.1°F-14.4°C 3.3°F-15.9°C 88% 6.0 mph SE9.7 kmh SE -- 29.98 in1015.2 mb 0.00 in0.0 mm 0.00 in0.0 mm 0.00 in0.0 mm
12:31 PM 6.3°F-14.3°C 3.4°F-15.9°C 88% 8.0 mph ESE12.9 kmh ESE -- 29.97 in1014.9 mb 0.00 in0.0 mm 0.00 in0.0 mm 0.00 in0.0 mm
12:32 PM 6.3°F-14.3°C 3.4°F-15.9°C 88% 6.0 mph SE9.7 kmh SE -- 29.97 in1014.9 mb 0.00 in0.0 mm 0.00 in0.0 mm 0.00 in0.0 mm
12:33 PM 6.3°F-14.3°C 3.4°F-15.9°C 88% 5.0 mph ESE8.0 kmh ESE -- 29.97 in1014.9 mb 0.00 in0.0 mm 0.00 in0.0 mm 0.00 in0.0 mm
12:34 PM 6.3°F-14.3°C 3.4°F-15.9°C 88% 7.0 mph SE11.3 kmh SE -- 29.97 in1014.9 mb 0.00 in0.0 mm 0.00 in0.0 mm 0.00 in0.0 mm
12:36 PM 6.3°F-14.3°C 3.4°F-15.9°C 88% 4.0 mph SE6.4 kmh SE -- 29.97 in1014.9 mb 0.00 in0.0 mm 0.00 in0.0 mm 0.00 in0.0 mm
12:37 PM 6.3°F-14.3°C 3.4°F-15.9°C 88% 7.0 mph SSE11.3 kmh SSE -- 29.97 in1014.9 mb 0.00 in0.0 mm 0.00 in0.0 mm 0.00 in0.0 mm
12:38 PM 6.3°F-14.3°C 3.4°F-15.9°C 88% 8.0 mph ESE12.9 kmh ESE -- 29.97 in1014.9 mb 0.00 in0.0 mm 0.00 in0.0 mm 0.00 in0.0 mm
12:39 PM 6.3°F-14.3°C 3.4°F-15.9°C 88% 6.0 mph SE9.7 kmh SE -- 29.97 in1014.9 mb 0.00 in0.0 mm 0.00 in0.0 mm 0.00 in0.0 mm
12:40 PM 6.3°F-14.3°C 3.4°F-15.9°C 88% 6.0 mph ESE9.7 kmh ESE -- 29.97 in1014.9 mb 0.00 in0.0 mm 0.00 in0.0 mm 0.00 in0.0 mm
12:41 PM 6.3°F-14.3°C 3.4°F-15.9°C 88% 4.0 mph ESE6.4 kmh ESE -- 29.97 in1014.9 mb 0.00 in0.0 mm 0.00 in0.0 mm 0.00 in0.0 mm
12:42 PM 6.3°F-14.3°C 3.4°F-15.9°C 88% 3.0 mph ESE4.8 kmh ESE -- 29.97 in1014.9 mb 0.00 in0.0 mm 0.00 in0.0 mm 0.00 in0.0 mm
12:43 PM 6.3°F-14.3°C 3.4°F-15.9°C 88% 7.0 mph ESE11.3 kmh ESE -- 29.97 in1014.9 mb 0.00 in0.0 mm 0.00 in0.0 mm 0.00 in0.0 mm
12:44 PM 6.3°F-14.3°C 3.4°F-15.9°C 88% 5.0 mph ESE8.0 kmh ESE -- 29.97 in1014.9 mb 0.00 in0.0 mm 0.00 in0.0 mm 0.00 in0.0 mm
12:45 PM 6.3°F-14.3°C 3.4°F-15.9°C 88% 3.0 mph ESE4.8 kmh ESE -- 29.97 in1014.9 mb 0.00 in0.0 mm 0.00 in0.0 mm 0.00 in0.0 mm
12:46 PM 6.3°F-14.3°C 3.4°F-15.9°C 88% 7.0 mph ESE11.3 kmh ESE -- 29.97 in1014.9 mb 0.00 in0.0 mm 0.00 in0.0 mm 0.00 in0.0 mm
12:47 PM 6.3°F-14.3°C 3.4°F-15.9°C 88% 4.0 mph SSE6.4 kmh SSE -- 29.97 in1014.9 mb 0.00 in0.0 mm 0.00 in0.0 mm 0.00 in0.0 mm
12:48 PM 6.3°F-14.3°C 3.4°F-15.9°C 88% 8.0 mph ESE12.9 kmh ESE -- 29.96 in1014.6 mb 0.00 in0.0 mm 0.00 in0.0 mm 0.00 in0.0 mm
12:49 PM 6.3°F-14.3°C 3.4°F-15.9°C 88% 9.0 mph ESE14.5 kmh ESE -- 29.96 in1014.6 mb 0.00 in0.0 mm 0.00 in0.0 mm 0.00 in0.0 mm
12:50 PM 6.3°F-14.3°C 3.4°F-15.9°C 88% 4.0 mph SE6.4 kmh SE -- 29.96 in1014.6 mb 0.00 in0.0 mm 0.00 in0.0 mm 0.00 in0.0 mm
12:51 PM 6.3°F-14.3°C 3.4°F-15.9°C 88% 5.0 mph ESE8.0 kmh ESE -- 29.96 in1014.6 mb 0.00 in0.0 mm 0.00 in0.0 mm 0.00 in0.0 mm
12:52 PM 6.3°F-14.3°C 3.4°F-15.9°C 88% 4.0 mph ESE6.4 kmh ESE -- 29.97 in1014.9 mb 0.00 in0.0 mm 0.00 in0.0 mm 0.00 in0.0 mm
12:53 PM 6.3°F-14.3°C 3.4°F-15.9°C 88% 4.0 mph SE6.4 kmh SE -- 29.97 in1014.9 mb 0.00 in0.0 mm 0.00 in0.0 mm 0.00 in0.0 mm
12:54 PM 6.3°F-14.3°C 3.4°F-15.9°C 88% 3.0 mph ESE4.8 kmh ESE -- 29.96 in1014.6 mb 0.00 in0.0 mm 0.00 in0.0 mm 0.00 in0.0 mm
12:56 PM 6.3°F-14.3°C 3.9°F-15.6°C 90% 8.0 mph ESE12.9 kmh ESE -- 29.97 in1014.9 mb 0.00 in0.0 mm 0.00 in0.0 mm 0.00 in0.0 mm
12:57 PM 6.3°F-14.3°C 3.4°F-15.9°C 88% 8.0 mph ESE12.9 kmh ESE -- 29.97 in1014.9 mb 0.00 in0.0 mm 0.00 in0.0 mm 0.00 in0.0 mm
12:58 PM 6.3°F-14.3°C 3.4°F-15.9°C 88% 6.0 mph ESE9.7 kmh ESE -- 29.96 in1014.6 mb 0.00 in0.0 mm 0.00 in0.0 mm 0.00 in0.0 mm
12:59 PM 6.3°F-14.3°C 3.4°F-15.9°C 88% 9.0 mph ESE14.5 kmh ESE -- 29.96 in1014.6 mb 0.00 in0.0 mm 0.00 in0.0 mm 0.00 in0.0 mm
01:00 PM 6.3°F-14.3°C 3.4°F-15.9°C 88% 5.0 mph ESE8.0 kmh ESE -- 29.96 in1014.6 mb 0.00 in0.0 mm 0.00 in0.0 mm 0.00 in0.0 mm
01:01 PM 6.3°F-14.3°C 3.4°F-15.9°C 88% 4.0 mph SSE6.4 kmh SSE -- 29.96 in1014.6 mb 0.00 in0.0 mm 0.00 in0.0 mm 0.00 in0.0 mm
01:02 PM 6.5°F-14.2°C 3.6°F-15.8°C 88% 3.0 mph ESE4.8 kmh ESE -- 29.96 in1014.6 mb 0.00 in0.0 mm 0.00 in0.0 mm 0.00 in0.0 mm
01:03 PM 6.5°F-14.2°C 3.6°F-15.8°C 88% 10.0 mph ESE16.1 kmh ESE -- 29.96 in1014.6 mb 0.00 in0.0 mm 0.00 in0.0 mm 0.00 in0.0 mm
01:04 PM 6.5°F-14.2°C 3.6°F-15.8°C 88% 7.0 mph ESE11.3 kmh ESE -- 29.96 in1014.6 mb 0.00 in0.0 mm 0.00 in0.0 mm 0.00 in0.0 mm
01:05 PM 6.5°F-14.2°C 3.6°F-15.8°C 88% 4.0 mph SSE6.4 kmh SSE -- 29.96 in1014.6 mb 0.00 in0.0 mm 0.00 in0.0 mm 0.00 in0.0 mm
01:06 PM 6.5°F-14.2°C 3.6°F-15.8°C 88% 7.0 mph SSE11.3 kmh SSE -- 29.96 in1014.6 mb 0.00 in0.0 mm 0.00 in0.0 mm 0.00 in0.0 mm
01:07 PM 6.5°F-14.2°C 3.6°F-15.8°C 88% 8.0 mph ESE12.9 kmh ESE -- 29.96 in1014.6 mb 0.00 in0.0 mm 0.00 in0.0 mm 0.00 in0.0 mm
01:08 PM 6.3°F-14.3°C 3.4°F-15.9°C 88% 10.0 mph ESE16.1 kmh ESE -- 29.96 in1014.6 mb 0.00 in0.0 mm 0.00 in0.0 mm 0.00 in0.0 mm
01:09 PM 6.3°F-14.3°C 3.4°F-15.9°C 88% 10.0 mph SE16.1 kmh SE -- 29.96 in1014.6 mb 0.00 in0.0 mm 0.00 in0.0 mm 0.00 in0.0 mm
01:10 PM 6.3°F-14.3°C 3.4°F-15.9°C 88% 8.0 mph ESE12.9 kmh ESE -- 29.96 in1014.6 mb 0.00 in0.0 mm 0.00 in0.0 mm 0.00 in0.0 mm
01:11 PM 6.3°F-14.3°C 3.4°F-15.9°C 88% 6.0 mph SSE9.7 kmh SSE -- 29.96 in1014.6 mb 0.00 in0.0 mm 0.00 in0.0 mm 0.00 in0.0 mm
01:12 PM 6.3°F-14.3°C 3.4°F-15.9°C 88% 5.0 mph ESE8.0 kmh ESE -- 29.96 in1014.6 mb 0.00 in0.0 mm 0.00 in0.0 mm 0.00 in0.0 mm
01:13 PM 6.3°F-14.3°C 3.4°F-15.9°C 88% 7.0 mph SE11.3 kmh SE -- 29.96 in1014.6 mb 0.00 in0.0 mm 0.00 in0.0 mm 0.00 in0.0 mm
01:14 PM 6.3°F-14.3°C 3.4°F-15.9°C 88% 8.0 mph E12.9 kmh E -- 29.96 in1014.6 mb 0.00 in0.0 mm 0.00 in0.0 mm 0.00 in0.0 mm
01:15 PM 6.3°F-14.3°C 3.4°F-15.9°C 88% 10.0 mph ESE16.1 kmh ESE -- 29.96 in1014.6 mb 0.00 in0.0 mm 0.00 in0.0 mm 0.00 in0.0 mm
01:16 PM 6.3°F-14.3°C 3.4°F-15.9°C 88% 7.0 mph ESE11.3 kmh ESE -- 29.96 in1014.6 mb 0.00 in0.0 mm 0.00 in0.0 mm 0.00 in0.0 mm
01:17 PM 6.3°F-14.3°C 3.4°F-15.9°C 88% 9.0 mph ESE14.5 kmh ESE -- 29.96 in1014.6 mb 0.00 in0.0 mm 0.00 in0.0 mm 0.00 in0.0 mm
01:18 PM 6.3°F-14.3°C 3.4°F-15.9°C 88% 6.0 mph ESE9.7 kmh ESE -- 29.95 in1014.2 mb 0.00 in0.0 mm 0.00 in0.0 mm 0.00 in0.0 mm
01:19 PM 6.3°F-14.3°C 3.4°F-15.9°C 88% 4.0 mph SSE6.4 kmh SSE -- 29.95 in1014.2 mb 0.00 in0.0 mm 0.00 in0.0 mm 0.00 in0.0 mm
01:20 PM 6.5°F-14.2°C 3.6°F-15.8°C 88% 5.0 mph SSE8.0 kmh SSE -- 29.95 in1014.2 mb 0.00 in0.0 mm 0.00 in0.0 mm 0.00 in0.0 mm
01:21 PM 6.5°F-14.2°C 3.6°F-15.8°C 88% 6.0 mph ESE9.7 kmh ESE -- 29.95 in1014.2 mb 0.00 in0.0 mm 0.00 in0.0 mm 0.00 in0.0 mm
01:22 PM 6.5°F-14.2°C 3.6°F-15.8°C 88% 8.0 mph ESE12.9 kmh ESE -- 29.95 in1014.2 mb 0.00 in0.0 mm 0.00 in0.0 mm 0.00 in0.0 mm
01:23 PM 6.5°F-14.2°C 3.6°F-15.8°C 88% 6.0 mph ESE9.7 kmh ESE -- 29.95 in1014.2 mb 0.00 in0.0 mm 0.00 in0.0 mm 0.00 in0.0 mm
01:24 PM 6.5°F-14.2°C 3.6°F-15.8°C 88% 8.0 mph S12.9 kmh S -- 29.95 in1014.2 mb 0.00 in0.0 mm 0.00 in0.0 mm 0.00 in0.0 mm
01:25 PM 6.5°F-14.2°C 3.6°F-15.8°C 88% 8.0 mph E12.9 kmh E -- 29.95 in1014.2 mb 0.00 in0.0 mm 0.00 in0.0 mm 0.00 in0.0 mm
01:26 PM 6.5°F-14.2°C 3.1°F-16.1°C 86% 10.0 mph SE16.1 kmh SE -- 29.95 in1014.2 mb 0.00 in0.0 mm 0.00 in0.0 mm 0.00 in0.0 mm
01:27 PM 6.5°F-14.2°C 3.1°F-16.1°C 86% 5.0 mph E8.0 kmh E -- 29.96 in1014.6 mb 0.00 in0.0 mm 0.00 in0.0 mm 0.00 in0.0 mm
01:28 PM 6.5°F-14.2°C 3.1°F-16.1°C 86% 9.0 mph SSE14.5 kmh SSE -- 29.95 in1014.2 mb 0.00 in0.0 mm 0.00 in0.0 mm 0.00 in0.0 mm
01:29 PM 6.5°F-14.2°C 3.1°F-16.1°C 86% 10.0 mph SE16.1 kmh SE -- 29.95 in1014.2 mb 0.00 in0.0 mm 0.00 in0.0 mm 0.00 in0.0 mm
01:30 PM 6.5°F-14.2°C 3.1°F-16.1°C 86% 10.0 mph ESE16.1 kmh ESE -- 29.95 in1014.2 mb 0.00 in0.0 mm 0.00 in0.0 mm 0.00 in0.0 mm
01:31 PM 6.3°F-14.3°C 2.9°F-16.2°C 86% 10.0 mph ESE16.1 kmh ESE -- 29.95 in1014.2 mb 0.00 in0.0 mm 0.00 in0.0 mm 0.00 in0.0 mm
01:32 PM 6.3°F-14.3°C 2.9°F-16.2°C 86% 7.0 mph ESE11.3 kmh ESE -- 29.95 in1014.2 mb 0.00 in0.0 mm 0.00 in0.0 mm 0.00 in0.0 mm
01:33 PM 6.3°F-14.3°C 2.9°F-16.2°C 86% 10.0 mph E16.1 kmh E -- 29.94 in1013.9 mb 0.00 in0.0 mm 0.00 in0.0 mm 0.00 in0.0 mm
01:34 PM 6.3°F-14.3°C 2.9°F-16.2°C 86% 8.0 mph ESE12.9 kmh ESE -- 29.94 in1013.9 mb 0.00 in0.0 mm 0.00 in0.0 mm 0.00 in0.0 mm
01:35 PM 6.3°F-14.3°C 2.9°F-16.2°C 86% 8.0 mph ESE12.9 kmh ESE -- 29.95 in1014.2 mb 0.00 in0.0 mm 0.00 in0.0 mm 0.00 in0.0 mm
01:36 PM 6.5°F-14.2°C 3.1°F-16.1°C 86% 10.0 mph ESE16.1 kmh ESE -- 29.94 in1013.9 mb 0.00 in0.0 mm 0.00 in0.0 mm 0.00 in0.0 mm
01:38 PM 6.5°F-14.2°C 3.1°F-16.1°C 86% 5.0 mph SE8.0 kmh SE -- 29.94 in1013.9 mb 0.00 in0.0 mm 0.00 in0.0 mm 0.00 in0.0 mm
01:39 PM 6.8°F-14.0°C 3.5°F-15.8°C 86% 5.0 mph ESE8.0 kmh ESE -- 29.94 in1013.9 mb 0.00 in0.0 mm 0.00 in0.0 mm 0.00 in0.0 mm
01:40 PM 7.0°F-13.9°C 3.6°F-15.8°C 86% 7.0 mph S11.3 kmh S -- 29.95 in1014.2 mb 0.00 in0.0 mm 0.00 in0.0 mm 0.00 in0.0 mm
01:41 PM 7.0°F-13.9°C 3.6°F-15.8°C 86% 8.0 mph ESE12.9 kmh ESE -- 29.94 in1013.9 mb 0.00 in0.0 mm 0.00 in0.0 mm 0.00 in0.0 mm
01:42 PM 7.0°F-13.9°C 3.9°F-15.6°C 87% 5.0 mph ESE8.0 kmh ESE -- 29.95 in1014.2 mb 0.00 in0.0 mm 0.00 in0.0 mm 0.00 in0.0 mm
01:43 PM 7.1°F-13.8°C 3.8°F-15.7°C 86% 8.0 mph ESE12.9 kmh ESE -- 29.94 in1013.9 mb 0.00 in0.0 mm 0.00 in0.0 mm 0.00 in0.0 mm
01:44 PM 7.1°F-13.8°C 3.8°F-15.7°C 86% 7.0 mph SE11.3 kmh SE -- 29.94 in1013.9 mb 0.00 in0.0 mm 0.00 in0.0 mm 0.00 in0.0 mm
01:45 PM 7.3°F-13.7°C 4.0°F-15.6°C 86% 6.0 mph SSE9.7 kmh SSE -- 29.94 in1013.9 mb 0.00 in0.0 mm 0.00 in0.0 mm 0.00 in0.0 mm
01:46 PM 7.3°F-13.7°C 4.0°F-15.6°C 86% 5.0 mph ESE8.0 kmh ESE -- 29.94 in1013.9 mb 0.00 in0.0 mm 0.00 in0.0 mm 0.00 in0.0 mm
01:47 PM 7.3°F-13.7°C 4.0°F-15.6°C 86% 5.0 mph SSE8.0 kmh SSE -- 29.95 in1014.2 mb 0.00 in0.0 mm 0.00 in0.0 mm 0.00 in0.0 mm
01:48 PM 7.3°F-13.7°C 4.0°F-15.6°C 86% 7.0 mph SSE11.3 kmh SSE -- 29.94 in1013.9 mb 0.00 in0.0 mm 0.00 in0.0 mm 0.00 in0.0 mm
01:49 PM 7.3°F-13.7°C 4.0°F-15.6°C 86% 9.0 mph E14.5 kmh E -- 29.94 in1013.9 mb 0.00 in0.0 mm 0.00 in0.0 mm 0.00 in0.0 mm
01:50 PM 7.3°F-13.7°C 4.0°F-15.6°C 86% 9.0 mph SSE14.5 kmh SSE -- 29.95 in1014.2 mb 0.00 in0.0 mm 0.00 in0.0 mm 0.00 in0.0 mm
01:51 PM 7.3°F-13.7°C 4.0°F-15.6°C 86% 8.0 mph ESE12.9 kmh ESE -- 29.95 in1014.2 mb 0.00 in0.0 mm 0.00 in0.0 mm 0.00 in0.0 mm
01:52 PM 7.3°F-13.7°C 4.0°F-15.6°C 86% 10.0 mph SSE16.1 kmh SSE -- 29.95 in1014.2 mb 0.00 in0.0 mm 0.00 in0.0 mm 0.00 in0.0 mm
01:53 PM 7.1°F-13.8°C 3.8°F-15.7°C 86% 6.0 mph SSE9.7 kmh SSE -- 29.95 in1014.2 mb 0.00 in0.0 mm 0.00 in0.0 mm 0.00 in0.0 mm
01:54 PM 7.1°F-13.8°C 3.8°F-15.7°C 86% 6.0 mph ESE9.7 kmh ESE -- 29.95 in1014.2 mb 0.00 in0.0 mm 0.00 in0.0 mm 0.00 in0.0 mm
01:55 PM 7.1°F-13.8°C 3.8°F-15.7°C 86% 4.0 mph SSE6.4 kmh SSE -- 29.95 in1014.2 mb 0.00 in0.0 mm 0.00 in0.0 mm 0.00 in0.0 mm
01:56 PM 7.1°F-13.8°C 3.8°F-15.7°C 86% 6.0 mph S9.7 kmh S -- 29.95 in1014.2 mb 0.00 in0.0 mm 0.00 in0.0 mm 0.00 in0.0 mm
01:57 PM 7.1°F-13.8°C 3.8°F-15.7°C 86% 8.0 mph E12.9 kmh E -- 29.95 in1014.2 mb 0.00 in0.0 mm 0.00 in0.0 mm 0.00 in0.0 mm
01:58 PM 7.1°F-13.8°C 3.8°F-15.7°C 86% 6.0 mph SE9.7 kmh SE -- 29.95 in1014.2 mb 0.00 in0.0 mm 0.00 in0.0 mm 0.00 in0.0 mm
01:59 PM 7.1°F-13.8°C 3.8°F-15.7°C 86% 8.0 mph SSE12.9 kmh SSE -- 29.95 in1014.2 mb 0.00 in0.0 mm 0.00 in0.0 mm 0.00 in0.0 mm
02:00 PM 7.1°F-13.8°C 3.8°F-15.7°C 86% 4.0 mph SSW6.4 kmh SSW -- 29.95 in1014.2 mb 0.00 in0.0 mm 0.00 in0.0 mm 0.00 in0.0 mm
02:01 PM 7.1°F-13.8°C 3.8°F-15.7°C 86% 5.0 mph ESE8.0 kmh ESE -- 29.95 in1014.2 mb 0.00 in0.0 mm 0.00 in0.0 mm 0.00 in0.0 mm
02:02 PM 7.1°F-13.8°C 3.8°F-15.7°C 86% 11.0 mph ESE17.7 kmh ESE -- 29.95 in1014.2 mb 0.00 in0.0 mm 0.00 in0.0 mm 0.00 in0.0 mm
02:03 PM 7.1°F-13.8°C 3.8°F-15.7°C 86% 9.0 mph SSE14.5 kmh SSE -- 29.95 in1014.2 mb 0.00 in0.0 mm 0.00 in0.0 mm 0.00 in0.0 mm
02:04 PM 7.1°F-13.8°C 3.8°F-15.7°C 86% 5.0 mph ESE8.0 kmh ESE -- 29.94 in1013.9 mb 0.00 in0.0 mm 0.00 in0.0 mm 0.00 in0.0 mm
02:05 PM 7.1°F-13.8°C 3.8°F-15.7°C 86% 9.0 mph ESE14.5 kmh ESE -- 29.94 in1013.9 mb 0.00 in0.0 mm 0.00 in0.0 mm 0.00 in0.0 mm
02:06 PM 7.1°F-13.8°C 3.8°F-15.7°C 86% 7.0 mph ESE11.3 kmh ESE -- 29.94 in1013.9 mb 0.00 in0.0 mm 0.00 in0.0 mm 0.00 in0.0 mm
02:07 PM 7.1°F-13.8°C 3.8°F-15.7°C 86% 6.0 mph ENE9.7 kmh ENE -- 29.94 in1013.9 mb 0.00 in0.0 mm 0.00 in0.0 mm 0.00 in0.0 mm
02:08 PM 7.1°F-13.8°C 4.3°F-15.4°C 88% 6.0 mph ESE9.7 kmh ESE -- 29.95 in1014.2 mb 0.00 in0.0 mm 0.00 in0.0 mm 0.00 in0.0 mm
02:09 PM 7.1°F-13.8°C 4.3°F-15.4°C 88% 5.0 mph SE8.0 kmh SE -- 29.95 in1014.2 mb 0.00 in0.0 mm 0.00 in0.0 mm 0.00 in0.0 mm
02:10 PM 7.1°F-13.8°C 4.3°F-15.4°C 88% 5.0 mph E8.0 kmh E -- 29.95 in1014.2 mb 0.00 in0.0 mm 0.00 in0.0 mm 0.00 in0.0 mm
02:11 PM 7.3°F-13.7°C 4.5°F-15.3°C 88% 5.0 mph SSE8.0 kmh SSE -- 29.94 in1013.9 mb 0.00 in0.0 mm 0.00 in0.0 mm 0.00 in0.0 mm
02:12 PM 7.3°F-13.7°C 4.5°F-15.3°C 88% 7.0 mph E11.3 kmh E -- 29.94 in1013.9 mb 0.00 in0.0 mm 0.00 in0.0 mm 0.00 in0.0 mm
02:13 PM 7.3°F-13.7°C 4.5°F-15.3°C 88% 6.0 mph ESE9.7 kmh ESE -- 29.94 in1013.9 mb 0.00 in0.0 mm 0.00 in0.0 mm 0.00 in0.0 mm
02:15 PM 7.3°F-13.7°C 4.5°F-15.3°C 88% 6.0 mph SE9.7 kmh SE -- 29.94 in1013.9 mb 0.00 in0.0 mm 0.00 in0.0 mm 0.00 in0.0 mm
02:16 PM 7.3°F-13.7°C 4.5°F-15.3°C 88% 5.0 mph ESE8.0 kmh ESE -- 29.94 in1013.9 mb 0.00 in0.0 mm 0.00 in0.0 mm 0.00 in0.0 mm
02:17 PM 7.3°F-13.7°C 4.5°F-15.3°C 88% 5.0 mph SE8.0 kmh SE -- 29.94 in1013.9 mb 0.00 in0.0 mm 0.00 in0.0 mm 0.00 in0.0 mm
02:18 PM 7.3°F-13.7°C 4.5°F-15.3°C 88% 11.0 mph ESE17.7 kmh ESE -- 29.95 in1014.2 mb 0.00 in0.0 mm 0.00 in0.0 mm 0.00 in0.0 mm
02:19 PM 7.3°F-13.7°C 4.5°F-15.3°C 88% 6.0 mph ESE9.7 kmh ESE -- 29.95 in1014.2 mb 0.00 in0.0 mm 0.00 in0.0 mm 0.00 in0.0 mm
02:20 PM 7.3°F-13.7°C 4.5°F-15.3°C 88% 5.0 mph E8.0 kmh E -- 29.94 in1013.9 mb 0.00 in0.0 mm 0.00 in0.0 mm 0.00 in0.0 mm
02:21 PM 7.3°F-13.7°C 4.5°F-15.3°C 88% 6.0 mph ESE9.7 kmh ESE -- 29.94 in1013.9 mb 0.00 in0.0 mm 0.00 in0.0 mm 0.00 in0.0 mm
02:22 PM 7.3°F-13.7°C 4.5°F-15.3°C 88% 8.0 mph SE12.9 kmh SE -- 29.95 in1014.2 mb 0.00 in0.0 mm 0.00 in0.0 mm 0.00 in0.0 mm
02:23 PM 7.3°F-13.7°C 4.5°F-15.3°C 88% 5.0 mph S8.0 kmh S -- 29.94 in1013.9 mb 0.00 in0.0 mm 0.00 in0.0 mm 0.00 in0.0 mm
02:24 PM 7.3°F-13.7°C 4.5°F-15.3°C 88% 7.0 mph ESE11.3 kmh ESE -- 29.94 in1013.9 mb 0.00 in0.0 mm 0.00 in0.0 mm 0.00 in0.0 mm
02:25 PM 7.3°F-13.7°C 4.5°F-15.3°C 88% 3.0 mph SE4.8 kmh SE -- 29.94 in1013.9 mb 0.00 in0.0 mm 0.00 in0.0 mm 0.00 in0.0 mm
02:26 PM 7.3°F-13.7°C 4.5°F-15.3°C 88% 6.0 mph ESE9.7 kmh ESE -- 29.95 in1014.2 mb 0.00 in0.0 mm 0.00 in0.0 mm 0.00 in0.0 mm
02:27 PM 7.3°F-13.7°C 4.5°F-15.3°C 88% 7.0 mph ESE11.3 kmh ESE -- 29.95 in1014.2 mb 0.00 in0.0 mm 0.00 in0.0 mm 0.00 in0.0 mm
02:30 PM 7.3°F-13.7°C 4.5°F-15.3°C 88% 5.0 mph ESE8.0 kmh ESE -- 29.94 in1013.9 mb 0.00 in0.0 mm 0.00 in0.0 mm 0.00 in0.0 mm
02:31 PM 7.3°F-13.7°C 4.5°F-15.3°C 88% 8.0 mph SSE12.9 kmh SSE -- 29.94 in1013.9 mb 0.00 in0.0 mm 0.00 in0.0 mm 0.00 in0.0 mm
02:32 PM 7.3°F-13.7°C 4.5°F-15.3°C 88% 6.0 mph ESE9.7 kmh ESE -- 29.94 in1013.9 mb 0.00 in0.0 mm 0.00 in0.0 mm 0.00 in0.0 mm
02:33 PM 7.3°F-13.7°C 4.5°F-15.3°C 88% 5.0 mph ESE8.0 kmh ESE -- 29.95 in1014.2 mb 0.00 in0.0 mm 0.00 in0.0 mm 0.00 in0.0 mm
02:35 PM 7.3°F-13.7°C 4.5°F-15.3°C 88% 4.0 mph ESE6.4 kmh ESE -- 29.95 in1014.2 mb 0.00 in0.0 mm 0.00 in0.0 mm 0.00 in0.0 mm
02:36 PM 7.3°F-13.7°C 4.5°F-15.3°C 88% 6.0 mph SSE9.7 kmh SSE -- 29.94 in1013.9 mb 0.00 in0.0 mm 0.00 in0.0 mm 0.00 in0.0 mm
02:37 PM 7.3°F-13.7°C 4.5°F-15.3°C 88% 7.0 mph ESE11.3 kmh ESE -- 29.94 in1013.9 mb 0.00 in0.0 mm 0.00 in0.0 mm 0.00 in0.0 mm
02:38 PM 7.3°F-13.7°C 4.5°F-15.3°C 88% 8.0 mph ESE12.9 kmh ESE -- 29.94 in1013.9 mb 0.00 in0.0 mm 0.00 in0.0 mm 0.00 in0.0 mm
02:39 PM 7.1°F-13.8°C 4.3°F-15.4°C 88% 9.0 mph ESE14.5 kmh ESE -- 29.94 in1013.9 mb 0.00 in0.0 mm 0.00 in0.0 mm 0.00 in0.0 mm
02:40 PM 7.1°F-13.8°C 4.3°F-15.4°C 88% 8.0 mph SE12.9 kmh SE -- 29.94 in1013.9 mb 0.00 in0.0 mm 0.00 in0.0 mm 0.00 in0.0 mm
02:41 PM 7.1°F-13.8°C 4.3°F-15.4°C 88% 8.0 mph SE12.9 kmh SE -- 29.95 in1014.2 mb 0.00 in0.0 mm 0.00 in0.0 mm 0.00 in0.0 mm
02:42 PM 7.1°F-13.8°C 4.3°F-15.4°C 88% 5.0 mph ESE8.0 kmh ESE -- 29.94 in1013.9 mb 0.00 in0.0 mm 0.00 in0.0 mm 0.00 in0.0 mm
02:43 PM 7.1°F-13.8°C 4.3°F-15.4°C 88% 5.0 mph E8.0 kmh E -- 29.94 in1013.9 mb 0.00 in0.0 mm 0.00 in0.0 mm 0.00 in0.0 mm
02:44 PM 7.1°F-13.8°C 4.3°F-15.4°C 88% 8.0 mph SSE12.9 kmh SSE -- 29.94 in1013.9 mb 0.00 in0.0 mm 0.00 in0.0 mm 0.00 in0.0 mm
02:45 PM 7.1°F-13.8°C 4.3°F-15.4°C 88% 7.0 mph SE11.3 kmh SE -- 29.94 in1013.9 mb 0.00 in0.0 mm 0.00 in0.0 mm 0.00 in0.0 mm
02:46 PM 7.1°F-13.8°C 4.3°F-15.4°C 88% 7.0 mph ESE11.3 kmh ESE -- 29.94 in1013.9 mb 0.00 in0.0 mm 0.00 in0.0 mm 0.00 in0.0 mm
02:48 PM 7.1°F-13.8°C 4.3°F-15.4°C 88% 3.0 mph SE4.8 kmh SE -- 29.94 in1013.9 mb 0.00 in0.0 mm 0.00 in0.0 mm 0.00 in0.0 mm
02:49 PM 7.3°F-13.7°C 4.5°F-15.3°C 88% 8.0 mph SE12.9 kmh SE -- 29.94 in1013.9 mb 0.00 in0.0 mm 0.00 in0.0 mm 0.00 in0.0 mm
02:50 PM 7.3°F-13.7°C 4.5°F-15.3°C 88% 4.0 mph SE6.4 kmh SE -- 29.94 in1013.9 mb 0.00 in0.0 mm 0.00 in0.0 mm 0.00 in0.0 mm
02:51 PM 7.3°F-13.7°C 4.5°F-15.3°C 88% 2.0 mph SE3.2 kmh SE -- 29.94 in1013.9 mb 0.00 in0.0 mm 0.00 in0.0 mm 0.00 in0.0 mm
02:52 PM 7.3°F-13.7°C 4.5°F-15.3°C 88% 5.0 mph ESE8.0 kmh ESE -- 29.94 in1013.9 mb 0.00 in0.0 mm 0.00 in0.0 mm 0.00 in0.0 mm
02:53 PM 7.3°F-13.7°C 4.5°F-15.3°C 88% 7.0 mph ESE11.3 kmh ESE -- 29.94 in1013.9 mb 0.00 in0.0 mm 0.00 in0.0 mm 0.00 in0.0 mm
02:54 PM 7.3°F-13.7°C 4.5°F-15.3°C 88% 8.0 mph ESE12.9 kmh ESE -- 29.94 in1013.9 mb 0.00 in0.0 mm 0.00 in0.0 mm 0.00 in0.0 mm
02:55 PM 7.3°F-13.7°C 4.5°F-15.3°C 88% 4.0 mph ESE6.4 kmh ESE -- 29.94 in1013.9 mb 0.00 in0.0 mm 0.00 in0.0 mm 0.00 in0.0 mm
02:56 PM 7.3°F-13.7°C 4.5°F-15.3°C 88% 3.0 mph ESE4.8 kmh ESE -- 29.94 in1013.9 mb 0.00 in0.0 mm 0.00 in0.0 mm 0.00 in0.0 mm
02:57 PM 7.3°F-13.7°C 4.5°F-15.3°C 88% 5.0 mph ESE8.0 kmh ESE -- 29.95 in1014.2 mb 0.00 in0.0 mm 0.00 in0.0 mm 0.00 in0.0 mm
02:58 PM 7.3°F-13.7°C 4.5°F-15.3°C 88% 5.0 mph SSE8.0 kmh SSE -- 29.94 in1013.9 mb 0.00 in0.0 mm 0.00 in0.0 mm 0.00 in0.0 mm
02:59 PM 7.3°F-13.7°C 4.5°F-15.3°C 88% 7.0 mph SSE11.3 kmh SSE -- 29.94 in1013.9 mb 0.00 in0.0 mm 0.00 in0.0 mm 0.00 in0.0 mm
03:00 PM 7.3°F-13.7°C 4.5°F-15.3°C 88% 7.0 mph ESE11.3 kmh ESE -- 29.94 in1013.9 mb 0.00 in0.0 mm 0.00 in0.0 mm 0.00 in0.0 mm
03:01 PM 7.3°F-13.7°C 4.5°F-15.3°C 88% 6.0 mph ESE9.7 kmh ESE -- 29.94 in1013.9 mb 0.00 in0.0 mm 0.00 in0.0 mm 0.00 in0.0 mm
03:02 PM 7.3°F-13.7°C 4.5°F-15.3°C 88% 4.0 mph ESE6.4 kmh ESE -- 29.94 in1013.9 mb 0.00 in0.0 mm 0.00 in0.0 mm 0.00 in0.0 mm
03:03 PM 7.3°F-13.7°C 4.5°F-15.3°C 88% 5.0 mph ESE8.0 kmh ESE -- 29.94 in1013.9 mb 0.00 in0.0 mm 0.00 in0.0 mm 0.00 in0.0 mm
03:04 PM 7.3°F-13.7°C 4.5°F-15.3°C 88% 3.0 mph SSE4.8 kmh SSE -- 29.94 in1013.9 mb 0.00 in0.0 mm 0.00 in0.0 mm 0.00 in0.0 mm
03:05 PM 7.3°F-13.7°C 4.5°F-15.3°C 88% 6.0 mph ESE9.7 kmh ESE -- 29.95 in1014.2 mb 0.00 in0.0 mm 0.00 in0.0 mm 0.00 in0.0 mm
03:06 PM 7.3°F-13.7°C 4.5°F-15.3°C 88% 4.0 mph ESE6.4 kmh ESE -- 29.94 in1013.9 mb 0.00 in0.0 mm 0.00 in0.0 mm 0.00 in0.0 mm
03:07 PM 7.3°F-13.7°C 4.5°F-15.3°C 88% 3.0 mph ESE4.8 kmh ESE -- 29.94 in1013.9 mb 0.00 in0.0 mm 0.00 in0.0 mm 0.00 in0.0 mm
03:08 PM 7.3°F-13.7°C 4.5°F-15.3°C 88% 5.0 mph E8.0 kmh E -- 29.94 in1013.9 mb 0.00 in0.0 mm 0.00 in0.0 mm 0.00 in0.0 mm
03:09 PM 7.3°F-13.7°C 5.0°F-15.0°C 90% 6.0 mph ESE9.7 kmh ESE -- 29.94 in1013.9 mb 0.00 in0.0 mm 0.00 in0.0 mm 0.00 in0.0 mm
03:10 PM 7.3°F-13.7°C 5.0°F-15.0°C 90% 4.0 mph E6.4 kmh E -- 29.94 in1013.9 mb 0.00 in0.0 mm 0.00 in0.0 mm 0.00 in0.0 mm
03:12 PM 7.3°F-13.7°C 5.0°F-15.0°C 90% 7.0 mph ESE11.3 kmh ESE -- 29.94 in1013.9 mb 0.00 in0.0 mm 0.00 in0.0 mm 0.00 in0.0 mm
03:13 PM 7.3°F-13.7°C 5.0°F-15.0°C 90% 5.0 mph ESE8.0 kmh ESE -- 29.94 in1013.9 mb 0.00 in0.0 mm 0.00 in0.0 mm 0.00 in0.0 mm
03:15 PM 7.3°F-13.7°C 5.0°F-15.0°C 90% 5.0 mph E8.0 kmh E -- 29.94 in1013.9 mb 0.00 in0.0 mm 0.00 in0.0 mm 0.00 in0.0 mm
03:16 PM 7.3°F-13.7°C 5.0°F-15.0°C 90% 4.0 mph ESE6.4 kmh ESE -- 29.94 in1013.9 mb 0.00 in0.0 mm 0.00 in0.0 mm 0.00 in0.0 mm
03:17 PM 7.3°F-13.7°C 5.0°F-15.0°C 90% 5.0 mph ESE8.0 kmh ESE -- 29.94 in1013.9 mb 0.00 in0.0 mm 0.00 in0.0 mm 0.00 in0.0 mm
03:18 PM 7.3°F-13.7°C 5.0°F-15.0°C 90% 4.0 mph E6.4 kmh E -- 29.94 in1013.9 mb 0.00 in0.0 mm 0.00 in0.0 mm 0.00 in0.0 mm
03:19 PM 7.3°F-13.7°C 5.0°F-15.0°C 90% 4.0 mph ESE6.4 kmh ESE -- 29.94 in1013.9 mb 0.00 in0.0 mm 0.00 in0.0 mm 0.00 in0.0 mm
03:20 PM 7.3°F-13.7°C 5.0°F-15.0°C 90% 8.0 mph ENE12.9 kmh ENE -- 29.94 in1013.9 mb 0.00 in0.0 mm 0.00 in0.0 mm 0.00 in0.0 mm
03:21 PM 7.3°F-13.7°C 5.0°F-15.0°C 90% 5.0 mph ESE8.0 kmh ESE -- 29.94 in1013.9 mb 0.00 in0.0 mm 0.00 in0.0 mm 0.00 in0.0 mm
03:22 PM 7.3°F-13.7°C 5.0°F-15.0°C 90% 4.0 mph ESE6.4 kmh ESE -- 29.94 in1013.9 mb 0.00 in0.0 mm 0.00 in0.0 mm 0.00 in0.0 mm
03:23 PM 7.3°F-13.7°C 5.0°F-15.0°C 90% 2.0 mph ESE3.2 kmh ESE -- 29.94 in1013.9 mb 0.00 in0.0 mm 0.00 in0.0 mm 0.00 in0.0 mm
03:25 PM 7.3°F-13.7°C 5.0°F-15.0°C 90% 8.0 mph E12.9 kmh E -- 29.94 in1013.9 mb 0.00 in0.0 mm 0.00 in0.0 mm 0.00 in0.0 mm
03:26 PM 7.3°F-13.7°C 5.0°F-15.0°C 90% 6.0 mph ESE9.7 kmh ESE -- 29.94 in1013.9 mb 0.00 in0.0 mm 0.00 in0.0 mm 0.00 in0.0 mm
03:28 PM 7.3°F-13.7°C 5.0°F-15.0°C 90% 7.0 mph ENE11.3 kmh ENE -- 29.94 in1013.9 mb 0.00 in0.0 mm 0.00 in0.0 mm 0.00 in0.0 mm
03:29 PM 7.3°F-13.7°C 5.2°F-14.9°C 91% 5.0 mph E8.0 kmh E -- 29.94 in1013.9 mb 0.00 in0.0 mm 0.00 in0.0 mm 0.00 in0.0 mm
03:30 PM 7.1°F-13.8°C 5.1°F-14.9°C 91% 4.0 mph E6.4 kmh E -- 29.94 in1013.9 mb 0.00 in0.0 mm 0.00 in0.0 mm 0.00 in0.0 mm
03:31 PM 7.1°F-13.8°C 5.1°F-14.9°C 91% 4.0 mph ESE6.4 kmh ESE -- 29.94 in1013.9 mb 0.00 in0.0 mm 0.00 in0.0 mm 0.00 in0.0 mm
03:32 PM 7.1°F-13.8°C 5.1°F-14.9°C 91% 4.0 mph SE6.4 kmh SE -- 29.95 in1014.2 mb 0.00 in0.0 mm 0.00 in0.0 mm 0.00 in0.0 mm
03:33 PM 7.1°F-13.8°C 5.1°F-14.9°C 91% 3.0 mph ESE4.8 kmh ESE -- 29.95 in1014.2 mb 0.00 in0.0 mm 0.00 in0.0 mm 0.00 in0.0 mm
03:34 PM 7.1°F-13.8°C 5.1°F-14.9°C 91% 6.0 mph ENE9.7 kmh ENE -- 29.95 in1014.2 mb 0.00 in0.0 mm 0.00 in0.0 mm 0.00 in0.0 mm
03:35 PM 7.1°F-13.8°C 5.1°F-14.9°C 91% 4.0 mph E6.4 kmh E -- 29.95 in1014.2 mb 0.00 in0.0 mm 0.00 in0.0 mm 0.00 in0.0 mm
03:37 PM 7.1°F-13.8°C 5.1°F-14.9°C 91% 4.0 mph ESE6.4 kmh ESE -- 29.94 in1013.9 mb 0.00 in0.0 mm 0.00 in0.0 mm 0.00 in0.0 mm
03:38 PM 7.0°F-13.9°C 4.9°F-15.1°C 91% 5.0 mph E8.0 kmh E -- 29.94 in1013.9 mb 0.00 in0.0 mm 0.00 in0.0 mm 0.00 in0.0 mm
03:39 PM 7.0°F-13.9°C 4.9°F-15.1°C 91% 4.0 mph ESE6.4 kmh ESE -- 29.94 in1013.9 mb 0.00 in0.0 mm 0.00 in0.0 mm 0.00 in0.0 mm
03:40 PM 7.0°F-13.9°C 4.9°F-15.1°C 91% 5.0 mph ESE8.0 kmh ESE -- 29.95 in1014.2 mb 0.00 in0.0 mm 0.00 in0.0 mm 0.00 in0.0 mm
03:42 PM 7.0°F-13.9°C 4.9°F-15.1°C 91% 6.0 mph SSE9.7 kmh SSE -- 29.95 in1014.2 mb 0.00 in0.0 mm 0.00 in0.0 mm 0.00 in0.0 mm
03:43 PM 7.0°F-13.9°C 4.9°F-15.1°C 91% 5.0 mph ESE8.0 kmh ESE -- 29.95 in1014.2 mb 0.00 in0.0 mm 0.00 in0.0 mm 0.00 in0.0 mm
03:44 PM 7.0°F-13.9°C 4.9°F-15.1°C 91% 5.0 mph E8.0 kmh E -- 29.95 in1014.2 mb 0.00 in0.0 mm 0.00 in0.0 mm 0.00 in0.0 mm
03:45 PM 7.0°F-13.9°C 4.9°F-15.1°C 91% 5.0 mph ESE8.0 kmh ESE -- 29.94 in1013.9 mb 0.00 in0.0 mm 0.00 in0.0 mm 0.00 in0.0 mm
03:46 PM 7.0°F-13.9°C 4.9°F-15.1°C 91% 7.0 mph ESE11.3 kmh ESE -- 29.94 in1013.9 mb 0.00 in0.0 mm 0.00 in0.0 mm 0.00 in0.0 mm
03:47 PM 7.0°F-13.9°C 4.9°F-15.1°C 91% 6.0 mph ESE9.7 kmh ESE -- 29.94 in1013.9 mb 0.00 in0.0 mm 0.00 in0.0 mm 0.00 in0.0 mm
03:49 PM 7.0°F-13.9°C 4.9°F-15.1°C 91% 4.0 mph ESE6.4 kmh ESE -- 29.94 in1013.9 mb 0.00 in0.0 mm 0.00 in0.0 mm 0.00 in0.0 mm
03:50 PM 7.0°F-13.9°C 4.9°F-15.1°C 91% 6.0 mph E9.7 kmh E -- 29.94 in1013.9 mb 0.00 in0.0 mm 0.00 in0.0 mm 0.00 in0.0 mm
03:51 PM 7.0°F-13.9°C 4.9°F-15.1°C 91% 3.0 mph ESE4.8 kmh ESE -- 29.94 in1013.9 mb 0.00 in0.0 mm 0.00 in0.0 mm 0.00 in0.0 mm
03:52 PM 7.0°F-13.9°C 4.9°F-15.1°C 91% 6.0 mph ESE9.7 kmh ESE -- 29.95 in1014.2 mb 0.00 in0.0 mm 0.00 in0.0 mm 0.00 in0.0 mm
03:54 PM 7.0°F-13.9°C 4.9°F-15.1°C 91% 2.0 mph ESE3.2 kmh ESE -- 29.94 in1013.9 mb 0.00 in0.0 mm 0.00 in0.0 mm 0.00 in0.0 mm
03:56 PM 7.0°F-13.9°C 4.9°F-15.1°C 91% 4.0 mph SE6.4 kmh SE -- 29.94 in1013.9 mb 0.00 in0.0 mm 0.00 in0.0 mm 0.00 in0.0 mm
03:57 PM 7.0°F-13.9°C 4.9°F-15.1°C 91% 6.0 mph ESE9.7 kmh ESE -- 29.94 in1013.9 mb 0.00 in0.0 mm 0.00 in0.0 mm 0.00 in0.0 mm
03:58 PM 6.8°F-14.0°C 4.7°F-15.2°C 91% 4.0 mph ESE6.4 kmh ESE -- 29.94 in1013.9 mb 0.00 in0.0 mm 0.00 in0.0 mm 0.00 in0.0 mm
03:59 PM 6.8°F-14.0°C 5.2°F-14.9°C 93% 4.0 mph ESE6.4 kmh ESE -- 29.94 in1013.9 mb 0.00 in0.0 mm 0.00 in0.0 mm 0.00 in0.0 mm
04:00 PM 6.8°F-14.0°C 5.2°F-14.9°C 93% 3.0 mph ENE4.8 kmh ENE -- 29.95 in1014.2 mb 0.00 in0.0 mm 0.00 in0.0 mm 0.00 in0.0 mm
04:01 PM 6.8°F-14.0°C 5.2°F-14.9°C 93% 5.0 mph ESE8.0 kmh ESE -- 29.94 in1013.9 mb 0.00 in0.0 mm 0.00 in0.0 mm 0.00 in0.0 mm
04:02 PM 6.8°F-14.0°C 5.2°F-14.9°C 93% 6.0 mph ESE9.7 kmh ESE -- 29.95 in1014.2 mb 0.00 in0.0 mm 0.00 in0.0 mm 0.00 in0.0 mm
04:03 PM 6.8°F-14.0°C 5.2°F-14.9°C 93% 7.0 mph E11.3 kmh E -- 29.94 in1013.9 mb 0.00 in0.0 mm 0.00 in0.0 mm 0.00 in0.0 mm
04:04 PM 6.5°F-14.2°C 4.8°F-15.1°C 93% 6.0 mph ESE9.7 kmh ESE -- 29.94 in1013.9 mb 0.00 in0.0 mm 0.00 in0.0 mm 0.00 in0.0 mm
04:05 PM 6.5°F-14.2°C 4.8°F-15.1°C 93% 4.0 mph E6.4 kmh E -- 29.94 in1013.9 mb 0.00 in0.0 mm 0.00 in0.0 mm 0.00 in0.0 mm
04:06 PM 6.5°F-14.2°C 4.8°F-15.1°C 93% 2.0 mph ESE3.2 kmh ESE -- 29.94 in1013.9 mb 0.00 in0.0 mm 0.00 in0.0 mm 0.00 in0.0 mm
04:07 PM 6.5°F-14.2°C 4.8°F-15.1°C 93% 3.0 mph ENE4.8 kmh ENE -- 29.94 in1013.9 mb 0.00 in0.0 mm 0.00 in0.0 mm 0.00 in0.0 mm
04:08 PM 6.5°F-14.2°C 4.8°F-15.1°C 93% 2.0 mph ENE3.2 kmh ENE -- 29.94 in1013.9 mb 0.00 in0.0 mm 0.00 in0.0 mm 0.00 in0.0 mm
04:09 PM 6.5°F-14.2°C 4.8°F-15.1°C 93% 4.0 mph E6.4 kmh E -- 29.94 in1013.9 mb 0.00 in0.0 mm 0.00 in0.0 mm 0.00 in0.0 mm
04:10 PM 6.5°F-14.2°C 4.8°F-15.1°C 93% 5.0 mph E8.0 kmh E -- 29.94 in1013.9 mb 0.00 in0.0 mm 0.00 in0.0 mm 0.00 in0.0 mm
04:11 PM 6.3°F-14.3°C 4.6°F-15.2°C 93% 4.0 mph ESE6.4 kmh ESE -- 29.94 in1013.9 mb 0.00 in0.0 mm 0.00 in0.0 mm 0.00 in0.0 mm
04:12 PM 6.3°F-14.3°C 4.6°F-15.2°C 93% 3.0 mph E4.8 kmh E -- 29.94 in1013.9 mb 0.00 in0.0 mm 0.00 in0.0 mm 0.00 in0.0 mm
04:13 PM 6.3°F-14.3°C 4.6°F-15.2°C 93% 4.0 mph E6.4 kmh E -- 29.94 in1013.9 mb 0.00 in0.0 mm 0.00 in0.0 mm 0.00 in0.0 mm
04:14 PM 6.3°F-14.3°C 4.6°F-15.2°C 93% 3.0 mph E4.8 kmh E -- 29.94 in1013.9 mb 0.00 in0.0 mm 0.00 in0.0 mm 0.00 in0.0 mm
04:15 PM 6.3°F-14.3°C 4.6°F-15.2°C 93% 3.0 mph ESE4.8 kmh ESE -- 29.94 in1013.9 mb 0.00 in0.0 mm 0.00 in0.0 mm 0.00 in0.0 mm
04:16 PM 6.3°F-14.3°C 4.6°F-15.2°C 93% 6.0 mph ENE9.7 kmh ENE -- 29.94 in1013.9 mb 0.00 in0.0 mm 0.00 in0.0 mm 0.00 in0.0 mm
04:17 PM 6.3°F-14.3°C 4.6°F-15.2°C 93% 6.0 mph ESE9.7 kmh ESE -- 29.94 in1013.9 mb 0.00 in0.0 mm 0.00 in0.0 mm 0.00 in0.0 mm
04:18 PM 6.3°F-14.3°C 4.6°F-15.2°C 93% 3.0 mph ENE4.8 kmh ENE -- 29.94 in1013.9 mb 0.00 in0.0 mm 0.00 in0.0 mm 0.00 in0.0 mm
04:19 PM 6.3°F-14.3°C 4.6°F-15.2°C 93% 5.0 mph ESE8.0 kmh ESE -- 29.94 in1013.9 mb 0.00 in0.0 mm 0.00 in0.0 mm 0.00 in0.0 mm
04:21 PM 6.3°F-14.3°C 4.6°F-15.2°C 93% 4.0 mph NE6.4 kmh NE -- 29.94 in1013.9 mb 0.00 in0.0 mm 0.00 in0.0 mm 0.00 in0.0 mm
04:22 PM 6.3°F-14.3°C 4.6°F-15.2°C 93% 5.0 mph E8.0 kmh E -- 29.94 in1013.9 mb 0.00 in0.0 mm 0.00 in0.0 mm 0.00 in0.0 mm
04:23 PM 6.3°F-14.3°C 4.6°F-15.2°C 93% 3.0 mph ESE4.8 kmh ESE -- 29.94 in1013.9 mb 0.00 in0.0 mm 0.00 in0.0 mm 0.00 in0.0 mm
04:24 PM 6.3°F-14.3°C 4.6°F-15.2°C 93% 4.0 mph ESE6.4 kmh ESE -- 29.94 in1013.9 mb 0.00 in0.0 mm 0.00 in0.0 mm 0.00 in0.0 mm
04:26 PM 6.3°F-14.3°C 4.6°F-15.2°C 93% 5.0 mph ENE8.0 kmh ENE -- 29.94 in1013.9 mb 0.00 in0.0 mm 0.00 in0.0 mm 0.00 in0.0 mm
04:27 PM 6.1°F-14.4°C 4.5°F-15.3°C 93% 5.0 mph E8.0 kmh E -- 29.94 in1013.9 mb 0.00 in0.0 mm 0.00 in0.0 mm 0.00 in0.0 mm
04:28 PM 6.1°F-14.4°C 4.5°F-15.3°C 93% 6.0 mph E9.7 kmh E -- 29.94 in1013.9 mb 0.00 in0.0 mm 0.00 in0.0 mm 0.00 in0.0 mm
04:30 PM 6.1°F-14.4°C 4.5°F-15.3°C 93% 4.0 mph SE6.4 kmh SE -- 29.94 in1013.9 mb 0.00 in0.0 mm 0.00 in0.0 mm 0.00 in0.0 mm
04:31 PM 6.1°F-14.4°C 4.5°F-15.3°C 93% 4.0 mph E6.4 kmh E -- 29.94 in1013.9 mb 0.00 in0.0 mm 0.00 in0.0 mm 0.00 in0.0 mm
04:32 PM 6.1°F-14.4°C 4.5°F-15.3°C 93% 6.0 mph ESE9.7 kmh ESE -- 29.94 in1013.9 mb 0.00 in0.0 mm 0.00 in0.0 mm 0.00 in0.0 mm
04:33 PM 6.1°F-14.4°C 4.5°F-15.3°C 93% 4.0 mph ESE6.4 kmh ESE -- 29.94 in1013.9 mb 0.00 in0.0 mm 0.00 in0.0 mm 0.00 in0.0 mm
04:35 PM 6.1°F-14.4°C 4.5°F-15.3°C 93% 3.0 mph NE4.8 kmh NE -- 29.94 in1013.9 mb 0.00 in0.0 mm 0.00 in0.0 mm 0.00 in0.0 mm
04:36 PM 6.1°F-14.4°C 4.5°F-15.3°C 93% 6.0 mph ESE9.7 kmh ESE -- 29.94 in1013.9 mb 0.00 in0.0 mm 0.00 in0.0 mm 0.00 in0.0 mm
04:37 PM 6.1°F-14.4°C 4.5°F-15.3°C 93% 4.0 mph E6.4 kmh E -- 29.94 in1013.9 mb 0.00 in0.0 mm 0.00 in0.0 mm 0.00 in0.0 mm
04:38 PM 6.1°F-14.4°C 4.5°F-15.3°C 93% 6.0 mph ESE9.7 kmh ESE -- 29.94 in1013.9 mb 0.00 in0.0 mm 0.00 in0.0 mm 0.00 in0.0 mm
04:40 PM 6.1°F-14.4°C 4.5°F-15.3°C 93% 4.0 mph E6.4 kmh E -- 29.94 in1013.9 mb 0.00 in0.0 mm 0.00 in0.0 mm 0.00 in0.0 mm
04:41 PM 6.1°F-14.4°C 4.5°F-15.3°C 93% 5.0 mph E8.0 kmh E -- 29.94 in1013.9 mb 0.00 in0.0 mm 0.00 in0.0 mm 0.00 in0.0 mm
04:42 PM 6.1°F-14.4°C 4.7°F-15.2°C 94% 4.0 mph E6.4 kmh E -- 29.94 in1013.9 mb 0.00 in0.0 mm 0.00 in0.0 mm 0.00 in0.0 mm
04:43 PM 6.1°F-14.4°C 4.5°F-15.3°C 93% 4.0 mph E6.4 kmh E -- 29.94 in1013.9 mb 0.00 in0.0 mm 0.00 in0.0 mm 0.00 in0.0 mm
04:45 PM 6.1°F-14.4°C 4.5°F-15.3°C 93% 2.0 mph E3.2 kmh E -- 29.94 in1013.9 mb 0.00 in0.0 mm 0.00 in0.0 mm 0.00 in0.0 mm
04:46 PM 6.1°F-14.4°C 4.5°F-15.3°C 93% 4.0 mph E6.4 kmh E -- 29.94 in1013.9 mb 0.00 in0.0 mm 0.00 in0.0 mm 0.00 in0.0 mm
04:49 PM 6.1°F-14.4°C 4.5°F-15.3°C 93% 3.0 mph ESE4.8 kmh ESE -- 29.94 in1013.9 mb 0.00 in0.0 mm 0.00 in0.0 mm 0.00 in0.0 mm
04:50 PM 6.1°F-14.4°C 4.5°F-15.3°C 93% 6.0 mph E9.7 kmh E -- 29.94 in1013.9 mb 0.00 in0.0 mm 0.00 in0.0 mm 0.00 in0.0 mm
04:51 PM 6.1°F-14.4°C 4.5°F-15.3°C 93% 4.0 mph ENE6.4 kmh ENE -- 29.94 in1013.9 mb 0.00 in0.0 mm 0.00 in0.0 mm 0.00 in0.0 mm
04:52 PM 6.1°F-14.4°C 4.5°F-15.3°C 93% 4.0 mph ESE6.4 kmh ESE -- 29.94 in1013.9 mb 0.00 in0.0 mm 0.00 in0.0 mm 0.00 in0.0 mm
04:53 PM 6.1°F-14.4°C 4.5°F-15.3°C 93% 7.0 mph ENE11.3 kmh ENE -- 29.94 in1013.9 mb 0.00 in0.0 mm 0.00 in0.0 mm 0.00 in0.0 mm
04:54 PM 6.1°F-14.4°C 4.5°F-15.3°C 93% 4.0 mph E6.4 kmh E -- 29.94 in1013.9 mb 0.00 in0.0 mm 0.00 in0.0 mm 0.00 in0.0 mm
04:55 PM 6.1°F-14.4°C 4.5°F-15.3°C 93% 6.0 mph ESE9.7 kmh ESE -- 29.94 in1013.9 mb 0.00 in0.0 mm 0.00 in0.0 mm 0.00 in0.0 mm
04:56 PM 6.1°F-14.4°C 4.5°F-15.3°C 93% 5.0 mph ESE8.0 kmh ESE -- 29.94 in1013.9 mb 0.00 in0.0 mm 0.00 in0.0 mm 0.00 in0.0 mm
04:58 PM 6.1°F-14.4°C 4.5°F-15.3°C 93% 5.0 mph E8.0 kmh E -- 29.94 in1013.9 mb 0.00 in0.0 mm 0.00 in0.0 mm 0.00 in0.0 mm
04:59 PM 6.1°F-14.4°C 4.5°F-15.3°C 93% 4.0 mph ESE6.4 kmh ESE -- 29.94 in1013.9 mb 0.00 in0.0 mm 0.00 in0.0 mm 0.00 in0.0 mm
05:00 PM 6.1°F-14.4°C 4.5°F-15.3°C 93% 5.0 mph ESE8.0 kmh ESE -- 29.94 in1013.9 mb 0.00 in0.0 mm 0.00 in0.0 mm 0.00 in0.0 mm
05:01 PM 6.1°F-14.4°C 4.5°F-15.3°C 93% 4.0 mph ESE6.4 kmh ESE -- 29.94 in1013.9 mb 0.00 in0.0 mm 0.00 in0.0 mm 0.00 in0.0 mm
05:02 PM 6.1°F-14.4°C 4.7°F-15.2°C 94% 2.0 mph ENE3.2 kmh ENE -- 29.94 in1013.9 mb 0.00 in0.0 mm 0.00 in0.0 mm 0.00 in0.0 mm
05:03 PM 6.1°F-14.4°C 4.5°F-15.3°C 93% 3.0 mph E4.8 kmh E -- 29.94 in1013.9 mb 0.00 in0.0 mm 0.00 in0.0 mm 0.00 in0.0 mm
05:04 PM 6.1°F-14.4°C 4.5°F-15.3°C 93% 4.0 mph E6.4 kmh E -- 29.94 in1013.9 mb 0.00 in0.0 mm 0.00 in0.0 mm 0.00 in0.0 mm
05:05 PM 6.1°F-14.4°C 4.5°F-15.3°C 93% 6.0 mph ENE9.7 kmh ENE -- 29.94 in1013.9 mb 0.00 in0.0 mm 0.00 in0.0 mm 0.00 in0.0 mm
05:06 PM 6.1°F-14.4°C 4.5°F-15.3°C 93% 5.0 mph ENE8.0 kmh ENE -- 29.94 in1013.9 mb 0.00 in0.0 mm 0.00 in0.0 mm 0.00 in0.0 mm
05:07 PM 6.1°F-14.4°C 4.5°F-15.3°C 93% 4.0 mph E6.4 kmh E -- 29.94 in1013.9 mb 0.00 in0.0 mm 0.00 in0.0 mm 0.00 in0.0 mm
05:09 PM 6.1°F-14.4°C 4.5°F-15.3°C 93% 4.0 mph ESE6.4 kmh ESE -- 29.94 in1013.9 mb 0.00 in0.0 mm 0.00 in0.0 mm 0.00 in0.0 mm
05:10 PM 6.1°F-14.4°C 4.5°F-15.3°C 93% 4.0 mph E6.4 kmh E -- 29.94 in1013.9 mb 0.00 in0.0 mm 0.00 in0.0 mm 0.00 in0.0 mm
05:11 PM 6.1°F-14.4°C 4.5°F-15.3°C 93% 5.0 mph E8.0 kmh E -- 29.94 in1013.9 mb 0.00 in0.0 mm 0.00 in0.0 mm 0.00 in0.0 mm
05:12 PM 6.1°F-14.4°C 4.5°F-15.3°C 93% 6.0 mph ESE9.7 kmh ESE -- 29.94 in1013.9 mb 0.00 in0.0 mm 0.00 in0.0 mm 0.00 in0.0 mm
05:13 PM 5.9°F-14.5°C 4.3°F-15.4°C 93% 5.0 mph ESE8.0 kmh ESE -- 29.94 in1013.9 mb 0.00 in0.0 mm 0.00 in0.0 mm 0.00 in0.0 mm
05:14 PM 5.9°F-14.5°C 4.3°F-15.4°C 93% 4.0 mph ESE6.4 kmh ESE -- 29.94 in1013.9 mb 0.00 in0.0 mm 0.00 in0.0 mm 0.00 in0.0 mm
05:15 PM 5.9°F-14.5°C 4.3°F-15.4°C 93% 5.0 mph ESE8.0 kmh ESE -- 29.94 in1013.9 mb 0.00 in0.0 mm 0.00 in0.0 mm 0.00 in0.0 mm
05:17 PM 5.9°F-14.5°C 4.3°F-15.4°C 93% 6.0 mph ESE9.7 kmh ESE -- 29.94 in1013.9 mb 0.00 in0.0 mm 0.00 in0.0 mm 0.00 in0.0 mm
05:18 PM 5.9°F-14.5°C 4.3°F-15.4°C 93% 4.0 mph ESE6.4 kmh ESE -- 29.94 in1013.9 mb 0.00 in0.0 mm 0.00 in0.0 mm 0.00 in0.0 mm
05:19 PM 5.9°F-14.5°C 4.3°F-15.4°C 93% 4.0 mph E6.4 kmh E -- 29.94 in1013.9 mb 0.00 in0.0 mm 0.00 in0.0 mm 0.00 in0.0 mm
05:20 PM 5.9°F-14.5°C 4.3°F-15.4°C 93% 4.0 mph ESE6.4 kmh ESE -- 29.94 in1013.9 mb 0.00 in0.0 mm 0.00 in0.0 mm 0.00 in0.0 mm
05:21 PM 5.9°F-14.5°C 4.3°F-15.4°C 93% 5.0 mph E8.0 kmh E -- 29.94 in1013.9 mb 0.00 in0.0 mm 0.00 in0.0 mm 0.00 in0.0 mm
05:22 PM 5.9°F-14.5°C 4.3°F-15.4°C 93% 6.0 mph ESE9.7 kmh ESE -- 29.94 in1013.9 mb 0.00 in0.0 mm 0.00 in0.0 mm 0.00 in0.0 mm
05:23 PM 5.9°F-14.5°C 4.3°F-15.4°C 93% 4.0 mph E6.4 kmh E -- 29.94 in1013.9 mb 0.00 in0.0 mm 0.00 in0.0 mm 0.00 in0.0 mm
05:24 PM 5.9°F-14.5°C 4.3°F-15.4°C 93% 3.0 mph ESE4.8 kmh ESE -- 29.94 in1013.9 mb 0.00 in0.0 mm 0.00 in0.0 mm 0.00 in0.0 mm
05:25 PM 5.9°F-14.5°C 4.3°F-15.4°C 93% 4.0 mph ESE6.4 kmh ESE -- 29.94 in1013.9 mb 0.00 in0.0 mm 0.00 in0.0 mm 0.00 in0.0 mm
05:26 PM 5.9°F-14.5°C 4.3°F-15.4°C 93% 5.0 mph E8.0 kmh E -- 29.94 in1013.9 mb 0.00 in0.0 mm 0.00 in0.0 mm 0.00 in0.0 mm
05:28 PM 5.9°F-14.5°C 4.3°F-15.4°C 93% 6.0 mph E9.7 kmh E -- 29.94 in1013.9 mb 0.00 in0.0 mm 0.00 in0.0 mm 0.00 in0.0 mm
05:29 PM 5.9°F-14.5°C 4.3°F-15.4°C 93% 5.0 mph E8.0 kmh E -- 29.94 in1013.9 mb 0.00 in0.0 mm 0.00 in0.0 mm 0.00 in0.0 mm
05:30 PM 5.9°F-14.5°C 4.3°F-15.4°C 93% 4.0 mph ENE6.4 kmh ENE -- 29.94 in1013.9 mb 0.00 in0.0 mm 0.00 in0.0 mm 0.00 in0.0 mm
05:31 PM 5.9°F-14.5°C 4.3°F-15.4°C 93% 6.0 mph E9.7 kmh E -- 29.94 in1013.9 mb 0.00 in0.0 mm 0.00 in0.0 mm 0.00 in0.0 mm
05:32 PM 5.9°F-14.5°C 4.5°F-15.3°C 94% 4.0 mph E6.4 kmh E -- 29.94 in1013.9 mb 0.00 in0.0 mm 0.00 in0.0 mm 0.00 in0.0 mm
05:33 PM 5.9°F-14.5°C 4.3°F-15.4°C 93% 5.0 mph E8.0 kmh E -- 29.94 in1013.9 mb 0.00 in0.0 mm 0.00 in0.0 mm 0.00 in0.0 mm
05:34 PM 5.9°F-14.5°C 4.3°F-15.4°C 93% 4.0 mph ENE6.4 kmh ENE -- 29.94 in1013.9 mb 0.00 in0.0 mm 0.00 in0.0 mm 0.00 in0.0 mm
05:35 PM 5.9°F-14.5°C 4.3°F-15.4°C 93% 4.0 mph E6.4 kmh E -- 29.94 in1013.9 mb 0.00 in0.0 mm 0.00 in0.0 mm 0.00 in0.0 mm
05:36 PM 5.9°F-14.5°C 4.3°F-15.4°C 93% 3.0 mph ENE4.8 kmh ENE -- 29.94 in1013.9 mb 0.00 in0.0 mm 0.00 in0.0 mm 0.00 in0.0 mm
05:37 PM 5.9°F-14.5°C 4.3°F-15.4°C 93% 5.0 mph E8.0 kmh E -- 29.94 in1013.9 mb 0.00 in0.0 mm 0.00 in0.0 mm 0.00 in0.0 mm
05:38 PM 5.9°F-14.5°C 4.3°F-15.4°C 93% 4.0 mph ESE6.4 kmh ESE -- 29.94 in1013.9 mb 0.00 in0.0 mm 0.00 in0.0 mm 0.00 in0.0 mm
05:39 PM 5.9°F-14.5°C 4.3°F-15.4°C 93% 3.0 mph ESE4.8 kmh ESE -- 29.94 in1013.9 mb 0.00 in0.0 mm 0.00 in0.0 mm 0.00 in0.0 mm
05:40 PM 5.9°F-14.5°C 4.3°F-15.4°C 93% 3.0 mph SE4.8 kmh SE -- 29.94 in1013.9 mb 0.00 in0.0 mm 0.00 in0.0 mm 0.00 in0.0 mm
05:41 PM 5.9°F-14.5°C 4.3°F-15.4°C 93% 3.0 mph ESE4.8 kmh ESE -- 29.95 in1014.2 mb 0.00 in0.0 mm 0.00 in0.0 mm 0.00 in0.0 mm
05:42 PM 5.9°F-14.5°C 4.3°F-15.4°C 93% 4.0 mph ESE6.4 kmh ESE -- 29.94 in1013.9 mb 0.00 in0.0 mm 0.00 in0.0 mm 0.00 in0.0 mm
05:44 PM 5.9°F-14.5°C 4.3°F-15.4°C 93% 3.0 mph E4.8 kmh E -- 29.94 in1013.9 mb 0.00 in0.0 mm 0.00 in0.0 mm 0.00 in0.0 mm
05:45 PM 5.9°F-14.5°C 4.3°F-15.4°C 93% 7.0 mph E11.3 kmh E -- 29.94 in1013.9 mb 0.00 in0.0 mm 0.00 in0.0 mm 0.00 in0.0 mm
05:46 PM 5.9°F-14.5°C 4.3°F-15.4°C 93% 6.0 mph SE9.7 kmh SE -- 29.94 in1013.9 mb 0.00 in0.0 mm 0.00 in0.0 mm 0.00 in0.0 mm
05:47 PM 5.9°F-14.5°C 4.3°F-15.4°C 93% 6.0 mph ESE9.7 kmh ESE -- 29.94 in1013.9 mb 0.00 in0.0 mm 0.00 in0.0 mm 0.00 in0.0 mm
05:49 PM 5.9°F-14.5°C 4.3°F-15.4°C 93% 5.0 mph E8.0 kmh E -- 29.94 in1013.9 mb 0.00 in0.0 mm 0.00 in0.0 mm 0.00 in0.0 mm
05:50 PM 5.9°F-14.5°C 4.3°F-15.4°C 93% 3.0 mph ESE4.8 kmh ESE -- 29.94 in1013.9 mb 0.00 in0.0 mm 0.00 in0.0 mm 0.00 in0.0 mm
05:51 PM 5.9°F-14.5°C 4.3°F-15.4°C 93% 6.0 mph ESE9.7 kmh ESE -- 29.94 in1013.9 mb 0.00 in0.0 mm 0.00 in0.0 mm 0.00 in0.0 mm
05:52 PM 5.9°F-14.5°C 4.3°F-15.4°C 93% 5.0 mph ESE8.0 kmh ESE -- 29.94 in1013.9 mb 0.00 in0.0 mm 0.00 in0.0 mm 0.00 in0.0 mm
05:53 PM 5.9°F-14.5°C 4.3°F-15.4°C 93% 4.0 mph ESE6.4 kmh ESE -- 29.94 in1013.9 mb 0.00 in0.0 mm 0.00 in0.0 mm 0.00 in0.0 mm
05:54 PM 5.9°F-14.5°C 4.3°F-15.4°C 93% 4.0 mph SE6.4 kmh SE -- 29.94 in1013.9 mb 0.00 in0.0 mm 0.00 in0.0 mm 0.00 in0.0 mm
05:55 PM 5.9°F-14.5°C 4.3°F-15.4°C 93% 4.0 mph ESE6.4 kmh ESE -- 29.94 in1013.9 mb 0.00 in0.0 mm 0.00 in0.0 mm 0.00 in0.0 mm
05:56 PM 5.9°F-14.5°C 4.3°F-15.4°C 93% 5.0 mph ESE8.0 kmh ESE -- 29.94 in1013.9 mb 0.00 in0.0 mm 0.00 in0.0 mm 0.00 in0.0 mm
05:57 PM 5.9°F-14.5°C 4.3°F-15.4°C 93% 4.0 mph SE6.4 kmh SE -- 29.94 in1013.9 mb 0.00 in0.0 mm 0.00 in0.0 mm 0.00 in0.0 mm
05:59 PM 5.9°F-14.5°C 4.3°F-15.4°C 93% 3.0 mph SE4.8 kmh SE -- 29.94 in1013.9 mb 0.00 in0.0 mm 0.00 in0.0 mm 0.00 in0.0 mm
06:00 PM 5.9°F-14.5°C 4.3°F-15.4°C 93% 4.0 mph ESE6.4 kmh ESE -- 29.94 in1013.9 mb 0.00 in0.0 mm 0.00 in0.0 mm 0.00 in0.0 mm
06:01 PM 5.9°F-14.5°C 4.3°F-15.4°C 93% 4.0 mph E6.4 kmh E -- 29.94 in1013.9 mb 0.00 in0.0 mm 0.00 in0.0 mm 0.00 in0.0 mm
06:02 PM 5.9°F-14.5°C 4.3°F-15.4°C 93% 5.0 mph E8.0 kmh E -- 29.94 in1013.9 mb 0.00 in0.0 mm 0.00 in0.0 mm 0.00 in0.0 mm
06:04 PM 5.9°F-14.5°C 4.3°F-15.4°C 93% 3.0 mph ESE4.8 kmh ESE -- 29.94 in1013.9 mb 0.00 in0.0 mm 0.00 in0.0 mm 0.00 in0.0 mm
06:05 PM 5.9°F-14.5°C 4.3°F-15.4°C 93% 4.0 mph ESE6.4 kmh ESE -- 29.94 in1013.9 mb 0.00 in0.0 mm 0.00 in0.0 mm 0.00 in0.0 mm
06:08 PM 5.9°F-14.5°C 4.3°F-15.4°C 93% 3.0 mph E4.8 kmh E -- 29.94 in1013.9 mb 0.00 in0.0 mm 0.00 in0.0 mm 0.00 in0.0 mm
06:09 PM 5.9°F-14.5°C 4.3°F-15.4°C 93% 5.0 mph ESE8.0 kmh ESE -- 29.94 in1013.9 mb 0.00 in0.0 mm 0.00 in0.0 mm 0.00 in0.0 mm
06:10 PM 5.9°F-14.5°C 4.3°F-15.4°C 93% 3.0 mph ESE4.8 kmh ESE -- 29.94 in1013.9 mb 0.00 in0.0 mm 0.00 in0.0 mm 0.00 in0.0 mm
06:11 PM 5.9°F-14.5°C 4.3°F-15.4°C 93% 4.0 mph ESE6.4 kmh ESE -- 29.94 in1013.9 mb 0.00 in0.0 mm 0.00 in0.0 mm 0.00 in0.0 mm
06:12 PM 5.9°F-14.5°C 4.3°F-15.4°C 93% 3.0 mph ESE4.8 kmh ESE -- 29.94 in1013.9 mb 0.00 in0.0 mm 0.00 in0.0 mm 0.00 in0.0 mm
06:13 PM 5.9°F-14.5°C 4.3°F-15.4°C 93% 3.0 mph ENE4.8 kmh ENE -- 29.94 in1013.9 mb 0.00 in0.0 mm 0.00 in0.0 mm 0.00 in0.0 mm
06:14 PM 5.9°F-14.5°C 4.3°F-15.4°C 93% 4.0 mph ESE6.4 kmh ESE -- 29.94 in1013.9 mb 0.00 in0.0 mm 0.00 in0.0 mm 0.00 in0.0 mm
06:15 PM 5.9°F-14.5°C 4.3°F-15.4°C 93% 4.0 mph E6.4 kmh E -- 29.94 in1013.9 mb 0.00 in0.0 mm 0.00 in0.0 mm 0.00 in0.0 mm
06:16 PM 5.9°F-14.5°C 4.3°F-15.4°C 93% 4.0 mph ENE6.4 kmh ENE -- 29.94 in1013.9 mb 0.00 in0.0 mm 0.00 in0.0 mm 0.00 in0.0 mm
06:17 PM 5.9°F-14.5°C 4.3°F-15.4°C 93% 4.0 mph E6.4 kmh E -- 29.94 in1013.9 mb 0.00 in0.0 mm 0.00 in0.0 mm 0.00 in0.0 mm
06:18 PM 5.9°F-14.5°C 4.3°F-15.4°C 93% 5.0 mph E8.0 kmh E -- 29.94 in1013.9 mb 0.00 in0.0 mm 0.00 in0.0 mm 0.00 in0.0 mm
06:19 PM 5.6°F-14.7°C 3.9°F-15.6°C 93% 5.0 mph ESE8.0 kmh ESE -- 29.94 in1013.9 mb 0.00 in0.0 mm 0.00 in0.0 mm 0.00 in0.0 mm
06:20 PM 5.6°F-14.7°C 3.9°F-15.6°C 93% 4.0 mph ESE6.4 kmh ESE -- 29.94 in1013.9 mb 0.00 in0.0 mm 0.00 in0.0 mm 0.00 in0.0 mm
06:21 PM 5.6°F-14.7°C 3.9°F-15.6°C 93% 3.0 mph ESE4.8 kmh ESE -- 29.94 in1013.9 mb 0.00 in0.0 mm 0.00 in0.0 mm 0.00 in0.0 mm
06:22 PM 5.6°F-14.7°C 3.9°F-15.6°C 93% 4.0 mph ESE6.4 kmh ESE -- 29.94 in1013.9 mb 0.00 in0.0 mm 0.00 in0.0 mm 0.00 in0.0 mm
06:23 PM 5.6°F-14.7°C 3.9°F-15.6°C 93% 3.0 mph ESE4.8 kmh ESE -- 29.94 in1013.9 mb 0.00 in0.0 mm 0.00 in0.0 mm 0.00 in0.0 mm
06:24 PM 5.6°F-14.7°C 3.9°F-15.6°C 93% 4.0 mph E6.4 kmh E -- 29.94 in1013.9 mb 0.00 in0.0 mm 0.00 in0.0 mm 0.00 in0.0 mm
06:25 PM 5.6°F-14.7°C 3.9°F-15.6°C 93% 4.0 mph ESE6.4 kmh ESE -- 29.94 in1013.9 mb 0.00 in0.0 mm 0.00 in0.0 mm 0.00 in0.0 mm
06:26 PM 5.6°F-14.7°C 3.9°F-15.6°C 93% 5.0 mph ESE8.0 kmh ESE -- 29.94 in1013.9 mb 0.00 in0.0 mm 0.00 in0.0 mm 0.00 in0.0 mm
06:27 PM 5.6°F-14.7°C 3.9°F-15.6°C 93% 4.0 mph ESE6.4 kmh ESE -- 29.94 in1013.9 mb 0.00 in0.0 mm 0.00 in0.0 mm 0.00 in0.0 mm
06:28 PM 5.6°F-14.7°C 3.9°F-15.6°C 93% 5.0 mph NE8.0 kmh NE -- 29.94 in1013.9 mb 0.00 in0.0 mm 0.00 in0.0 mm 0.00 in0.0 mm
06:29 PM 5.6°F-14.7°C 3.9°F-15.6°C 93% 5.0 mph E8.0 kmh E -- 29.94 in1013.9 mb 0.00 in0.0 mm 0.00 in0.0 mm 0.00 in0.0 mm
06:30 PM 5.6°F-14.7°C 3.9°F-15.6°C 93% 4.0 mph E6.4 kmh E -- 29.93 in1013.5 mb 0.00 in0.0 mm 0.00 in0.0 mm 0.00 in0.0 mm
06:31 PM 5.6°F-14.7°C 3.9°F-15.6°C 93% 4.0 mph E6.4 kmh E -- 29.94 in1013.9 mb 0.00 in0.0 mm 0.00 in0.0 mm 0.00 in0.0 mm
06:32 PM 5.6°F-14.7°C 3.9°F-15.6°C 93% 4.0 mph ESE6.4 kmh ESE -- 29.94 in1013.9 mb 0.00 in0.0 mm 0.00 in0.0 mm 0.00 in0.0 mm
06:33 PM 5.6°F-14.7°C 3.9°F-15.6°C 93% 4.0 mph E6.4 kmh E -- 29.94 in1013.9 mb 0.00 in0.0 mm 0.00 in0.0 mm 0.00 in0.0 mm
06:34 PM 5.6°F-14.7°C 3.9°F-15.6°C 93% 3.0 mph E4.8 kmh E -- 29.93 in1013.5 mb 0.00 in0.0 mm 0.00 in0.0 mm 0.00 in0.0 mm
06:35 PM 5.6°F-14.7°C 3.9°F-15.6°C 93% 4.0 mph E6.4 kmh E -- 29.93 in1013.5 mb 0.00 in0.0 mm 0.00 in0.0 mm 0.00 in0.0 mm
06:36 PM 5.6°F-14.7°C 3.9°F-15.6°C 93% 4.0 mph E6.4 kmh E -- 29.94 in1013.9 mb 0.00 in0.0 mm 0.00 in0.0 mm 0.00 in0.0 mm
06:37 PM 5.6°F-14.7°C 3.9°F-15.6°C 93% 4.0 mph ESE6.4 kmh ESE -- 29.94 in1013.9 mb 0.00 in0.0 mm 0.00 in0.0 mm 0.00 in0.0 mm
06:38 PM 5.6°F-14.7°C 3.9°F-15.6°C 93% 6.0 mph ESE9.7 kmh ESE -- 29.93 in1013.5 mb 0.00 in0.0 mm 0.00 in0.0 mm 0.00 in0.0 mm
06:39 PM 5.6°F-14.7°C 3.9°F-15.6°C 93% 3.0 mph ENE4.8 kmh ENE -- 29.94 in1013.9 mb 0.00 in0.0 mm 0.00 in0.0 mm 0.00 in0.0 mm
06:40 PM 5.6°F-14.7°C 3.9°F-15.6°C 93% 6.0 mph SSE9.7 kmh SSE -- 29.93 in1013.5 mb 0.00 in0.0 mm 0.00 in0.0 mm 0.00 in0.0 mm
06:41 PM 5.6°F-14.7°C 3.9°F-15.6°C 93% 5.0 mph E8.0 kmh E -- 29.93 in1013.5 mb 0.00 in0.0 mm 0.00 in0.0 mm 0.00 in0.0 mm
06:42 PM 5.6°F-14.7°C 3.9°F-15.6°C 93% 5.0 mph E8.0 kmh E -- 29.94 in1013.9 mb 0.00 in0.0 mm 0.00 in0.0 mm 0.00 in0.0 mm
06:43 PM 5.6°F-14.7°C 3.9°F-15.6°C 93% 4.0 mph E6.4 kmh E -- 29.94 in1013.9 mb 0.00 in0.0 mm 0.00 in0.0 mm 0.00 in0.0 mm
06:45 PM 5.6°F-14.7°C 3.9°F-15.6°C 93% 3.0 mph ESE4.8 kmh ESE -- 29.94 in1013.9 mb 0.00 in0.0 mm 0.00 in0.0 mm 0.00 in0.0 mm
06:46 PM 5.6°F-14.7°C 3.9°F-15.6°C 93% 4.0 mph ESE6.4 kmh ESE -- 29.94 in1013.9 mb 0.00 in0.0 mm 0.00 in0.0 mm 0.00 in0.0 mm
06:47 PM 5.6°F-14.7°C 3.9°F-15.6°C 93% 3.0 mph ESE4.8 kmh ESE -- 29.94 in1013.9 mb 0.00 in0.0 mm 0.00 in0.0 mm 0.00 in0.0 mm
06:48 PM 5.6°F-14.7°C 3.9°F-15.6°C 93% 5.0 mph E8.0 kmh E -- 29.94 in1013.9 mb 0.00 in0.0 mm 0.00 in0.0 mm 0.00 in0.0 mm
06:49 PM 5.6°F-14.7°C 3.9°F-15.6°C 93% 5.0 mph ESE8.0 kmh ESE -- 29.94 in1013.9 mb 0.00 in0.0 mm 0.00 in0.0 mm 0.00 in0.0 mm
06:50 PM 5.6°F-14.7°C 3.9°F-15.6°C 93% 5.0 mph SE8.0 kmh SE -- 29.94 in1013.9 mb 0.00 in0.0 mm 0.00 in0.0 mm 0.00 in0.0 mm
06:51 PM 5.6°F-14.7°C 3.9°F-15.6°C 93% 5.0 mph ENE8.0 kmh ENE -- 29.94 in1013.9 mb 0.00 in0.0 mm 0.00 in0.0 mm 0.00 in0.0 mm
06:52 PM 5.6°F-14.7°C 3.9°F-15.6°C 93% 4.0 mph SE6.4 kmh SE -- 29.93 in1013.5 mb 0.00 in0.0 mm 0.00 in0.0 mm 0.00 in0.0 mm
06:53 PM 5.6°F-14.7°C 3.9°F-15.6°C 93% 6.0 mph ENE9.7 kmh ENE -- 29.93 in1013.5 mb 0.00 in0.0 mm 0.00 in0.0 mm 0.00 in0.0 mm
06:54 PM 5.6°F-14.7°C 3.9°F-15.6°C 93% 4.0 mph ENE6.4 kmh ENE -- 29.93 in1013.5 mb 0.00 in0.0 mm 0.00 in0.0 mm 0.00 in0.0 mm
06:55 PM 5.6°F-14.7°C 3.9°F-15.6°C 93% 4.0 mph SE6.4 kmh SE -- 29.93 in1013.5 mb 0.00 in0.0 mm 0.00 in0.0 mm 0.00 in0.0 mm
06:56 PM 5.6°F-14.7°C 3.9°F-15.6°C 93% 5.0 mph ESE8.0 kmh ESE -- 29.93 in1013.5 mb 0.00 in0.0 mm 0.00 in0.0 mm 0.00 in0.0 mm
06:59 PM 5.6°F-14.7°C 3.9°F-15.6°C 93% 6.0 mph E9.7 kmh E -- 29.93 in1013.5 mb 0.00 in0.0 mm 0.00 in0.0 mm 0.00 in0.0 mm
07:00 PM 5.6°F-14.7°C 3.9°F-15.6°C 93% 4.0 mph E6.4 kmh E -- 29.93 in1013.5 mb 0.00 in0.0 mm 0.00 in0.0 mm 0.00 in0.0 mm
07:01 PM 5.6°F-14.7°C 3.9°F-15.6°C 93% 5.0 mph NE8.0 kmh NE -- 29.93 in1013.5 mb 0.00 in0.0 mm 0.00 in0.0 mm 0.00 in0.0 mm
07:02 PM 5.6°F-14.7°C 3.9°F-15.6°C 93% 3.0 mph ESE4.8 kmh ESE -- 29.93 in1013.5 mb 0.00 in0.0 mm 0.00 in0.0 mm 0.00 in0.0 mm
07:04 PM 5.6°F-14.7°C 3.9°F-15.6°C 93% 4.0 mph ESE6.4 kmh ESE -- 29.92 in1013.2 mb 0.00 in0.0 mm 0.00 in0.0 mm 0.00 in0.0 mm
07:06 PM 5.6°F-14.7°C 3.9°F-15.6°C 93% 5.0 mph E8.0 kmh E -- 29.92 in1013.2 mb 0.00 in0.0 mm 0.00 in0.0 mm 0.00 in0.0 mm
07:07 PM 5.6°F-14.7°C 3.9°F-15.6°C 93% 7.0 mph ESE11.3 kmh ESE -- 29.92 in1013.2 mb 0.00 in0.0 mm 0.00 in0.0 mm 0.00 in0.0 mm
07:08 PM 5.6°F-14.7°C 3.9°F-15.6°C 93% 6.0 mph ESE9.7 kmh ESE -- 29.92 in1013.2 mb 0.00 in0.0 mm 0.00 in0.0 mm 0.00 in0.0 mm
07:09 PM 5.6°F-14.7°C 3.9°F-15.6°C 93% 7.0 mph ESE11.3 kmh ESE -- 29.92 in1013.2 mb 0.00 in0.0 mm 0.00 in0.0 mm 0.00 in0.0 mm
07:10 PM 5.6°F-14.7°C 3.9°F-15.6°C 93% 5.0 mph ESE8.0 kmh ESE -- 29.92 in1013.2 mb 0.00 in0.0 mm 0.00 in0.0 mm 0.00 in0.0 mm
07:11 PM 5.6°F-14.7°C 3.9°F-15.6°C 93% 5.0 mph SE8.0 kmh SE -- 29.92 in1013.2 mb 0.00 in0.0 mm 0.00 in0.0 mm 0.00 in0.0 mm
07:12 PM 5.6°F-14.7°C 3.9°F-15.6°C 93% 4.0 mph SSE6.4 kmh SSE -- 29.92 in1013.2 mb 0.00 in0.0 mm 0.00 in0.0 mm 0.00 in0.0 mm
07:13 PM 5.6°F-14.7°C 3.9°F-15.6°C 93% 6.0 mph ESE9.7 kmh ESE -- 29.92 in1013.2 mb 0.00 in0.0 mm 0.00 in0.0 mm 0.00 in0.0 mm
07:14 PM 5.6°F-14.7°C 3.9°F-15.6°C 93% 5.0 mph ESE8.0 kmh ESE -- 29.92 in1013.2 mb 0.00 in0.0 mm 0.00 in0.0 mm 0.00 in0.0 mm
07:15 PM 5.6°F-14.7°C 3.9°F-15.6°C 93% 4.0 mph ESE6.4 kmh ESE -- 29.92 in1013.2 mb 0.00 in0.0 mm 0.00 in0.0 mm 0.00 in0.0 mm
07:16 PM 5.6°F-14.7°C 3.9°F-15.6°C 93% 6.0 mph E9.7 kmh E -- 29.92 in1013.2 mb 0.00 in0.0 mm 0.00 in0.0 mm 0.00 in0.0 mm
07:17 PM 5.6°F-14.7°C 3.9°F-15.6°C 93% 6.0 mph ESE9.7 kmh ESE -- 29.92 in1013.2 mb 0.00 in0.0 mm 0.00 in0.0 mm 0.00 in0.0 mm
07:18 PM 5.6°F-14.7°C 3.9°F-15.6°C 93% 8.0 mph ESE12.9 kmh ESE -- 29.92 in1013.2 mb 0.00 in0.0 mm 0.00 in0.0 mm 0.00 in0.0 mm
07:19 PM 5.6°F-14.7°C 3.9°F-15.6°C 93% 9.0 mph SE14.5 kmh SE -- 29.92 in1013.2 mb 0.00 in0.0 mm 0.00 in0.0 mm 0.00 in0.0 mm
07:20 PM 5.6°F-14.7°C 3.9°F-15.6°C 93% 5.0 mph ESE8.0 kmh ESE -- 29.92 in1013.2 mb 0.00 in0.0 mm 0.00 in0.0 mm 0.00 in0.0 mm
07:23 PM 5.6°F-14.7°C 3.9°F-15.6°C 93% 6.0 mph SE9.7 kmh SE -- 29.92 in1013.2 mb 0.00 in0.0 mm 0.00 in0.0 mm 0.00 in0.0 mm
07:24 PM 5.6°F-14.7°C 3.9°F-15.6°C 93% 6.0 mph ESE9.7 kmh ESE -- 29.92 in1013.2 mb 0.00 in0.0 mm 0.00 in0.0 mm 0.00 in0.0 mm
07:25 PM 5.6°F-14.7°C 3.9°F-15.6°C 93% 5.0 mph SE8.0 kmh SE -- 29.92 in1013.2 mb 0.00 in0.0 mm 0.00 in0.0 mm 0.00 in0.0 mm
07:26 PM 5.6°F-14.7°C 3.9°F-15.6°C 93% 9.0 mph SE14.5 kmh SE -- 29.92 in1013.2 mb 0.00 in0.0 mm 0.00 in0.0 mm 0.00 in0.0 mm
07:27 PM 5.6°F-14.7°C 3.9°F-15.6°C 93% 4.0 mph SE6.4 kmh SE -- 29.92 in1013.2 mb 0.00 in0.0 mm 0.00 in0.0 mm 0.00 in0.0 mm
07:28 PM 5.6°F-14.7°C 3.9°F-15.6°C 93% 6.0 mph ESE9.7 kmh ESE -- 29.92 in1013.2 mb 0.00 in0.0 mm 0.00 in0.0 mm 0.00 in0.0 mm
07:29 PM 5.6°F-14.7°C 3.9°F-15.6°C 93% 3.0 mph E4.8 kmh E -- 29.92 in1013.2 mb 0.00 in0.0 mm 0.00 in0.0 mm 0.00 in0.0 mm
07:30 PM 5.6°F-14.7°C 3.9°F-15.6°C 93% 5.0 mph SE8.0 kmh SE -- 29.92 in1013.2 mb 0.00 in0.0 mm 0.00 in0.0 mm 0.00 in0.0 mm
07:31 PM 5.6°F-14.7°C 3.9°F-15.6°C 93% 4.0 mph ESE6.4 kmh ESE -- 29.92 in1013.2 mb 0.00 in0.0 mm 0.00 in0.0 mm 0.00 in0.0 mm
07:32 PM 5.5°F-14.7°C 3.9°F-15.6°C 93% 5.0 mph ESE8.0 kmh ESE -- 29.92 in1013.2 mb 0.00 in0.0 mm 0.00 in0.0 mm 0.00 in0.0 mm
07:33 PM 5.5°F-14.7°C 3.9°F-15.6°C 93% 4.0 mph S6.4 kmh S -- 29.92 in1013.2 mb 0.00 in0.0 mm 0.00 in0.0 mm 0.00 in0.0 mm
07:34 PM 5.5°F-14.7°C 3.9°F-15.6°C 93% 7.0 mph ESE11.3 kmh ESE -- 29.92 in1013.2 mb 0.00 in0.0 mm 0.00 in0.0 mm 0.00 in0.0 mm
07:35 PM 5.5°F-14.7°C 3.9°F-15.6°C 93% 4.0 mph ESE6.4 kmh ESE -- 29.92 in1013.2 mb 0.00 in0.0 mm 0.00 in0.0 mm 0.00 in0.0 mm
07:37 PM 5.5°F-14.7°C 3.9°F-15.6°C 93% 8.0 mph ESE12.9 kmh ESE -- 29.92 in1013.2 mb 0.00 in0.0 mm 0.00 in0.0 mm 0.00 in0.0 mm
07:38 PM 5.5°F-14.7°C 3.9°F-15.6°C 93% 6.0 mph SE9.7 kmh SE -- 29.92 in1013.2 mb 0.00 in0.0 mm 0.00 in0.0 mm 0.00 in0.0 mm
07:39 PM 5.5°F-14.7°C 3.9°F-15.6°C 93% 4.0 mph ESE6.4 kmh ESE -- 29.92 in1013.2 mb 0.00 in0.0 mm 0.00 in0.0 mm 0.00 in0.0 mm
07:40 PM 5.5°F-14.7°C 3.9°F-15.6°C 93% 4.0 mph NNE6.4 kmh NNE -- 29.92 in1013.2 mb 0.00 in0.0 mm 0.00 in0.0 mm 0.00 in0.0 mm
07:41 PM 5.5°F-14.7°C 3.9°F-15.6°C 93% 6.0 mph SE9.7 kmh SE -- 29.92 in1013.2 mb 0.00 in0.0 mm 0.00 in0.0 mm 0.00 in0.0 mm
07:42 PM 5.5°F-14.7°C 3.9°F-15.6°C 93% 3.0 mph ESE4.8 kmh ESE -- 29.91 in1012.9 mb 0.00 in0.0 mm 0.00 in0.0 mm 0.00 in0.0 mm
07:43 PM 5.5°F-14.7°C 3.9°F-15.6°C 93% 4.0 mph E6.4 kmh E -- 29.92 in1013.2 mb 0.00 in0.0 mm 0.00 in0.0 mm 0.00 in0.0 mm
07:44 PM 5.5°F-14.7°C 3.9°F-15.6°C 93% 4.0 mph ESE6.4 kmh ESE -- 29.92 in1013.2 mb 0.00 in0.0 mm 0.00 in0.0 mm 0.00 in0.0 mm
07:45 PM 5.5°F-14.7°C 3.9°F-15.6°C 93% 3.0 mph ESE4.8 kmh ESE -- 29.91 in1012.9 mb 0.00 in0.0 mm 0.00 in0.0 mm 0.00 in0.0 mm
07:46 PM 5.5°F-14.7°C 3.9°F-15.6°C 93% 2.0 mph ESE3.2 kmh ESE -- 29.91 in1012.9 mb 0.00 in0.0 mm 0.00 in0.0 mm 0.00 in0.0 mm
07:48 PM 5.5°F-14.7°C 3.9°F-15.6°C 93% 3.0 mph ESE4.8 kmh ESE -- 29.92 in1013.2 mb 0.00 in0.0 mm 0.00 in0.0 mm 0.00 in0.0 mm
07:51 PM 5.5°F-14.7°C 3.9°F-15.6°C 93% 4.0 mph ESE6.4 kmh ESE -- 29.92 in1013.2 mb 0.00 in0.0 mm 0.00 in0.0 mm 0.00 in0.0 mm
07:52 PM 5.5°F-14.7°C 3.9°F-15.6°C 93% 3.0 mph ESE4.8 kmh ESE -- 29.92 in1013.2 mb 0.00 in0.0 mm 0.00 in0.0 mm 0.00 in0.0 mm
07:53 PM 5.5°F-14.7°C 3.9°F-15.6°C 93% 6.0 mph SE9.7 kmh SE -- 29.91 in1012.9 mb 0.00 in0.0 mm 0.00 in0.0 mm 0.00 in0.0 mm
07:54 PM 5.5°F-14.7°C 3.9°F-15.6°C 93% 5.0 mph ESE8.0 kmh ESE -- 29.91 in1012.9 mb 0.00 in0.0 mm 0.00 in0.0 mm 0.00 in0.0 mm
07:55 PM 5.5°F-14.7°C 3.9°F-15.6°C 93% 6.0 mph ESE9.7 kmh ESE -- 29.91 in1012.9 mb 0.00 in0.0 mm 0.00 in0.0 mm 0.00 in0.0 mm
07:56 PM 5.5°F-14.7°C 3.9°F-15.6°C 93% 4.0 mph ESE6.4 kmh ESE -- 29.91 in1012.9 mb 0.00 in0.0 mm 0.00 in0.0 mm 0.00 in0.0 mm
07:57 PM 5.5°F-14.7°C 3.9°F-15.6°C 93% 3.0 mph ESE4.8 kmh ESE -- 29.91 in1012.9 mb 0.00 in0.0 mm 0.00 in0.0 mm 0.00 in0.0 mm
08:00 PM 5.5°F-14.7°C 3.9°F-15.6°C 93% 2.0 mph ESE3.2 kmh ESE -- 29.91 in1012.9 mb 0.00 in0.0 mm 0.00 in0.0 mm 0.00 in0.0 mm
08:01 PM 5.5°F-14.7°C 3.9°F-15.6°C 93% 5.0 mph SE8.0 kmh SE -- 29.91 in1012.9 mb 0.00 in0.0 mm 0.00 in0.0 mm 0.00 in0.0 mm
08:02 PM 5.5°F-14.7°C 3.9°F-15.6°C 93% 5.0 mph ESE8.0 kmh ESE -- 29.91 in1012.9 mb 0.00 in0.0 mm 0.00 in0.0 mm 0.00 in0.0 mm
08:03 PM 5.5°F-14.7°C 3.9°F-15.6°C 93% 3.0 mph E4.8 kmh E -- 29.91 in1012.9 mb 0.00 in0.0 mm 0.00 in0.0 mm 0.00 in0.0 mm
08:04 PM 5.5°F-14.7°C 3.9°F-15.6°C 93% 6.0 mph ESE9.7 kmh ESE -- 29.91 in1012.9 mb 0.00 in0.0 mm 0.00 in0.0 mm 0.00 in0.0 mm
08:05 PM 5.5°F-14.7°C 3.9°F-15.6°C 93% 6.0 mph SSE9.7 kmh SSE -- 29.91 in1012.9 mb 0.00 in0.0 mm 0.00 in0.0 mm 0.00 in0.0 mm
08:06 PM 5.5°F-14.7°C 3.9°F-15.6°C 93% 5.0 mph SSE8.0 kmh SSE -- 29.91 in1012.9 mb 0.00 in0.0 mm 0.00 in0.0 mm 0.00 in0.0 mm
08:07 PM 5.5°F-14.7°C 3.9°F-15.6°C 93% 4.0 mph ESE6.4 kmh ESE -- 29.90 in1012.5 mb 0.00 in0.0 mm 0.00 in0.0 mm 0.00 in0.0 mm
08:09 PM 5.5°F-14.7°C 3.9°F-15.6°C 93% 3.0 mph ESE4.8 kmh ESE -- 29.90 in1012.5 mb 0.00 in0.0 mm 0.00 in0.0 mm 0.00 in0.0 mm
08:10 PM 5.5°F-14.7°C 3.9°F-15.6°C 93% 6.0 mph ENE9.7 kmh ENE -- 29.90 in1012.5 mb 0.00 in0.0 mm 0.00 in0.0 mm 0.00 in0.0 mm
08:11 PM 5.5°F-14.7°C 3.9°F-15.6°C 93% 4.0 mph ESE6.4 kmh ESE -- 29.90 in1012.5 mb 0.00 in0.0 mm 0.00 in0.0 mm 0.00 in0.0 mm
08:12 PM 5.5°F-14.7°C 4.2°F-15.4°C 94% 3.0 mph ENE4.8 kmh ENE -- 29.90 in1012.5 mb 0.00 in0.0 mm 0.00 in0.0 mm 0.00 in0.0 mm
08:13 PM 5.5°F-14.7°C 3.9°F-15.6°C 93% 3.0 mph ESE4.8 kmh ESE -- 29.90 in1012.5 mb 0.00 in0.0 mm 0.00 in0.0 mm 0.00 in0.0 mm
08:14 PM 5.5°F-14.7°C 3.9°F-15.6°C 93% 4.0 mph ESE6.4 kmh ESE -- 29.91 in1012.9 mb 0.00 in0.0 mm 0.00 in0.0 mm 0.00 in0.0 mm
08:15 PM 5.5°F-14.7°C 3.9°F-15.6°C 93% 3.0 mph ESE4.8 kmh ESE -- 29.91 in1012.9 mb 0.00 in0.0 mm 0.00 in0.0 mm 0.00 in0.0 mm
08:16 PM 5.5°F-14.7°C 3.9°F-15.6°C 93% 5.0 mph ESE8.0 kmh ESE -- 29.90 in1012.5 mb 0.00 in0.0 mm 0.00 in0.0 mm 0.00 in0.0 mm
08:17 PM 5.5°F-14.7°C 3.9°F-15.6°C 93% 4.0 mph ESE6.4 kmh ESE -- 29.90 in1012.5 mb 0.00 in0.0 mm 0.00 in0.0 mm 0.00 in0.0 mm
08:20 PM 5.5°F-14.7°C 3.9°F-15.6°C 93% 2.0 mph E3.2 kmh E -- 29.90 in1012.5 mb 0.00 in0.0 mm 0.00 in0.0 mm 0.00 in0.0 mm
08:21 PM 5.5°F-14.7°C 3.9°F-15.6°C 93% 6.0 mph SSE9.7 kmh SSE -- 29.90 in1012.5 mb 0.00 in0.0 mm 0.00 in0.0 mm 0.00 in0.0 mm
08:22 PM 5.5°F-14.7°C 4.2°F-15.4°C 94% 4.0 mph ESE6.4 kmh ESE -- 29.90 in1012.5 mb 0.00 in0.0 mm 0.00 in0.0 mm 0.00 in0.0 mm
08:23 PM 5.5°F-14.7°C 3.9°F-15.6°C 93% 4.0 mph ESE6.4 kmh ESE -- 29.90 in1012.5 mb 0.00 in0.0 mm 0.00 in0.0 mm 0.00 in0.0 mm
08:24 PM 5.5°F-14.7°C 3.9°F-15.6°C 93% 3.0 mph ESE4.8 kmh ESE -- 29.90 in1012.5 mb 0.00 in0.0 mm 0.00 in0.0 mm 0.00 in0.0 mm
08:26 PM 5.5°F-14.7°C 3.9°F-15.6°C 93% 4.0 mph ESE6.4 kmh ESE -- 29.90 in1012.5 mb 0.00 in0.0 mm 0.00 in0.0 mm 0.00 in0.0 mm
08:27 PM 5.5°F-14.7°C 3.9°F-15.6°C 93% 3.0 mph ESE4.8 kmh ESE -- 29.89 in1012.2 mb 0.00 in0.0 mm 0.00 in0.0 mm 0.00 in0.0 mm
08:28 PM 5.5°F-14.7°C 3.9°F-15.6°C 93% 5.0 mph ESE8.0 kmh ESE -- 29.89 in1012.2 mb 0.00 in0.0 mm 0.00 in0.0 mm 0.00 in0.0 mm
08:29 PM 5.5°F-14.7°C 3.9°F-15.6°C 93% 4.0 mph ESE6.4 kmh ESE -- 29.89 in1012.2 mb 0.00 in0.0 mm 0.00 in0.0 mm 0.00 in0.0 mm
08:30 PM 5.5°F-14.7°C 3.9°F-15.6°C 93% 3.0 mph SE4.8 kmh SE -- 29.89 in1012.2 mb 0.00 in0.0 mm 0.00 in0.0 mm 0.00 in0.0 mm
08:31 PM 5.5°F-14.7°C 3.9°F-15.6°C 93% 6.0 mph ESE9.7 kmh ESE -- 29.89 in1012.2 mb 0.00 in0.0 mm 0.00 in0.0 mm 0.00 in0.0 mm
08:32 PM 5.5°F-14.7°C 3.9°F-15.6°C 93% 4.0 mph SSE6.4 kmh SSE -- 29.89 in1012.2 mb 0.00 in0.0 mm 0.00 in0.0 mm 0.00 in0.0 mm
08:33 PM 5.5°F-14.7°C 3.9°F-15.6°C 93% 5.0 mph SSE8.0 kmh SSE -- 29.89 in1012.2 mb 0.00 in0.0 mm 0.00 in0.0 mm 0.00 in0.0 mm
08:34 PM 5.5°F-14.7°C 3.9°F-15.6°C 93% 3.0 mph E4.8 kmh E -- 29.89 in1012.2 mb 0.00 in0.0 mm 0.00 in0.0 mm 0.00 in0.0 mm
08:35 PM 5.5°F-14.7°C 3.9°F-15.6°C 93% 4.0 mph NE6.4 kmh NE -- 29.89 in1012.2 mb 0.00 in0.0 mm 0.00 in0.0 mm 0.00 in0.0 mm
08:36 PM 5.5°F-14.7°C 3.9°F-15.6°C 93% 5.0 mph ESE8.0 kmh ESE -- 29.90 in1012.5 mb 0.00 in0.0 mm 0.00 in0.0 mm 0.00 in0.0 mm
08:37 PM 5.5°F-14.7°C 3.9°F-15.6°C 93% 3.0 mph ESE4.8 kmh ESE -- 29.90 in1012.5 mb 0.00 in0.0 mm 0.00 in0.0 mm 0.00 in0.0 mm
08:39 PM 5.5°F-14.7°C 3.9°F-15.6°C 93% 4.0 mph ESE6.4 kmh ESE -- 29.90 in1012.5 mb 0.00 in0.0 mm 0.00 in0.0 mm 0.00 in0.0 mm
08:40 PM 5.5°F-14.7°C 3.9°F-15.6°C 93% 2.0 mph ESE3.2 kmh ESE -- 29.90 in1012.5 mb 0.00 in0.0 mm 0.00 in0.0 mm 0.00 in0.0 mm
08:41 PM 5.5°F-14.7°C 3.9°F-15.6°C 93% 4.0 mph ESE6.4 kmh ESE -- 29.89 in1012.2 mb 0.00 in0.0 mm 0.00 in0.0 mm 0.00 in0.0 mm
08:43 PM 5.5°F-14.7°C 3.9°F-15.6°C 93% 5.0 mph ESE8.0 kmh ESE -- 29.90 in1012.5 mb 0.00 in0.0 mm 0.00 in0.0 mm 0.00 in0.0 mm
08:44 PM 5.5°F-14.7°C 3.9°F-15.6°C 93% 3.0 mph ESE4.8 kmh ESE -- 29.90 in1012.5 mb 0.00 in0.0 mm 0.00 in0.0 mm 0.00 in0.0 mm
08:45 PM 5.5°F-14.7°C 3.9°F-15.6°C 93% 6.0 mph ESE9.7 kmh ESE -- 29.90 in1012.5 mb 0.00 in0.0 mm 0.00 in0.0 mm 0.00 in0.0 mm
08:46 PM 5.5°F-14.7°C 3.9°F-15.6°C 93% 6.0 mph SE9.7 kmh SE -- 29.90 in1012.5 mb 0.00 in0.0 mm 0.00 in0.0 mm 0.00 in0.0 mm
08:47 PM 5.5°F-14.7°C 3.9°F-15.6°C 93% 4.0 mph ESE6.4 kmh ESE -- 29.89 in1012.2 mb 0.00 in0.0 mm 0.00 in0.0 mm 0.00 in0.0 mm
08:48 PM 5.5°F-14.7°C 3.9°F-15.6°C 93% 7.0 mph ESE11.3 kmh ESE -- 29.89 in1012.2 mb 0.00 in0.0 mm 0.00 in0.0 mm 0.00 in0.0 mm
08:49 PM 5.5°F-14.7°C 3.9°F-15.6°C 93% 6.0 mph SE9.7 kmh SE -- 29.89 in1012.2 mb 0.00 in0.0 mm 0.00 in0.0 mm 0.00 in0.0 mm
08:50 PM 5.5°F-14.7°C 3.9°F-15.6°C 93% 4.0 mph ESE6.4 kmh ESE -- 29.89 in1012.2 mb 0.00 in0.0 mm 0.00 in0.0 mm 0.00 in0.0 mm
08:51 PM 5.5°F-14.7°C 3.9°F-15.6°C 93% 4.0 mph ESE6.4 kmh ESE -- 29.88 in1011.9 mb 0.00 in0.0 mm 0.00 in0.0 mm 0.00 in0.0 mm
08:52 PM 5.5°F-14.7°C 3.9°F-15.6°C 93% 6.0 mph NNE9.7 kmh NNE -- 29.88 in1011.9 mb 0.00 in0.0 mm 0.00 in0.0 mm 0.00 in0.0 mm
08:53 PM 5.5°F-14.7°C 3.9°F-15.6°C 93% 5.0 mph SSE8.0 kmh SSE -- 29.88 in1011.9 mb 0.00 in0.0 mm 0.00 in0.0 mm 0.00 in0.0 mm
08:54 PM 5.5°F-14.7°C 3.9°F-15.6°C 93% 5.0 mph SE8.0 kmh SE -- 29.88 in1011.9 mb 0.00 in0.0 mm 0.00 in0.0 mm 0.00 in0.0 mm
08:55 PM 5.5°F-14.7°C 3.9°F-15.6°C 93% 4.0 mph E6.4 kmh E -- 29.88 in1011.9 mb 0.00 in0.0 mm 0.00 in0.0 mm 0.00 in0.0 mm
08:56 PM 5.5°F-14.7°C 3.9°F-15.6°C 93% 4.0 mph SE6.4 kmh SE -- 29.88 in1011.9 mb 0.00 in0.0 mm 0.00 in0.0 mm 0.00 in0.0 mm
08:57 PM 5.5°F-14.7°C 3.9°F-15.6°C 93% 7.0 mph SE11.3 kmh SE -- 29.88 in1011.9 mb 0.00 in0.0 mm 0.00 in0.0 mm 0.00 in0.0 mm
08:58 PM 5.5°F-14.7°C 3.9°F-15.6°C 93% 5.0 mph ESE8.0 kmh ESE -- 29.88 in1011.9 mb 0.00 in0.0 mm 0.00 in0.0 mm 0.00 in0.0 mm
08:59 PM 5.5°F-14.7°C 3.9°F-15.6°C 93% 4.0 mph SE6.4 kmh SE -- 29.88 in1011.9 mb 0.00 in0.0 mm 0.00 in0.0 mm 0.00 in0.0 mm
09:00 PM 5.5°F-14.7°C 3.9°F-15.6°C 93% 3.0 mph E4.8 kmh E -- 29.88 in1011.9 mb 0.00 in0.0 mm 0.00 in0.0 mm 0.00 in0.0 mm
09:01 PM 5.5°F-14.7°C 3.9°F-15.6°C 93% 4.0 mph ESE6.4 kmh ESE -- 29.87 in1011.5 mb 0.00 in0.0 mm 0.00 in0.0 mm 0.00 in0.0 mm
09:02 PM 5.4°F-14.8°C 3.8°F-15.7°C 93% 5.0 mph ESE8.0 kmh ESE -- 29.88 in1011.9 mb 0.00 in0.0 mm 0.00 in0.0 mm 0.00 in0.0 mm
09:03 PM 5.4°F-14.8°C 3.8°F-15.7°C 93% 5.0 mph NE8.0 kmh NE -- 29.88 in1011.9 mb 0.00 in0.0 mm 0.00 in0.0 mm 0.00 in0.0 mm
09:04 PM 5.4°F-14.8°C 3.8°F-15.7°C 93% 6.0 mph E9.7 kmh E -- 29.88 in1011.9 mb 0.00 in0.0 mm 0.00 in0.0 mm 0.00 in0.0 mm
09:05 PM 5.4°F-14.8°C 3.8°F-15.7°C 93% 4.0 mph ESE6.4 kmh ESE -- 29.88 in1011.9 mb 0.00 in0.0 mm 0.00 in0.0 mm 0.00 in0.0 mm
09:06 PM 5.4°F-14.8°C 3.8°F-15.7°C 93% 6.0 mph E9.7 kmh E -- 29.87 in1011.5 mb 0.00 in0.0 mm 0.00 in0.0 mm 0.00 in0.0 mm
09:07 PM 5.4°F-14.8°C 3.8°F-15.7°C 93% 6.0 mph ENE9.7 kmh ENE -- 29.88 in1011.9 mb 0.00 in0.0 mm 0.00 in0.0 mm 0.00 in0.0 mm
09:08 PM 5.1°F-14.9°C 3.6°F-15.8°C 93% 5.0 mph ENE8.0 kmh ENE -- 29.88 in1011.9 mb 0.00 in0.0 mm 0.00 in0.0 mm 0.00 in0.0 mm
09:09 PM 5.1°F-14.9°C 3.6°F-15.8°C 93% 6.0 mph ESE9.7 kmh ESE -- 29.87 in1011.5 mb 0.00 in0.0 mm 0.00 in0.0 mm 0.00 in0.0 mm
09:10 PM 5.1°F-14.9°C 3.6°F-15.8°C 93% 5.0 mph E8.0 kmh E -- 29.87 in1011.5 mb 0.00 in0.0 mm 0.00 in0.0 mm 0.00 in0.0 mm
09:11 PM 5.1°F-14.9°C 3.6°F-15.8°C 93% 4.0 mph E6.4 kmh E -- 29.88 in1011.9 mb 0.00 in0.0 mm 0.00 in0.0 mm 0.00 in0.0 mm
09:12 PM 5.1°F-14.9°C 3.6°F-15.8°C 93% 6.0 mph ENE9.7 kmh ENE -- 29.87 in1011.5 mb 0.00 in0.0 mm 0.00 in0.0 mm 0.00 in0.0 mm
09:13 PM 5.0°F-15.0°C 3.4°F-15.9°C 93% 5.0 mph SE8.0 kmh SE -- 29.88 in1011.9 mb 0.00 in0.0 mm 0.00 in0.0 mm 0.00 in0.0 mm
09:14 PM 5.0°F-15.0°C 3.4°F-15.9°C 93% 7.0 mph ESE11.3 kmh ESE -- 29.87 in1011.5 mb 0.00 in0.0 mm 0.00 in0.0 mm 0.00 in0.0 mm
09:16 PM 5.0°F-15.0°C 3.4°F-15.9°C 93% 6.0 mph ESE9.7 kmh ESE -- 29.87 in1011.5 mb 0.00 in0.0 mm 0.00 in0.0 mm 0.00 in0.0 mm
09:17 PM 5.0°F-15.0°C 3.6°F-15.8°C 94% 4.0 mph ESE6.4 kmh ESE -- 29.88 in1011.9 mb 0.00 in0.0 mm 0.00 in0.0 mm 0.00 in0.0 mm
09:18 PM 5.0°F-15.0°C 3.4°F-15.9°C 93% 3.0 mph E4.8 kmh E -- 29.88 in1011.9 mb 0.00 in0.0 mm 0.00 in0.0 mm 0.00 in0.0 mm
09:19 PM 5.0°F-15.0°C 3.4°F-15.9°C 93% 5.0 mph SSE8.0 kmh SSE -- 29.87 in1011.5 mb 0.00 in0.0 mm 0.00 in0.0 mm 0.00 in0.0 mm
09:20 PM 5.0°F-15.0°C 3.4°F-15.9°C 93% 6.0 mph E9.7 kmh E -- 29.87 in1011.5 mb 0.00 in0.0 mm 0.00 in0.0 mm 0.00 in0.0 mm
09:21 PM 5.0°F-15.0°C 3.4°F-15.9°C 93% 5.0 mph E8.0 kmh E -- 29.87 in1011.5 mb 0.00 in0.0 mm 0.00 in0.0 mm 0.00 in0.0 mm
09:22 PM 4.8°F-15.1°C 3.2°F-16.0°C 93% 4.0 mph ESE6.4 kmh ESE -- 29.87 in1011.5 mb 0.00 in0.0 mm 0.00 in0.0 mm 0.00 in0.0 mm
09:23 PM 4.8°F-15.1°C 3.2°F-16.0°C 93% 5.0 mph ESE8.0 kmh ESE -- 29.87 in1011.5 mb 0.00 in0.0 mm 0.00 in0.0 mm 0.00 in0.0 mm
09:24 PM 4.8°F-15.1°C 3.2°F-16.0°C 93% 4.0 mph SE6.4 kmh SE -- 29.87 in1011.5 mb 0.00 in0.0 mm 0.00 in0.0 mm 0.00 in0.0 mm
09:25 PM 4.8°F-15.1°C 3.2°F-16.0°C 93% 2.0 mph E3.2 kmh E -- 29.87 in1011.5 mb 0.00 in0.0 mm 0.00 in0.0 mm 0.00 in0.0 mm
09:26 PM 4.8°F-15.1°C 3.2°F-16.0°C 93% 4.0 mph ENE6.4 kmh ENE -- 29.87 in1011.5 mb 0.00 in0.0 mm 0.00 in0.0 mm 0.00 in0.0 mm
09:27 PM 4.8°F-15.1°C 3.2°F-16.0°C 93% 4.0 mph NE6.4 kmh NE -- 29.87 in1011.5 mb 0.00 in0.0 mm 0.00 in0.0 mm 0.00 in0.0 mm
09:28 PM 4.8°F-15.1°C 3.2°F-16.0°C 93% 5.0 mph E8.0 kmh E -- 29.87 in1011.5 mb 0.00 in0.0 mm 0.00 in0.0 mm 0.00 in0.0 mm
09:29 PM 4.8°F-15.1°C 3.2°F-16.0°C 93% 4.0 mph E6.4 kmh E -- 29.88 in1011.9 mb 0.00 in0.0 mm 0.00 in0.0 mm 0.00 in0.0 mm
09:31 PM 4.8°F-15.1°C 3.2°F